<?xml version="1.0" encoding="UTF-8" standalone="no" ?>
<gpx xmlns="http://www.topografix.com/GPX/1/1" xmlns:xsi="http://www.w3.org/2001/XMLSchema-instance" xsi:schemaLocation="http://www.topografix.com/GPX/1/1 http://www.topografix.com/GPX/1/1/gpx.xsd" version="1.1" creator="VisuGPX - https://www.visugpx.com">
  <metadata>
    <name>Latouille-Lentillac</name>
    <desc><![CDATA[File with points/tracks from Locus Map/4.12.1]]></desc>
  </metadata>
  <trk>
    <name><![CDATA[2022-10-31 11:49]]></name>
    <trkseg>
      <trkpt lat="44.85426" lon="1.96368">
        <ele>214.42</ele>
        <time>2022-10-31T10:49:05.000Z</time>
      </trkpt>
      <trkpt lat="44.85427" lon="1.9637">
        <ele>213.43</ele>
        <time>2022-10-31T10:49:14.710Z</time>
      </trkpt>
      <trkpt lat="44.85428" lon="1.96375">
        <ele>212.43</ele>
        <time>2022-10-31T10:49:24.000Z</time>
      </trkpt>
      <trkpt lat="44.85427" lon="1.96373">
        <ele>212.42</ele>
        <time>2022-10-31T10:49:34.000Z</time>
      </trkpt>
      <trkpt lat="44.85427" lon="1.96375">
        <ele>212.6</ele>
        <time>2022-10-31T10:49:57.000Z</time>
      </trkpt>
      <trkpt lat="44.85427" lon="1.96375">
        <ele>213.4</ele>
        <time>2022-10-31T10:50:09.670Z</time>
      </trkpt>
      <trkpt lat="44.85429" lon="1.9638">
        <ele>216.41</ele>
        <time>2022-10-31T10:50:19.000Z</time>
      </trkpt>
      <trkpt lat="44.85428" lon="1.96382">
        <ele>215.18</ele>
        <time>2022-10-31T10:50:29.000Z</time>
      </trkpt>
      <trkpt lat="44.85428" lon="1.96385">
        <ele>214.41</ele>
        <time>2022-10-31T10:50:39.000Z</time>
      </trkpt>
      <trkpt lat="44.85428" lon="1.96387">
        <ele>213.43</ele>
        <time>2022-10-31T10:50:48.710Z</time>
      </trkpt>
      <trkpt lat="44.85436" lon="1.96396">
        <ele>212.16</ele>
        <time>2022-10-31T10:50:58.000Z</time>
      </trkpt>
      <trkpt lat="44.85446" lon="1.96394">
        <ele>213.41</ele>
        <time>2022-10-31T10:51:07.511Z</time>
      </trkpt>
      <trkpt lat="44.85456" lon="1.96394">
        <ele>212.41</ele>
        <time>2022-10-31T10:51:16.670Z</time>
      </trkpt>
      <trkpt lat="44.85463" lon="1.96396">
        <ele>213.16</ele>
        <time>2022-10-31T10:51:26.000Z</time>
      </trkpt>
      <trkpt lat="44.85464" lon="1.96396">
        <ele>213.41</ele>
        <time>2022-10-31T10:51:36.000Z</time>
      </trkpt>
      <trkpt lat="44.85463" lon="1.96397">
        <ele>219.16</ele>
        <time>2022-10-31T10:51:49.151Z</time>
      </trkpt>
      <trkpt lat="44.85461" lon="1.96396">
        <ele>220.35</ele>
        <time>2022-10-31T10:51:58.470Z</time>
      </trkpt>
      <trkpt lat="44.85459" lon="1.96392">
        <ele>221.66</ele>
        <time>2022-10-31T10:52:08.000Z</time>
      </trkpt>
      <trkpt lat="44.85455" lon="1.96391">
        <ele>215.43</ele>
        <time>2022-10-31T10:52:18.000Z</time>
      </trkpt>
      <trkpt lat="44.85452" lon="1.96388">
        <ele>213.42</ele>
        <time>2022-10-31T10:52:27.550Z</time>
      </trkpt>
      <trkpt lat="44.85453" lon="1.96379">
        <ele>212.41</ele>
        <time>2022-10-31T10:52:36.630Z</time>
      </trkpt>
      <trkpt lat="44.85457" lon="1.96362">
        <ele>214.42</ele>
        <time>2022-10-31T10:52:46.531Z</time>
      </trkpt>
      <trkpt lat="44.85458" lon="1.9635">
        <ele>213.41</ele>
        <time>2022-10-31T10:52:56.000Z</time>
      </trkpt>
      <trkpt lat="44.85461" lon="1.96335">
        <ele>213.42</ele>
        <time>2022-10-31T10:53:05.501Z</time>
      </trkpt>
      <trkpt lat="44.85467" lon="1.96324">
        <ele>212.35</ele>
        <time>2022-10-31T10:53:15.000Z</time>
      </trkpt>
      <trkpt lat="44.85471" lon="1.96312">
        <ele>212.42</ele>
        <time>2022-10-31T10:53:24.570Z</time>
      </trkpt>
      <trkpt lat="44.85473" lon="1.96298">
        <ele>214.35</ele>
        <time>2022-10-31T10:53:34.000Z</time>
      </trkpt>
      <trkpt lat="44.85477" lon="1.96287">
        <ele>214.42</ele>
        <time>2022-10-31T10:53:43.449Z</time>
      </trkpt>
      <trkpt lat="44.85482" lon="1.96274">
        <ele>214.41</ele>
        <time>2022-10-31T10:53:52.570Z</time>
      </trkpt>
      <trkpt lat="44.85486" lon="1.9626">
        <ele>214.48</ele>
        <time>2022-10-31T10:54:01.610Z</time>
      </trkpt>
      <trkpt lat="44.85487" lon="1.96245">
        <ele>216.42</ele>
        <time>2022-10-31T10:54:11.131Z</time>
      </trkpt>
      <trkpt lat="44.85488" lon="1.96238">
        <ele>218.4</ele>
        <time>2022-10-31T10:54:20.469Z</time>
      </trkpt>
      <trkpt lat="44.85489" lon="1.96223">
        <ele>220.42</ele>
        <time>2022-10-31T10:54:30.510Z</time>
      </trkpt>
      <trkpt lat="44.8549" lon="1.96211">
        <ele>222.36</ele>
        <time>2022-10-31T10:54:39.689Z</time>
      </trkpt>
      <trkpt lat="44.8549" lon="1.96198">
        <ele>224.36</ele>
        <time>2022-10-31T10:54:48.849Z</time>
      </trkpt>
      <trkpt lat="44.85489" lon="1.96186">
        <ele>224.42</ele>
        <time>2022-10-31T10:54:58.359Z</time>
      </trkpt>
      <trkpt lat="44.85487" lon="1.96178">
        <ele>227.4</ele>
        <time>2022-10-31T10:55:07.590Z</time>
      </trkpt>
      <trkpt lat="44.85483" lon="1.96168">
        <ele>227.42</ele>
        <time>2022-10-31T10:55:17.000Z</time>
      </trkpt>
      <trkpt lat="44.85482" lon="1.96157">
        <ele>230.4</ele>
        <time>2022-10-31T10:55:26.341Z</time>
      </trkpt>
      <trkpt lat="44.8548" lon="1.96144">
        <ele>230.42</ele>
        <time>2022-10-31T10:55:36.000Z</time>
      </trkpt>
      <trkpt lat="44.85479" lon="1.96131">
        <ele>230.18</ele>
        <time>2022-10-31T10:55:45.071Z</time>
      </trkpt>
      <trkpt lat="44.85478" lon="1.96117">
        <ele>230.42</ele>
        <time>2022-10-31T10:55:54.530Z</time>
      </trkpt>
      <trkpt lat="44.85475" lon="1.96104">
        <ele>233.11</ele>
        <time>2022-10-31T10:56:04.000Z</time>
      </trkpt>
      <trkpt lat="44.85472" lon="1.96091">
        <ele>236.36</ele>
        <time>2022-10-31T10:56:13.471Z</time>
      </trkpt>
      <trkpt lat="44.85468" lon="1.96081">
        <ele>236.48</ele>
        <time>2022-10-31T10:56:23.000Z</time>
      </trkpt>
      <trkpt lat="44.85465" lon="1.96065">
        <ele>237.17</ele>
        <time>2022-10-31T10:56:33.000Z</time>
      </trkpt>
      <trkpt lat="44.85463" lon="1.96048">
        <ele>238.42</ele>
        <time>2022-10-31T10:56:42.349Z</time>
      </trkpt>
      <trkpt lat="44.85461" lon="1.9603">
        <ele>238.42</ele>
        <time>2022-10-31T10:56:52.000Z</time>
      </trkpt>
      <trkpt lat="44.85459" lon="1.96014">
        <ele>239.36</ele>
        <time>2022-10-31T10:57:01.385Z</time>
      </trkpt>
      <trkpt lat="44.85461" lon="1.95997">
        <ele>240.67</ele>
        <time>2022-10-31T10:57:10.890Z</time>
      </trkpt>
      <trkpt lat="44.85461" lon="1.95982">
        <ele>239.42</ele>
        <time>2022-10-31T10:57:20.000Z</time>
      </trkpt>
      <trkpt lat="44.85467" lon="1.95973">
        <ele>240.42</ele>
        <time>2022-10-31T10:57:30.000Z</time>
      </trkpt>
      <trkpt lat="44.85474" lon="1.95966">
        <ele>242.42</ele>
        <time>2022-10-31T10:57:39.269Z</time>
      </trkpt>
      <trkpt lat="44.85482" lon="1.95959">
        <ele>243.48</ele>
        <time>2022-10-31T10:57:48.409Z</time>
      </trkpt>
      <trkpt lat="44.85489" lon="1.95948">
        <ele>244.42</ele>
        <time>2022-10-31T10:57:57.709Z</time>
      </trkpt>
      <trkpt lat="44.85495" lon="1.95936">
        <ele>242.44</ele>
        <time>2022-10-31T10:58:07.010Z</time>
      </trkpt>
      <trkpt lat="44.85503" lon="1.95925">
        <ele>239.49</ele>
        <time>2022-10-31T10:58:16.270Z</time>
      </trkpt>
      <trkpt lat="44.85512" lon="1.9592">
        <ele>238.44</ele>
        <time>2022-10-31T10:58:25.730Z</time>
      </trkpt>
      <trkpt lat="44.85519" lon="1.95919">
        <ele>237.36</ele>
        <time>2022-10-31T10:58:35.000Z</time>
      </trkpt>
      <trkpt lat="44.85526" lon="1.95916">
        <ele>241.41</ele>
        <time>2022-10-31T10:58:44.050Z</time>
      </trkpt>
      <trkpt lat="44.85535" lon="1.95919">
        <ele>244.42</ele>
        <time>2022-10-31T10:58:54.000Z</time>
      </trkpt>
      <trkpt lat="44.85543" lon="1.95924">
        <ele>242.44</ele>
        <time>2022-10-31T10:59:04.000Z</time>
      </trkpt>
      <trkpt lat="44.85547" lon="1.95925">
        <ele>241.43</ele>
        <time>2022-10-31T10:59:14.000Z</time>
      </trkpt>
      <trkpt lat="44.85548" lon="1.95925">
        <ele>239.49</ele>
        <time>2022-10-31T10:59:23.409Z</time>
      </trkpt>
      <trkpt lat="44.85549" lon="1.95926">
        <ele>242.42</ele>
        <time>2022-10-31T10:59:33.000Z</time>
      </trkpt>
      <trkpt lat="44.85553" lon="1.95929">
        <ele>245.42</ele>
        <time>2022-10-31T10:59:42.650Z</time>
      </trkpt>
      <trkpt lat="44.85559" lon="1.95937">
        <ele>247.41</ele>
        <time>2022-10-31T10:59:53.000Z</time>
      </trkpt>
      <trkpt lat="44.8556" lon="1.95946">
        <ele>252.16</ele>
        <time>2022-10-31T11:00:03.000Z</time>
      </trkpt>
      <trkpt lat="44.8556" lon="1.95953">
        <ele>256.42</ele>
        <time>2022-10-31T11:00:12.510Z</time>
      </trkpt>
      <trkpt lat="44.85558" lon="1.95961">
        <ele>260.17</ele>
        <time>2022-10-31T11:00:22.151Z</time>
      </trkpt>
      <trkpt lat="44.85555" lon="1.95966">
        <ele>262.92</ele>
        <time>2022-10-31T11:00:31.451Z</time>
      </trkpt>
      <trkpt lat="44.85553" lon="1.95975">
        <ele>267.17</ele>
        <time>2022-10-31T11:00:41.101Z</time>
      </trkpt>
      <trkpt lat="44.85552" lon="1.95983">
        <ele>268.42</ele>
        <time>2022-10-31T11:00:51.000Z</time>
      </trkpt>
      <trkpt lat="44.85548" lon="1.95992">
        <ele>265.43</ele>
        <time>2022-10-31T11:01:00.410Z</time>
      </trkpt>
      <trkpt lat="44.85546" lon="1.96">
        <ele>264.42</ele>
        <time>2022-10-31T11:01:10.109Z</time>
      </trkpt>
      <trkpt lat="44.85546" lon="1.96005">
        <ele>264.17</ele>
        <time>2022-10-31T11:01:19.270Z</time>
      </trkpt>
      <trkpt lat="44.85546" lon="1.96014">
        <ele>263.44</ele>
        <time>2022-10-31T11:01:29.000Z</time>
      </trkpt>
      <trkpt lat="44.85546" lon="1.96022">
        <ele>263.42</ele>
        <time>2022-10-31T11:01:38.330Z</time>
      </trkpt>
      <trkpt lat="44.85547" lon="1.9603">
        <ele>263.42</ele>
        <time>2022-10-31T11:01:48.000Z</time>
      </trkpt>
      <trkpt lat="44.85549" lon="1.9604">
        <ele>264.42</ele>
        <time>2022-10-31T11:01:58.000Z</time>
      </trkpt>
      <trkpt lat="44.85553" lon="1.9605">
        <ele>264.48</ele>
        <time>2022-10-31T11:02:08.000Z</time>
      </trkpt>
      <trkpt lat="44.85555" lon="1.96059">
        <ele>263.42</ele>
        <time>2022-10-31T11:02:18.000Z</time>
      </trkpt>
      <trkpt lat="44.85558" lon="1.96065">
        <ele>264.42</ele>
        <time>2022-10-31T11:02:27.651Z</time>
      </trkpt>
      <trkpt lat="44.85561" lon="1.9607">
        <ele>263.42</ele>
        <time>2022-10-31T11:02:37.000Z</time>
      </trkpt>
      <trkpt lat="44.85562" lon="1.96072">
        <ele>263.42</ele>
        <time>2022-10-31T11:02:46.511Z</time>
      </trkpt>
      <trkpt lat="44.85563" lon="1.96074">
        <ele>262.42</ele>
        <time>2022-10-31T11:02:55.513Z</time>
      </trkpt>
      <trkpt lat="44.85568" lon="1.96078">
        <ele>265.17</ele>
        <time>2022-10-31T11:03:05.000Z</time>
      </trkpt>
      <trkpt lat="44.85575" lon="1.96078">
        <ele>268.4</ele>
        <time>2022-10-31T11:03:14.610Z</time>
      </trkpt>
      <trkpt lat="44.85582" lon="1.9608">
        <ele>269.42</ele>
        <time>2022-10-31T11:03:24.000Z</time>
      </trkpt>
      <trkpt lat="44.8559" lon="1.96081">
        <ele>274.16</ele>
        <time>2022-10-31T11:03:33.431Z</time>
      </trkpt>
      <trkpt lat="44.85597" lon="1.96081">
        <ele>274.48</ele>
        <time>2022-10-31T11:03:43.090Z</time>
      </trkpt>
      <trkpt lat="44.85602" lon="1.9608">
        <ele>275.4</ele>
        <time>2022-10-31T11:03:52.533Z</time>
      </trkpt>
      <trkpt lat="44.85607" lon="1.96082">
        <ele>276.42</ele>
        <time>2022-10-31T11:04:02.000Z</time>
      </trkpt>
      <trkpt lat="44.85612" lon="1.96084">
        <ele>278.41</ele>
        <time>2022-10-31T11:04:11.550Z</time>
      </trkpt>
      <trkpt lat="44.85617" lon="1.96086">
        <ele>278.42</ele>
        <time>2022-10-31T11:04:20.591Z</time>
      </trkpt>
      <trkpt lat="44.85626" lon="1.96092">
        <ele>280.42</ele>
        <time>2022-10-31T11:04:30.070Z</time>
      </trkpt>
      <trkpt lat="44.85634" lon="1.96098">
        <ele>284.37</ele>
        <time>2022-10-31T11:04:39.330Z</time>
      </trkpt>
      <trkpt lat="44.8564" lon="1.96105">
        <ele>284.42</ele>
        <time>2022-10-31T11:04:48.690Z</time>
      </trkpt>
      <trkpt lat="44.85647" lon="1.96112">
        <ele>283.42</ele>
        <time>2022-10-31T11:04:58.000Z</time>
      </trkpt>
      <trkpt lat="44.85654" lon="1.96119">
        <ele>283.42</ele>
        <time>2022-10-31T11:05:08.000Z</time>
      </trkpt>
      <trkpt lat="44.85662" lon="1.96125">
        <ele>283.42</ele>
        <time>2022-10-31T11:05:17.611Z</time>
      </trkpt>
      <trkpt lat="44.8567" lon="1.96132">
        <ele>286.4</ele>
        <time>2022-10-31T11:05:27.000Z</time>
      </trkpt>
      <trkpt lat="44.85678" lon="1.96139">
        <ele>286.42</ele>
        <time>2022-10-31T11:05:36.720Z</time>
      </trkpt>
      <trkpt lat="44.85687" lon="1.96146">
        <ele>287.42</ele>
        <time>2022-10-31T11:05:46.420Z</time>
      </trkpt>
      <trkpt lat="44.85695" lon="1.96152">
        <ele>290.34</ele>
        <time>2022-10-31T11:05:55.749Z</time>
      </trkpt>
      <trkpt lat="44.85704" lon="1.96157">
        <ele>292.42</ele>
        <time>2022-10-31T11:06:05.711Z</time>
      </trkpt>
      <trkpt lat="44.85713" lon="1.96162">
        <ele>293.42</ele>
        <time>2022-10-31T11:06:15.731Z</time>
      </trkpt>
      <trkpt lat="44.85722" lon="1.9617">
        <ele>293.41</ele>
        <time>2022-10-31T11:06:25.000Z</time>
      </trkpt>
      <trkpt lat="44.8573" lon="1.96175">
        <ele>293.42</ele>
        <time>2022-10-31T11:06:35.000Z</time>
      </trkpt>
      <trkpt lat="44.85736" lon="1.96185">
        <ele>293.48</ele>
        <time>2022-10-31T11:06:44.419Z</time>
      </trkpt>
      <trkpt lat="44.8574" lon="1.96197">
        <ele>294.48</ele>
        <time>2022-10-31T11:06:54.000Z</time>
      </trkpt>
      <trkpt lat="44.85748" lon="1.96205">
        <ele>294.42</ele>
        <time>2022-10-31T11:07:03.509Z</time>
      </trkpt>
      <trkpt lat="44.85754" lon="1.96214">
        <ele>294.35</ele>
        <time>2022-10-31T11:07:12.749Z</time>
      </trkpt>
      <trkpt lat="44.85762" lon="1.96225">
        <ele>297.4</ele>
        <time>2022-10-31T11:07:23.000Z</time>
      </trkpt>
      <trkpt lat="44.85765" lon="1.96233">
        <ele>299.42</ele>
        <time>2022-10-31T11:07:32.469Z</time>
      </trkpt>
      <trkpt lat="44.8577" lon="1.96242">
        <ele>300.67</ele>
        <time>2022-10-31T11:07:42.000Z</time>
      </trkpt>
      <trkpt lat="44.85777" lon="1.96253">
        <ele>301.4</ele>
        <time>2022-10-31T11:07:51.739Z</time>
      </trkpt>
      <trkpt lat="44.85782" lon="1.96258">
        <ele>302.42</ele>
        <time>2022-10-31T11:08:01.009Z</time>
      </trkpt>
      <trkpt lat="44.85789" lon="1.96267">
        <ele>302.42</ele>
        <time>2022-10-31T11:08:10.426Z</time>
      </trkpt>
      <trkpt lat="44.85794" lon="1.96275">
        <ele>306.4</ele>
        <time>2022-10-31T11:08:19.551Z</time>
      </trkpt>
      <trkpt lat="44.858" lon="1.96286">
        <ele>310.16</ele>
        <time>2022-10-31T11:08:29.031Z</time>
      </trkpt>
      <trkpt lat="44.85805" lon="1.96296">
        <ele>310.42</ele>
        <time>2022-10-31T11:08:38.271Z</time>
      </trkpt>
      <trkpt lat="44.8581" lon="1.96304">
        <ele>312.4</ele>
        <time>2022-10-31T11:08:47.509Z</time>
      </trkpt>
      <trkpt lat="44.85814" lon="1.96311">
        <ele>314.42</ele>
        <time>2022-10-31T11:08:56.709Z</time>
      </trkpt>
      <trkpt lat="44.85819" lon="1.9632">
        <ele>318.15</ele>
        <time>2022-10-31T11:09:06.257Z</time>
      </trkpt>
      <trkpt lat="44.85823" lon="1.9633">
        <ele>317.17</ele>
        <time>2022-10-31T11:09:16.000Z</time>
      </trkpt>
      <trkpt lat="44.85828" lon="1.96342">
        <ele>319.41</ele>
        <time>2022-10-31T11:09:25.271Z</time>
      </trkpt>
      <trkpt lat="44.85837" lon="1.96348">
        <ele>319.66</ele>
        <time>2022-10-31T11:09:34.450Z</time>
      </trkpt>
      <trkpt lat="44.85846" lon="1.9635">
        <ele>319.41</ele>
        <time>2022-10-31T11:09:43.529Z</time>
      </trkpt>
      <trkpt lat="44.85852" lon="1.96347">
        <ele>320.16</ele>
        <time>2022-10-31T11:09:53.000Z</time>
      </trkpt>
      <trkpt lat="44.85857" lon="1.96343">
        <ele>321.41</ele>
        <time>2022-10-31T11:10:02.290Z</time>
      </trkpt>
      <trkpt lat="44.85861" lon="1.96335">
        <ele>323.41</ele>
        <time>2022-10-31T11:10:11.430Z</time>
      </trkpt>
      <trkpt lat="44.85866" lon="1.96327">
        <ele>326.41</ele>
        <time>2022-10-31T11:10:21.191Z</time>
      </trkpt>
      <trkpt lat="44.85873" lon="1.96323">
        <ele>328.37</ele>
        <time>2022-10-31T11:10:30.631Z</time>
      </trkpt>
      <trkpt lat="44.85873" lon="1.96322">
        <ele>329.1</ele>
        <time>2022-10-31T11:10:40.000Z</time>
      </trkpt>
      <trkpt lat="44.8588" lon="1.96321">
        <ele>330.41</ele>
        <time>2022-10-31T11:10:49.251Z</time>
      </trkpt>
      <trkpt lat="44.85884" lon="1.96319">
        <ele>332.29</ele>
        <time>2022-10-31T11:10:58.671Z</time>
      </trkpt>
      <trkpt lat="44.8589" lon="1.96319">
        <ele>332.41</ele>
        <time>2022-10-31T11:11:08.489Z</time>
      </trkpt>
      <trkpt lat="44.85896" lon="1.96322">
        <ele>333.41</ele>
        <time>2022-10-31T11:11:18.116Z</time>
      </trkpt>
      <trkpt lat="44.85901" lon="1.96327">
        <ele>332.66</ele>
        <time>2022-10-31T11:11:28.000Z</time>
      </trkpt>
      <trkpt lat="44.85907" lon="1.96334">
        <ele>336.41</ele>
        <time>2022-10-31T11:11:37.699Z</time>
      </trkpt>
      <trkpt lat="44.85909" lon="1.96342">
        <ele>335.42</ele>
        <time>2022-10-31T11:11:47.000Z</time>
      </trkpt>
      <trkpt lat="44.85912" lon="1.96349">
        <ele>334.66</ele>
        <time>2022-10-31T11:11:56.426Z</time>
      </trkpt>
      <trkpt lat="44.85919" lon="1.96356">
        <ele>339.39</ele>
        <time>2022-10-31T11:12:06.000Z</time>
      </trkpt>
      <trkpt lat="44.85924" lon="1.96358">
        <ele>340.41</ele>
        <time>2022-10-31T11:12:15.530Z</time>
      </trkpt>
      <trkpt lat="44.85929" lon="1.96359">
        <ele>343.15</ele>
        <time>2022-10-31T11:12:25.000Z</time>
      </trkpt>
      <trkpt lat="44.85936" lon="1.96357">
        <ele>346.1</ele>
        <time>2022-10-31T11:12:34.151Z</time>
      </trkpt>
      <trkpt lat="44.85943" lon="1.96357">
        <ele>347.66</ele>
        <time>2022-10-31T11:12:43.290Z</time>
      </trkpt>
      <trkpt lat="44.8595" lon="1.96358">
        <ele>348.41</ele>
        <time>2022-10-31T11:12:52.490Z</time>
      </trkpt>
      <trkpt lat="44.85961" lon="1.96359">
        <ele>351.41</ele>
        <time>2022-10-31T11:13:02.000Z</time>
      </trkpt>
      <trkpt lat="44.85969" lon="1.96357">
        <ele>352.4</ele>
        <time>2022-10-31T11:13:12.000Z</time>
      </trkpt>
      <trkpt lat="44.85978" lon="1.96358">
        <ele>353.4</ele>
        <time>2022-10-31T11:13:21.616Z</time>
      </trkpt>
      <trkpt lat="44.85984" lon="1.9636">
        <ele>355.35</ele>
        <time>2022-10-31T11:13:31.000Z</time>
      </trkpt>
      <trkpt lat="44.85989" lon="1.96364">
        <ele>355.41</ele>
        <time>2022-10-31T11:13:40.711Z</time>
      </trkpt>
      <trkpt lat="44.85994" lon="1.96371">
        <ele>358.4</ele>
        <time>2022-10-31T11:13:50.000Z</time>
      </trkpt>
      <trkpt lat="44.86002" lon="1.96381">
        <ele>357.44</ele>
        <time>2022-10-31T11:13:59.091Z</time>
      </trkpt>
      <trkpt lat="44.86006" lon="1.96388">
        <ele>355.41</ele>
        <time>2022-10-31T11:14:08.601Z</time>
      </trkpt>
      <trkpt lat="44.86011" lon="1.96395">
        <ele>358.6</ele>
        <time>2022-10-31T11:14:18.089Z</time>
      </trkpt>
      <trkpt lat="44.86018" lon="1.96401">
        <ele>360.4</ele>
        <time>2022-10-31T11:14:27.251Z</time>
      </trkpt>
      <trkpt lat="44.86023" lon="1.96408">
        <ele>360.41</ele>
        <time>2022-10-31T11:14:36.509Z</time>
      </trkpt>
      <trkpt lat="44.86027" lon="1.96419">
        <ele>357.41</ele>
        <time>2022-10-31T11:14:45.720Z</time>
      </trkpt>
      <trkpt lat="44.86031" lon="1.96427">
        <ele>360.41</ele>
        <time>2022-10-31T11:14:55.000Z</time>
      </trkpt>
      <trkpt lat="44.86036" lon="1.96436">
        <ele>361.41</ele>
        <time>2022-10-31T11:15:04.417Z</time>
      </trkpt>
      <trkpt lat="44.8604" lon="1.96442">
        <ele>362.41</ele>
        <time>2022-10-31T11:15:14.000Z</time>
      </trkpt>
      <trkpt lat="44.86042" lon="1.96445">
        <ele>361.41</ele>
        <time>2022-10-31T11:15:24.000Z</time>
      </trkpt>
      <trkpt lat="44.86045" lon="1.9645">
        <ele>361.65</ele>
        <time>2022-10-31T11:15:34.000Z</time>
      </trkpt>
      <trkpt lat="44.86046" lon="1.9645">
        <ele>360.41</ele>
        <time>2022-10-31T11:15:45.171Z</time>
      </trkpt>
      <trkpt lat="44.86051" lon="1.96459">
        <ele>363.35</ele>
        <time>2022-10-31T11:15:54.530Z</time>
      </trkpt>
      <trkpt lat="44.86053" lon="1.9647">
        <ele>364.41</ele>
        <time>2022-10-31T11:16:04.150Z</time>
      </trkpt>
      <trkpt lat="44.86057" lon="1.96482">
        <ele>369.33</ele>
        <time>2022-10-31T11:16:13.730Z</time>
      </trkpt>
      <trkpt lat="44.86064" lon="1.96493">
        <ele>373.35</ele>
        <time>2022-10-31T11:16:24.000Z</time>
      </trkpt>
      <trkpt lat="44.86067" lon="1.96502">
        <ele>376.4</ele>
        <time>2022-10-31T11:16:33.230Z</time>
      </trkpt>
      <trkpt lat="44.8607" lon="1.96508">
        <ele>377.36</ele>
        <time>2022-10-31T11:16:43.000Z</time>
      </trkpt>
      <trkpt lat="44.86074" lon="1.96521">
        <ele>379.66</ele>
        <time>2022-10-31T11:16:52.150Z</time>
      </trkpt>
      <trkpt lat="44.86079" lon="1.96534">
        <ele>380.35</ele>
        <time>2022-10-31T11:17:01.571Z</time>
      </trkpt>
      <trkpt lat="44.86084" lon="1.96546">
        <ele>380.41</ele>
        <time>2022-10-31T11:17:12.000Z</time>
      </trkpt>
      <trkpt lat="44.86089" lon="1.9656">
        <ele>380.41</ele>
        <time>2022-10-31T11:17:21.291Z</time>
      </trkpt>
      <trkpt lat="44.86093" lon="1.96568">
        <ele>380.47</ele>
        <time>2022-10-31T11:17:30.630Z</time>
      </trkpt>
      <trkpt lat="44.86097" lon="1.9658">
        <ele>381.16</ele>
        <time>2022-10-31T11:17:40.370Z</time>
      </trkpt>
      <trkpt lat="44.861" lon="1.96594">
        <ele>383.41</ele>
        <time>2022-10-31T11:17:50.000Z</time>
      </trkpt>
      <trkpt lat="44.86105" lon="1.96608">
        <ele>385.39</ele>
        <time>2022-10-31T11:17:59.610Z</time>
      </trkpt>
      <trkpt lat="44.86113" lon="1.9662">
        <ele>384.41</ele>
        <time>2022-10-31T11:18:09.331Z</time>
      </trkpt>
      <trkpt lat="44.8612" lon="1.96629">
        <ele>385.41</ele>
        <time>2022-10-31T11:18:19.000Z</time>
      </trkpt>
      <trkpt lat="44.86125" lon="1.96634">
        <ele>385.41</ele>
        <time>2022-10-31T11:18:29.000Z</time>
      </trkpt>
      <trkpt lat="44.86128" lon="1.96638">
        <ele>386.39</ele>
        <time>2022-10-31T11:18:38.309Z</time>
      </trkpt>
      <trkpt lat="44.86134" lon="1.9665">
        <ele>387.22</ele>
        <time>2022-10-31T11:18:48.000Z</time>
      </trkpt>
      <trkpt lat="44.86139" lon="1.9666">
        <ele>390.16</ele>
        <time>2022-10-31T11:18:57.651Z</time>
      </trkpt>
      <trkpt lat="44.86144" lon="1.96669">
        <ele>394.4</ele>
        <time>2022-10-31T11:19:07.190Z</time>
      </trkpt>
      <trkpt lat="44.8615" lon="1.96676">
        <ele>394.41</ele>
        <time>2022-10-31T11:19:16.611Z</time>
      </trkpt>
      <trkpt lat="44.86155" lon="1.96683">
        <ele>395.4</ele>
        <time>2022-10-31T11:19:26.000Z</time>
      </trkpt>
      <trkpt lat="44.8616" lon="1.96689">
        <ele>398.39</ele>
        <time>2022-10-31T11:19:35.529Z</time>
      </trkpt>
      <trkpt lat="44.86162" lon="1.96696">
        <ele>398.41</ele>
        <time>2022-10-31T11:19:45.000Z</time>
      </trkpt>
      <trkpt lat="44.86163" lon="1.96697">
        <ele>398.41</ele>
        <time>2022-10-31T11:19:54.269Z</time>
      </trkpt>
      <trkpt lat="44.86166" lon="1.96706">
        <ele>399.41</ele>
        <time>2022-10-31T11:20:04.000Z</time>
      </trkpt>
      <trkpt lat="44.86167" lon="1.96711">
        <ele>399.41</ele>
        <time>2022-10-31T11:20:14.000Z</time>
      </trkpt>
      <trkpt lat="44.86167" lon="1.96713">
        <ele>399.41</ele>
        <time>2022-10-31T11:20:23.492Z</time>
      </trkpt>
      <trkpt lat="44.86174" lon="1.96722">
        <ele>400.4</ele>
        <time>2022-10-31T11:20:33.000Z</time>
      </trkpt>
      <trkpt lat="44.86183" lon="1.96731">
        <ele>402.41</ele>
        <time>2022-10-31T11:20:42.150Z</time>
      </trkpt>
      <trkpt lat="44.86189" lon="1.96739">
        <ele>402.42</ele>
        <time>2022-10-31T11:20:51.469Z</time>
      </trkpt>
      <trkpt lat="44.86195" lon="1.96749">
        <ele>402.41</ele>
        <time>2022-10-31T11:21:01.000Z</time>
      </trkpt>
      <trkpt lat="44.862" lon="1.96757">
        <ele>401.41</ele>
        <time>2022-10-31T11:21:10.311Z</time>
      </trkpt>
      <trkpt lat="44.86209" lon="1.96767">
        <ele>401.41</ele>
        <time>2022-10-31T11:21:19.951Z</time>
      </trkpt>
      <trkpt lat="44.86216" lon="1.96776">
        <ele>400.66</ele>
        <time>2022-10-31T11:21:29.000Z</time>
      </trkpt>
      <trkpt lat="44.86224" lon="1.96783">
        <ele>402.41</ele>
        <time>2022-10-31T11:21:38.289Z</time>
      </trkpt>
      <trkpt lat="44.86229" lon="1.96792">
        <ele>404.41</ele>
        <time>2022-10-31T11:21:47.730Z</time>
      </trkpt>
      <trkpt lat="44.86237" lon="1.96797">
        <ele>406.39</ele>
        <time>2022-10-31T11:21:57.000Z</time>
      </trkpt>
      <trkpt lat="44.86243" lon="1.96802">
        <ele>406.42</ele>
        <time>2022-10-31T11:22:06.291Z</time>
      </trkpt>
      <trkpt lat="44.8625" lon="1.96809">
        <ele>406.47</ele>
        <time>2022-10-31T11:22:15.711Z</time>
      </trkpt>
      <trkpt lat="44.86258" lon="1.96812">
        <ele>407.41</ele>
        <time>2022-10-31T11:22:25.000Z</time>
      </trkpt>
      <trkpt lat="44.86262" lon="1.96814">
        <ele>408.42</ele>
        <time>2022-10-31T11:22:35.000Z</time>
      </trkpt>
      <trkpt lat="44.86263" lon="1.96814">
        <ele>411.33</ele>
        <time>2022-10-31T11:22:44.250Z</time>
      </trkpt>
      <trkpt lat="44.86269" lon="1.9682">
        <ele>411.41</ele>
        <time>2022-10-31T11:22:53.570Z</time>
      </trkpt>
      <trkpt lat="44.86272" lon="1.96828">
        <ele>412.16</ele>
        <time>2022-10-31T11:23:03.291Z</time>
      </trkpt>
      <trkpt lat="44.86273" lon="1.96834">
        <ele>412.4</ele>
        <time>2022-10-31T11:23:12.353Z</time>
      </trkpt>
      <trkpt lat="44.86273" lon="1.96843">
        <ele>413.4</ele>
        <time>2022-10-31T11:23:22.000Z</time>
      </trkpt>
      <trkpt lat="44.86271" lon="1.96854">
        <ele>414.4</ele>
        <time>2022-10-31T11:23:31.419Z</time>
      </trkpt>
      <trkpt lat="44.86267" lon="1.96864">
        <ele>417.39</ele>
        <time>2022-10-31T11:23:41.000Z</time>
      </trkpt>
      <trkpt lat="44.86267" lon="1.96877">
        <ele>420.4</ele>
        <time>2022-10-31T11:23:50.310Z</time>
      </trkpt>
      <trkpt lat="44.8627" lon="1.96889">
        <ele>421.4</ele>
        <time>2022-10-31T11:24:00.000Z</time>
      </trkpt>
      <trkpt lat="44.86277" lon="1.96897">
        <ele>422.4</ele>
        <time>2022-10-31T11:24:09.291Z</time>
      </trkpt>
      <trkpt lat="44.86285" lon="1.96899">
        <ele>423.4</ele>
        <time>2022-10-31T11:24:18.350Z</time>
      </trkpt>
      <trkpt lat="44.86292" lon="1.96902">
        <ele>424.36</ele>
        <time>2022-10-31T11:24:27.589Z</time>
      </trkpt>
      <trkpt lat="44.863" lon="1.96904">
        <ele>426.39</ele>
        <time>2022-10-31T11:24:36.650Z</time>
      </trkpt>
      <trkpt lat="44.86308" lon="1.96907">
        <ele>427.39</ele>
        <time>2022-10-31T11:24:46.371Z</time>
      </trkpt>
      <trkpt lat="44.86317" lon="1.96908">
        <ele>428.39</ele>
        <time>2022-10-31T11:24:56.000Z</time>
      </trkpt>
      <trkpt lat="44.86325" lon="1.96913">
        <ele>429.39</ele>
        <time>2022-10-31T11:25:05.650Z</time>
      </trkpt>
      <trkpt lat="44.86332" lon="1.96913">
        <ele>430.4</ele>
        <time>2022-10-31T11:25:15.000Z</time>
      </trkpt>
      <trkpt lat="44.86341" lon="1.96912">
        <ele>432.15</ele>
        <time>2022-10-31T11:25:25.000Z</time>
      </trkpt>
      <trkpt lat="44.8635" lon="1.96914">
        <ele>433.4</ele>
        <time>2022-10-31T11:25:34.611Z</time>
      </trkpt>
      <trkpt lat="44.86357" lon="1.96913">
        <ele>435.39</ele>
        <time>2022-10-31T11:25:44.000Z</time>
      </trkpt>
      <trkpt lat="44.8636" lon="1.96913">
        <ele>435.4</ele>
        <time>2022-10-31T11:25:54.000Z</time>
      </trkpt>
      <trkpt lat="44.8636" lon="1.96914">
        <ele>435.4</ele>
        <time>2022-10-31T11:26:05.191Z</time>
      </trkpt>
      <trkpt lat="44.8636" lon="1.96921">
        <ele>435.4</ele>
        <time>2022-10-31T11:26:15.000Z</time>
      </trkpt>
      <trkpt lat="44.86361" lon="1.96927">
        <ele>438.15</ele>
        <time>2022-10-31T11:26:24.529Z</time>
      </trkpt>
      <trkpt lat="44.86361" lon="1.96932">
        <ele>440.4</ele>
        <time>2022-10-31T11:26:34.210Z</time>
      </trkpt>
      <trkpt lat="44.86363" lon="1.9694">
        <ele>442.15</ele>
        <time>2022-10-31T11:26:44.000Z</time>
      </trkpt>
      <trkpt lat="44.86366" lon="1.96948">
        <ele>444.15</ele>
        <time>2022-10-31T11:26:53.430Z</time>
      </trkpt>
      <trkpt lat="44.86373" lon="1.96948">
        <ele>444.42</ele>
        <time>2022-10-31T11:27:03.000Z</time>
      </trkpt>
      <trkpt lat="44.86376" lon="1.96947">
        <ele>445.4</ele>
        <time>2022-10-31T11:27:13.000Z</time>
      </trkpt>
      <trkpt lat="44.86376" lon="1.96947">
        <ele>446.4</ele>
        <time>2022-10-31T11:27:51.000Z</time>
      </trkpt>
      <trkpt lat="44.86376" lon="1.96948">
        <ele>446.4</ele>
        <time>2022-10-31T11:28:27.000Z</time>
      </trkpt>
      <trkpt lat="44.86376" lon="1.96948">
        <ele>446.4</ele>
        <time>2022-10-31T11:33:47.000Z</time>
      </trkpt>
      <trkpt lat="44.86377" lon="1.96948">
        <ele>447.4</ele>
        <time>2022-10-31T11:37:11.000Z</time>
      </trkpt>
      <trkpt lat="44.86376" lon="1.96947">
        <ele>447.42</ele>
        <time>2022-10-31T11:42:45.370Z</time>
      </trkpt>
      <trkpt lat="44.86375" lon="1.96947">
        <ele>447.4</ele>
        <time>2022-10-31T11:42:54.510Z</time>
      </trkpt>
      <trkpt lat="44.86376" lon="1.96948">
        <ele>447.34</ele>
        <time>2022-10-31T11:43:03.729Z</time>
      </trkpt>
      <trkpt lat="44.86385" lon="1.96948">
        <ele>447.36</ele>
        <time>2022-10-31T11:43:13.376Z</time>
      </trkpt>
      <trkpt lat="44.86391" lon="1.9695">
        <ele>449.34</ele>
        <time>2022-10-31T11:43:22.729Z</time>
      </trkpt>
      <trkpt lat="44.86398" lon="1.96956">
        <ele>448.4</ele>
        <time>2022-10-31T11:43:32.000Z</time>
      </trkpt>
      <trkpt lat="44.86401" lon="1.96964">
        <ele>450.4</ele>
        <time>2022-10-31T11:43:41.131Z</time>
      </trkpt>
      <trkpt lat="44.86407" lon="1.96973">
        <ele>452.15</ele>
        <time>2022-10-31T11:43:50.351Z</time>
      </trkpt>
      <trkpt lat="44.8641" lon="1.9698">
        <ele>452.4</ele>
        <time>2022-10-31T11:43:59.552Z</time>
      </trkpt>
      <trkpt lat="44.86416" lon="1.96985">
        <ele>454.4</ele>
        <time>2022-10-31T11:44:09.000Z</time>
      </trkpt>
      <trkpt lat="44.86422" lon="1.96991">
        <ele>457.4</ele>
        <time>2022-10-31T11:44:18.712Z</time>
      </trkpt>
      <trkpt lat="44.86427" lon="1.96997">
        <ele>458.4</ele>
        <time>2022-10-31T11:44:28.370Z</time>
      </trkpt>
      <trkpt lat="44.86431" lon="1.97">
        <ele>458.4</ele>
        <time>2022-10-31T11:44:38.000Z</time>
      </trkpt>
      <trkpt lat="44.86437" lon="1.97003">
        <ele>460.15</ele>
        <time>2022-10-31T11:44:48.000Z</time>
      </trkpt>
      <trkpt lat="44.86445" lon="1.97006">
        <ele>462.34</ele>
        <time>2022-10-31T11:44:57.311Z</time>
      </trkpt>
      <trkpt lat="44.86457" lon="1.97007">
        <ele>461.46</ele>
        <time>2022-10-31T11:45:07.000Z</time>
      </trkpt>
      <trkpt lat="44.86466" lon="1.97005">
        <ele>460.65</ele>
        <time>2022-10-31T11:45:16.091Z</time>
      </trkpt>
      <trkpt lat="44.86476" lon="1.97007">
        <ele>460.4</ele>
        <time>2022-10-31T11:45:26.000Z</time>
      </trkpt>
      <trkpt lat="44.86475" lon="1.97015">
        <ele>461.15</ele>
        <time>2022-10-31T11:45:35.469Z</time>
      </trkpt>
      <trkpt lat="44.8647" lon="1.97021">
        <ele>465.32</ele>
        <time>2022-10-31T11:45:45.000Z</time>
      </trkpt>
      <trkpt lat="44.86464" lon="1.97028">
        <ele>467.4</ele>
        <time>2022-10-31T11:45:54.331Z</time>
      </trkpt>
      <trkpt lat="44.86462" lon="1.97039">
        <ele>468.4</ele>
        <time>2022-10-31T11:46:03.711Z</time>
      </trkpt>
      <trkpt lat="44.86466" lon="1.97047">
        <ele>469.15</ele>
        <time>2022-10-31T11:46:13.000Z</time>
      </trkpt>
      <trkpt lat="44.86471" lon="1.97053">
        <ele>471.34</ele>
        <time>2022-10-31T11:46:23.000Z</time>
      </trkpt>
      <trkpt lat="44.86474" lon="1.97059">
        <ele>473.38</ele>
        <time>2022-10-31T11:46:32.671Z</time>
      </trkpt>
      <trkpt lat="44.86478" lon="1.97064">
        <ele>474.59</ele>
        <time>2022-10-31T11:46:42.000Z</time>
      </trkpt>
      <trkpt lat="44.86483" lon="1.9707">
        <ele>477.4</ele>
        <time>2022-10-31T11:46:51.670Z</time>
      </trkpt>
      <trkpt lat="44.86489" lon="1.97078">
        <ele>482.38</ele>
        <time>2022-10-31T11:47:01.171Z</time>
      </trkpt>
      <trkpt lat="44.86496" lon="1.97087">
        <ele>483.41</ele>
        <time>2022-10-31T11:47:10.230Z</time>
      </trkpt>
      <trkpt lat="44.86501" lon="1.97094">
        <ele>484.38</ele>
        <time>2022-10-31T11:47:19.651Z</time>
      </trkpt>
      <trkpt lat="44.86507" lon="1.97101">
        <ele>485.4</ele>
        <time>2022-10-31T11:47:29.130Z</time>
      </trkpt>
      <trkpt lat="44.86515" lon="1.9711">
        <ele>485.4</ele>
        <time>2022-10-31T11:47:38.630Z</time>
      </trkpt>
      <trkpt lat="44.86523" lon="1.97119">
        <ele>484.65</ele>
        <time>2022-10-31T11:47:48.131Z</time>
      </trkpt>
      <trkpt lat="44.86529" lon="1.97125">
        <ele>487.15</ele>
        <time>2022-10-31T11:47:57.449Z</time>
      </trkpt>
      <trkpt lat="44.86539" lon="1.97134">
        <ele>487.39</ele>
        <time>2022-10-31T11:48:07.569Z</time>
      </trkpt>
      <trkpt lat="44.86545" lon="1.97139">
        <ele>489.38</ele>
        <time>2022-10-31T11:48:17.690Z</time>
      </trkpt>
      <trkpt lat="44.86549" lon="1.97145">
        <ele>488.65</ele>
        <time>2022-10-31T11:48:27.650Z</time>
      </trkpt>
      <trkpt lat="44.86558" lon="1.97156">
        <ele>490.15</ele>
        <time>2022-10-31T11:48:37.190Z</time>
      </trkpt>
      <trkpt lat="44.86562" lon="1.97158">
        <ele>491.4</ele>
        <time>2022-10-31T11:48:47.000Z</time>
      </trkpt>
      <trkpt lat="44.86568" lon="1.97161">
        <ele>491.38</ele>
        <time>2022-10-31T11:48:56.650Z</time>
      </trkpt>
      <trkpt lat="44.86572" lon="1.9717">
        <ele>492.4</ele>
        <time>2022-10-31T11:49:06.291Z</time>
      </trkpt>
      <trkpt lat="44.86573" lon="1.97176">
        <ele>493.39</ele>
        <time>2022-10-31T11:49:15.349Z</time>
      </trkpt>
      <trkpt lat="44.86573" lon="1.97189">
        <ele>496.14</ele>
        <time>2022-10-31T11:49:25.000Z</time>
      </trkpt>
      <trkpt lat="44.86572" lon="1.97197">
        <ele>498.15</ele>
        <time>2022-10-31T11:49:34.469Z</time>
      </trkpt>
      <trkpt lat="44.8657" lon="1.97207">
        <ele>501.39</ele>
        <time>2022-10-31T11:49:43.590Z</time>
      </trkpt>
      <trkpt lat="44.86568" lon="1.9722">
        <ele>503.21</ele>
        <time>2022-10-31T11:49:53.261Z</time>
      </trkpt>
      <trkpt lat="44.86565" lon="1.97229">
        <ele>503.4</ele>
        <time>2022-10-31T11:50:03.000Z</time>
      </trkpt>
      <trkpt lat="44.86564" lon="1.97241">
        <ele>506.4</ele>
        <time>2022-10-31T11:50:13.000Z</time>
      </trkpt>
      <trkpt lat="44.86563" lon="1.97254">
        <ele>506.41</ele>
        <time>2022-10-31T11:50:22.550Z</time>
      </trkpt>
      <trkpt lat="44.86562" lon="1.97268">
        <ele>507.4</ele>
        <time>2022-10-31T11:50:31.630Z</time>
      </trkpt>
      <trkpt lat="44.86564" lon="1.97282">
        <ele>505.15</ele>
        <time>2022-10-31T11:50:42.000Z</time>
      </trkpt>
      <trkpt lat="44.86564" lon="1.97294">
        <ele>505.15</ele>
        <time>2022-10-31T11:50:51.310Z</time>
      </trkpt>
      <trkpt lat="44.86563" lon="1.97309">
        <ele>504.4</ele>
        <time>2022-10-31T11:51:01.000Z</time>
      </trkpt>
      <trkpt lat="44.86562" lon="1.9732">
        <ele>503.41</ele>
        <time>2022-10-31T11:51:10.520Z</time>
      </trkpt>
      <trkpt lat="44.86562" lon="1.97333">
        <ele>502.41</ele>
        <time>2022-10-31T11:51:20.000Z</time>
      </trkpt>
      <trkpt lat="44.86562" lon="1.97346">
        <ele>506.14</ele>
        <time>2022-10-31T11:51:29.429Z</time>
      </trkpt>
      <trkpt lat="44.86564" lon="1.97357">
        <ele>511.14</ele>
        <time>2022-10-31T11:51:39.030Z</time>
      </trkpt>
      <trkpt lat="44.86564" lon="1.97369">
        <ele>513.33</ele>
        <time>2022-10-31T11:51:48.611Z</time>
      </trkpt>
      <trkpt lat="44.86567" lon="1.97383">
        <ele>511.64</ele>
        <time>2022-10-31T11:51:58.000Z</time>
      </trkpt>
      <trkpt lat="44.86567" lon="1.97396">
        <ele>511.39</ele>
        <time>2022-10-31T11:52:07.689Z</time>
      </trkpt>
      <trkpt lat="44.86568" lon="1.97408">
        <ele>512.39</ele>
        <time>2022-10-31T11:52:17.211Z</time>
      </trkpt>
      <trkpt lat="44.86569" lon="1.97416">
        <ele>513.39</ele>
        <time>2022-10-31T11:52:26.270Z</time>
      </trkpt>
      <trkpt lat="44.8657" lon="1.97426">
        <ele>513.39</ele>
        <time>2022-10-31T11:52:36.000Z</time>
      </trkpt>
      <trkpt lat="44.86572" lon="1.97434">
        <ele>512.39</ele>
        <time>2022-10-31T11:52:45.169Z</time>
      </trkpt>
      <trkpt lat="44.86573" lon="1.97444">
        <ele>514.38</ele>
        <time>2022-10-31T11:52:54.630Z</time>
      </trkpt>
      <trkpt lat="44.86576" lon="1.97455">
        <ele>514.39</ele>
        <time>2022-10-31T11:53:04.000Z</time>
      </trkpt>
      <trkpt lat="44.86577" lon="1.97468">
        <ele>513.39</ele>
        <time>2022-10-31T11:53:13.690Z</time>
      </trkpt>
      <trkpt lat="44.86578" lon="1.97485">
        <ele>516.14</ele>
        <time>2022-10-31T11:53:23.191Z</time>
      </trkpt>
      <trkpt lat="44.86583" lon="1.97501">
        <ele>515.33</ele>
        <time>2022-10-31T11:53:32.631Z</time>
      </trkpt>
      <trkpt lat="44.86589" lon="1.97513">
        <ele>516.39</ele>
        <time>2022-10-31T11:53:42.490Z</time>
      </trkpt>
      <trkpt lat="44.86596" lon="1.97525">
        <ele>517.38</ele>
        <time>2022-10-31T11:53:52.759Z</time>
      </trkpt>
      <trkpt lat="44.86604" lon="1.97535">
        <ele>516.39</ele>
        <time>2022-10-31T11:54:02.000Z</time>
      </trkpt>
      <trkpt lat="44.86612" lon="1.97543">
        <ele>519.14</ele>
        <time>2022-10-31T11:54:11.490Z</time>
      </trkpt>
      <trkpt lat="44.86619" lon="1.97551">
        <ele>518.39</ele>
        <time>2022-10-31T11:54:20.570Z</time>
      </trkpt>
      <trkpt lat="44.86625" lon="1.97563">
        <ele>519.33</ele>
        <time>2022-10-31T11:54:29.759Z</time>
      </trkpt>
      <trkpt lat="44.86631" lon="1.97575">
        <ele>521.38</ele>
        <time>2022-10-31T11:54:39.427Z</time>
      </trkpt>
      <trkpt lat="44.86636" lon="1.97588">
        <ele>520.64</ele>
        <time>2022-10-31T11:54:49.000Z</time>
      </trkpt>
      <trkpt lat="44.86642" lon="1.97599">
        <ele>520.62</ele>
        <time>2022-10-31T11:54:59.000Z</time>
      </trkpt>
      <trkpt lat="44.8665" lon="1.97612">
        <ele>521.39</ele>
        <time>2022-10-31T11:55:08.651Z</time>
      </trkpt>
      <trkpt lat="44.86657" lon="1.97622">
        <ele>521.39</ele>
        <time>2022-10-31T11:55:18.000Z</time>
      </trkpt>
      <trkpt lat="44.86663" lon="1.97632">
        <ele>521.39</ele>
        <time>2022-10-31T11:55:27.090Z</time>
      </trkpt>
      <trkpt lat="44.86672" lon="1.97647">
        <ele>520.39</ele>
        <time>2022-10-31T11:55:36.422Z</time>
      </trkpt>
      <trkpt lat="44.86681" lon="1.97658">
        <ele>519.39</ele>
        <time>2022-10-31T11:55:46.590Z</time>
      </trkpt>
      <trkpt lat="44.8669" lon="1.97669">
        <ele>519.39</ele>
        <time>2022-10-31T11:55:56.449Z</time>
      </trkpt>
      <trkpt lat="44.86697" lon="1.97679">
        <ele>519.39</ele>
        <time>2022-10-31T11:56:06.000Z</time>
      </trkpt>
      <trkpt lat="44.86703" lon="1.9769">
        <ele>520.39</ele>
        <time>2022-10-31T11:56:15.723Z</time>
      </trkpt>
      <trkpt lat="44.8671" lon="1.97701">
        <ele>521.38</ele>
        <time>2022-10-31T11:56:25.150Z</time>
      </trkpt>
      <trkpt lat="44.86716" lon="1.97713">
        <ele>521.39</ele>
        <time>2022-10-31T11:56:34.370Z</time>
      </trkpt>
      <trkpt lat="44.8672" lon="1.97727">
        <ele>523.39</ele>
        <time>2022-10-31T11:56:44.509Z</time>
      </trkpt>
      <trkpt lat="44.86723" lon="1.97739">
        <ele>525.33</ele>
        <time>2022-10-31T11:56:54.000Z</time>
      </trkpt>
      <trkpt lat="44.86725" lon="1.97751">
        <ele>526.39</ele>
        <time>2022-10-31T11:57:03.310Z</time>
      </trkpt>
      <trkpt lat="44.86727" lon="1.97764">
        <ele>527.39</ele>
        <time>2022-10-31T11:57:12.370Z</time>
      </trkpt>
      <trkpt lat="44.86728" lon="1.97779">
        <ele>528.39</ele>
        <time>2022-10-31T11:57:21.589Z</time>
      </trkpt>
      <trkpt lat="44.8673" lon="1.97789">
        <ele>528.39</ele>
        <time>2022-10-31T11:57:31.371Z</time>
      </trkpt>
      <trkpt lat="44.8673" lon="1.97796">
        <ele>528.39</ele>
        <time>2022-10-31T11:57:41.290Z</time>
      </trkpt>
      <trkpt lat="44.8673" lon="1.97797">
        <ele>528.39</ele>
        <time>2022-10-31T11:57:55.570Z</time>
      </trkpt>
      <trkpt lat="44.86733" lon="1.97812">
        <ele>527.4</ele>
        <time>2022-10-31T11:58:04.949Z</time>
      </trkpt>
      <trkpt lat="44.86738" lon="1.97826">
        <ele>527.39</ele>
        <time>2022-10-31T11:58:15.000Z</time>
      </trkpt>
      <trkpt lat="44.86744" lon="1.97841">
        <ele>526.39</ele>
        <time>2022-10-31T11:58:24.630Z</time>
      </trkpt>
      <trkpt lat="44.86748" lon="1.97855">
        <ele>526.39</ele>
        <time>2022-10-31T11:58:34.109Z</time>
      </trkpt>
      <trkpt lat="44.86751" lon="1.97868">
        <ele>526.39</ele>
        <time>2022-10-31T11:58:43.170Z</time>
      </trkpt>
      <trkpt lat="44.86754" lon="1.97881">
        <ele>527.38</ele>
        <time>2022-10-31T11:58:52.489Z</time>
      </trkpt>
      <trkpt lat="44.86758" lon="1.97894">
        <ele>529.32</ele>
        <time>2022-10-31T11:59:02.000Z</time>
      </trkpt>
      <trkpt lat="44.8676" lon="1.97907">
        <ele>528.38</ele>
        <time>2022-10-31T11:59:11.231Z</time>
      </trkpt>
      <trkpt lat="44.86762" lon="1.97922">
        <ele>527.64</ele>
        <time>2022-10-31T11:59:21.000Z</time>
      </trkpt>
      <trkpt lat="44.86764" lon="1.97937">
        <ele>526.38</ele>
        <time>2022-10-31T11:59:31.000Z</time>
      </trkpt>
      <trkpt lat="44.86767" lon="1.97951">
        <ele>525.4</ele>
        <time>2022-10-31T11:59:40.309Z</time>
      </trkpt>
      <trkpt lat="44.86767" lon="1.97968">
        <ele>524.45</ele>
        <time>2022-10-31T11:59:49.721Z</time>
      </trkpt>
      <trkpt lat="44.86766" lon="1.9798">
        <ele>524.45</ele>
        <time>2022-10-31T11:59:59.000Z</time>
      </trkpt>
      <trkpt lat="44.86764" lon="1.97994">
        <ele>524.38</ele>
        <time>2022-10-31T12:00:08.570Z</time>
      </trkpt>
      <trkpt lat="44.86761" lon="1.98008">
        <ele>523.38</ele>
        <time>2022-10-31T12:00:17.680Z</time>
      </trkpt>
      <trkpt lat="44.86758" lon="1.98021">
        <ele>524.38</ele>
        <time>2022-10-31T12:00:27.192Z</time>
      </trkpt>
      <trkpt lat="44.86756" lon="1.98028">
        <ele>524.38</ele>
        <time>2022-10-31T12:00:37.000Z</time>
      </trkpt>
      <trkpt lat="44.86753" lon="1.98035">
        <ele>524.38</ele>
        <time>2022-10-31T12:00:46.710Z</time>
      </trkpt>
      <trkpt lat="44.86745" lon="1.98044">
        <ele>524.38</ele>
        <time>2022-10-31T12:00:56.449Z</time>
      </trkpt>
      <trkpt lat="44.86739" lon="1.98058">
        <ele>524.38</ele>
        <time>2022-10-31T12:01:06.330Z</time>
      </trkpt>
      <trkpt lat="44.86737" lon="1.98067">
        <ele>523.44</ele>
        <time>2022-10-31T12:01:16.000Z</time>
      </trkpt>
      <trkpt lat="44.86737" lon="1.98068">
        <ele>522.44</ele>
        <time>2022-10-31T12:01:26.000Z</time>
      </trkpt>
      <trkpt lat="44.86739" lon="1.98073">
        <ele>522.38</ele>
        <time>2022-10-31T12:01:35.191Z</time>
      </trkpt>
      <trkpt lat="44.86738" lon="1.98089">
        <ele>521.38</ele>
        <time>2022-10-31T12:01:45.000Z</time>
      </trkpt>
      <trkpt lat="44.86742" lon="1.98103">
        <ele>523.38</ele>
        <time>2022-10-31T12:01:54.631Z</time>
      </trkpt>
      <trkpt lat="44.86746" lon="1.98117">
        <ele>521.45</ele>
        <time>2022-10-31T12:02:04.000Z</time>
      </trkpt>
      <trkpt lat="44.8675" lon="1.98132">
        <ele>522.38</ele>
        <time>2022-10-31T12:02:14.000Z</time>
      </trkpt>
      <trkpt lat="44.86753" lon="1.98145">
        <ele>522.32</ele>
        <time>2022-10-31T12:02:23.610Z</time>
      </trkpt>
      <trkpt lat="44.86755" lon="1.9815">
        <ele>522.38</ele>
        <time>2022-10-31T12:02:33.000Z</time>
      </trkpt>
      <trkpt lat="44.86755" lon="1.98158">
        <ele>524.38</ele>
        <time>2022-10-31T12:02:42.329Z</time>
      </trkpt>
      <trkpt lat="44.86755" lon="1.98172">
        <ele>527.38</ele>
        <time>2022-10-31T12:02:51.449Z</time>
      </trkpt>
      <trkpt lat="44.8676" lon="1.98187">
        <ele>527.38</ele>
        <time>2022-10-31T12:03:01.000Z</time>
      </trkpt>
      <trkpt lat="44.86765" lon="1.98202">
        <ele>528.36</ele>
        <time>2022-10-31T12:03:10.630Z</time>
      </trkpt>
      <trkpt lat="44.86764" lon="1.98215">
        <ele>527.38</ele>
        <time>2022-10-31T12:03:19.650Z</time>
      </trkpt>
      <trkpt lat="44.86766" lon="1.98225">
        <ele>526.44</ele>
        <time>2022-10-31T12:03:29.000Z</time>
      </trkpt>
      <trkpt lat="44.86768" lon="1.98241">
        <ele>528.37</ele>
        <time>2022-10-31T12:03:38.210Z</time>
      </trkpt>
      <trkpt lat="44.86768" lon="1.98256">
        <ele>530.38</ele>
        <time>2022-10-31T12:03:47.651Z</time>
      </trkpt>
      <trkpt lat="44.86766" lon="1.98269">
        <ele>526.63</ele>
        <time>2022-10-31T12:03:57.000Z</time>
      </trkpt>
      <trkpt lat="44.86765" lon="1.98271">
        <ele>526.38</ele>
        <time>2022-10-31T12:04:06.570Z</time>
      </trkpt>
      <trkpt lat="44.86761" lon="1.98274">
        <ele>524.38</ele>
        <time>2022-10-31T12:04:16.000Z</time>
      </trkpt>
      <trkpt lat="44.86758" lon="1.98274">
        <ele>525.36</ele>
        <time>2022-10-31T12:04:26.000Z</time>
      </trkpt>
      <trkpt lat="44.86753" lon="1.98272">
        <ele>526.38</ele>
        <time>2022-10-31T12:04:35.650Z</time>
      </trkpt>
      <trkpt lat="44.86751" lon="1.98271">
        <ele>526.38</ele>
        <time>2022-10-31T12:04:45.000Z</time>
      </trkpt>
      <trkpt lat="44.86742" lon="1.98272">
        <ele>525.38</ele>
        <time>2022-10-31T12:04:54.091Z</time>
      </trkpt>
      <trkpt lat="44.86739" lon="1.98273">
        <ele>525.38</ele>
        <time>2022-10-31T12:05:04.000Z</time>
      </trkpt>
      <trkpt lat="44.86738" lon="1.98274">
        <ele>525.38</ele>
        <time>2022-10-31T12:05:17.000Z</time>
      </trkpt>
      <trkpt lat="44.86737" lon="1.98274">
        <ele>524.44</ele>
        <time>2022-10-31T12:05:32.000Z</time>
      </trkpt>
      <trkpt lat="44.86737" lon="1.98276">
        <ele>521.32</ele>
        <time>2022-10-31T12:05:42.000Z</time>
      </trkpt>
      <trkpt lat="44.86737" lon="1.98273">
        <ele>522.38</ele>
        <time>2022-10-31T12:05:52.000Z</time>
      </trkpt>
      <trkpt lat="44.86736" lon="1.98274">
        <ele>523.38</ele>
        <time>2022-10-31T12:06:02.000Z</time>
      </trkpt>
      <trkpt lat="44.86735" lon="1.98276">
        <ele>522.38</ele>
        <time>2022-10-31T12:06:13.000Z</time>
      </trkpt>
      <trkpt lat="44.86734" lon="1.98282">
        <ele>521.38</ele>
        <time>2022-10-31T12:06:22.191Z</time>
      </trkpt>
      <trkpt lat="44.86733" lon="1.98287">
        <ele>521.38</ele>
        <time>2022-10-31T12:06:32.000Z</time>
      </trkpt>
      <trkpt lat="44.86733" lon="1.98288">
        <ele>522.32</ele>
        <time>2022-10-31T12:06:57.509Z</time>
      </trkpt>
      <trkpt lat="44.86733" lon="1.98291">
        <ele>522.38</ele>
        <time>2022-10-31T12:07:07.000Z</time>
      </trkpt>
      <trkpt lat="44.86735" lon="1.98285">
        <ele>523.38</ele>
        <time>2022-10-31T12:07:16.190Z</time>
      </trkpt>
      <trkpt lat="44.86736" lon="1.98278">
        <ele>523.38</ele>
        <time>2022-10-31T12:07:25.270Z</time>
      </trkpt>
      <trkpt lat="44.86738" lon="1.98277">
        <ele>523.38</ele>
        <time>2022-10-31T12:07:35.000Z</time>
      </trkpt>
      <trkpt lat="44.86741" lon="1.98281">
        <ele>522.38</ele>
        <time>2022-10-31T12:07:45.000Z</time>
      </trkpt>
      <trkpt lat="44.86742" lon="1.98283">
        <ele>522.38</ele>
        <time>2022-10-31T12:07:55.000Z</time>
      </trkpt>
      <trkpt lat="44.86742" lon="1.98284">
        <ele>523.36</ele>
        <time>2022-10-31T12:08:32.000Z</time>
      </trkpt>
      <trkpt lat="44.86742" lon="1.98283">
        <ele>523.38</ele>
        <time>2022-10-31T12:08:45.000Z</time>
      </trkpt>
      <trkpt lat="44.86743" lon="1.98277">
        <ele>522.38</ele>
        <time>2022-10-31T12:08:55.000Z</time>
      </trkpt>
      <trkpt lat="44.86735" lon="1.98284">
        <ele>521.38</ele>
        <time>2022-10-31T12:09:04.251Z</time>
      </trkpt>
      <trkpt lat="44.86733" lon="1.98295">
        <ele>521.38</ele>
        <time>2022-10-31T12:09:13.759Z</time>
      </trkpt>
      <trkpt lat="44.86736" lon="1.98305">
        <ele>520.63</ele>
        <time>2022-10-31T12:09:23.331Z</time>
      </trkpt>
      <trkpt lat="44.86741" lon="1.9831">
        <ele>520.38</ele>
        <time>2022-10-31T12:09:33.000Z</time>
      </trkpt>
      <trkpt lat="44.86742" lon="1.9831">
        <ele>520.39</ele>
        <time>2022-10-31T12:09:48.370Z</time>
      </trkpt>
      <trkpt lat="44.86744" lon="1.9831">
        <ele>519.38</ele>
        <time>2022-10-31T12:09:58.000Z</time>
      </trkpt>
      <trkpt lat="44.86749" lon="1.98318">
        <ele>520.38</ele>
        <time>2022-10-31T12:10:07.690Z</time>
      </trkpt>
      <trkpt lat="44.86748" lon="1.98325">
        <ele>520.38</ele>
        <time>2022-10-31T12:10:17.330Z</time>
      </trkpt>
      <trkpt lat="44.86742" lon="1.98328">
        <ele>519.38</ele>
        <time>2022-10-31T12:10:27.000Z</time>
      </trkpt>
      <trkpt lat="44.86738" lon="1.98331">
        <ele>519.38</ele>
        <time>2022-10-31T12:10:36.509Z</time>
      </trkpt>
      <trkpt lat="44.86735" lon="1.98345">
        <ele>518.38</ele>
        <time>2022-10-31T12:10:45.613Z</time>
      </trkpt>
      <trkpt lat="44.86736" lon="1.98352">
        <ele>517.38</ele>
        <time>2022-10-31T12:10:55.000Z</time>
      </trkpt>
      <trkpt lat="44.86736" lon="1.98354">
        <ele>517.38</ele>
        <time>2022-10-31T12:11:05.000Z</time>
      </trkpt>
      <trkpt lat="44.86735" lon="1.98355">
        <ele>516.63</ele>
        <time>2022-10-31T12:11:20.611Z</time>
      </trkpt>
      <trkpt lat="44.86734" lon="1.98363">
        <ele>516.61</ele>
        <time>2022-10-31T12:11:30.551Z</time>
      </trkpt>
      <trkpt lat="44.86736" lon="1.98371">
        <ele>516.38</ele>
        <time>2022-10-31T12:11:40.271Z</time>
      </trkpt>
      <trkpt lat="44.86735" lon="1.98377">
        <ele>514.38</ele>
        <time>2022-10-31T12:11:49.314Z</time>
      </trkpt>
      <trkpt lat="44.86731" lon="1.98379">
        <ele>512.5</ele>
        <time>2022-10-31T12:11:59.000Z</time>
      </trkpt>
      <trkpt lat="44.86729" lon="1.98382">
        <ele>513.13</ele>
        <time>2022-10-31T12:12:08.510Z</time>
      </trkpt>
      <trkpt lat="44.8672" lon="1.98391">
        <ele>511.31</ele>
        <time>2022-10-31T12:12:18.000Z</time>
      </trkpt>
      <trkpt lat="44.86715" lon="1.98402">
        <ele>512.38</ele>
        <time>2022-10-31T12:12:27.169Z</time>
      </trkpt>
      <trkpt lat="44.86714" lon="1.98406">
        <ele>512.38</ele>
        <time>2022-10-31T12:12:36.729Z</time>
      </trkpt>
      <trkpt lat="44.86708" lon="1.9842">
        <ele>510.39</ele>
        <time>2022-10-31T12:12:46.270Z</time>
      </trkpt>
      <trkpt lat="44.86704" lon="1.98433">
        <ele>510.38</ele>
        <time>2022-10-31T12:12:55.610Z</time>
      </trkpt>
      <trkpt lat="44.867" lon="1.98442">
        <ele>509.37</ele>
        <time>2022-10-31T12:13:05.000Z</time>
      </trkpt>
      <trkpt lat="44.86694" lon="1.98456">
        <ele>508.37</ele>
        <time>2022-10-31T12:13:14.670Z</time>
      </trkpt>
      <trkpt lat="44.86688" lon="1.98468">
        <ele>508.36</ele>
        <time>2022-10-31T12:13:24.000Z</time>
      </trkpt>
      <trkpt lat="44.86682" lon="1.98483">
        <ele>508.37</ele>
        <time>2022-10-31T12:13:33.170Z</time>
      </trkpt>
      <trkpt lat="44.86677" lon="1.98494">
        <ele>509.37</ele>
        <time>2022-10-31T12:13:42.590Z</time>
      </trkpt>
      <trkpt lat="44.86671" lon="1.98508">
        <ele>508.37</ele>
        <time>2022-10-31T12:13:52.131Z</time>
      </trkpt>
      <trkpt lat="44.86669" lon="1.98515">
        <ele>510.37</ele>
        <time>2022-10-31T12:14:01.469Z</time>
      </trkpt>
      <trkpt lat="44.86667" lon="1.98526">
        <ele>510.44</ele>
        <time>2022-10-31T12:14:11.000Z</time>
      </trkpt>
      <trkpt lat="44.86663" lon="1.98537">
        <ele>511.37</ele>
        <time>2022-10-31T12:14:20.210Z</time>
      </trkpt>
      <trkpt lat="44.86661" lon="1.98548">
        <ele>509.37</ele>
        <time>2022-10-31T12:14:29.593Z</time>
      </trkpt>
      <trkpt lat="44.86659" lon="1.98555">
        <ele>511.37</ele>
        <time>2022-10-31T12:14:39.630Z</time>
      </trkpt>
      <trkpt lat="44.8666" lon="1.98565">
        <ele>508.39</ele>
        <time>2022-10-31T12:14:49.591Z</time>
      </trkpt>
      <trkpt lat="44.86659" lon="1.98573">
        <ele>508.37</ele>
        <time>2022-10-31T12:14:58.669Z</time>
      </trkpt>
      <trkpt lat="44.86658" lon="1.9858">
        <ele>506.62</ele>
        <time>2022-10-31T12:15:07.990Z</time>
      </trkpt>
      <trkpt lat="44.86654" lon="1.98593">
        <ele>504.44</ele>
        <time>2022-10-31T12:15:17.000Z</time>
      </trkpt>
      <trkpt lat="44.86651" lon="1.98606">
        <ele>504.37</ele>
        <time>2022-10-31T12:15:27.000Z</time>
      </trkpt>
      <trkpt lat="44.8665" lon="1.98617">
        <ele>504.18</ele>
        <time>2022-10-31T12:15:36.670Z</time>
      </trkpt>
      <trkpt lat="44.8665" lon="1.98632">
        <ele>503.39</ele>
        <time>2022-10-31T12:15:46.000Z</time>
      </trkpt>
      <trkpt lat="44.86651" lon="1.98646">
        <ele>503.37</ele>
        <time>2022-10-31T12:15:55.309Z</time>
      </trkpt>
      <trkpt lat="44.86652" lon="1.98659">
        <ele>502.37</ele>
        <time>2022-10-31T12:16:04.599Z</time>
      </trkpt>
      <trkpt lat="44.86653" lon="1.98673">
        <ele>502.37</ele>
        <time>2022-10-31T12:16:14.431Z</time>
      </trkpt>
      <trkpt lat="44.86656" lon="1.98685">
        <ele>500.43</ele>
        <time>2022-10-31T12:16:23.670Z</time>
      </trkpt>
      <trkpt lat="44.86657" lon="1.98699">
        <ele>501.36</ele>
        <time>2022-10-31T12:16:33.550Z</time>
      </trkpt>
      <trkpt lat="44.86659" lon="1.98714">
        <ele>500.37</ele>
        <time>2022-10-31T12:16:42.600Z</time>
      </trkpt>
      <trkpt lat="44.86659" lon="1.9873">
        <ele>499.37</ele>
        <time>2022-10-31T12:16:52.000Z</time>
      </trkpt>
      <trkpt lat="44.86662" lon="1.98744">
        <ele>499.12</ele>
        <time>2022-10-31T12:17:01.331Z</time>
      </trkpt>
      <trkpt lat="44.86663" lon="1.98759">
        <ele>496.43</ele>
        <time>2022-10-31T12:17:10.489Z</time>
      </trkpt>
      <trkpt lat="44.86664" lon="1.98775">
        <ele>494.37</ele>
        <time>2022-10-31T12:17:19.570Z</time>
      </trkpt>
      <trkpt lat="44.86668" lon="1.9879">
        <ele>492.38</ele>
        <time>2022-10-31T12:17:29.529Z</time>
      </trkpt>
      <trkpt lat="44.86671" lon="1.98805">
        <ele>492.37</ele>
        <time>2022-10-31T12:17:39.150Z</time>
      </trkpt>
      <trkpt lat="44.86676" lon="1.98817">
        <ele>491.37</ele>
        <time>2022-10-31T12:17:48.549Z</time>
      </trkpt>
      <trkpt lat="44.86676" lon="1.98825">
        <ele>490.37</ele>
        <time>2022-10-31T12:17:57.629Z</time>
      </trkpt>
      <trkpt lat="44.86678" lon="1.9883">
        <ele>487.37</ele>
        <time>2022-10-31T12:18:07.000Z</time>
      </trkpt>
      <trkpt lat="44.86677" lon="1.98833">
        <ele>482.38</ele>
        <time>2022-10-31T12:18:16.651Z</time>
      </trkpt>
      <trkpt lat="44.86674" lon="1.98841">
        <ele>481.37</ele>
        <time>2022-10-31T12:18:26.110Z</time>
      </trkpt>
      <trkpt lat="44.8668" lon="1.98851">
        <ele>482.37</ele>
        <time>2022-10-31T12:18:35.590Z</time>
      </trkpt>
      <trkpt lat="44.86689" lon="1.98859">
        <ele>482.37</ele>
        <time>2022-10-31T12:18:46.000Z</time>
      </trkpt>
      <trkpt lat="44.86694" lon="1.98866">
        <ele>481.37</ele>
        <time>2022-10-31T12:18:56.000Z</time>
      </trkpt>
      <trkpt lat="44.86697" lon="1.98867">
        <ele>481.37</ele>
        <time>2022-10-31T12:19:05.351Z</time>
      </trkpt>
      <trkpt lat="44.867" lon="1.98871">
        <ele>482.37</ele>
        <time>2022-10-31T12:19:15.000Z</time>
      </trkpt>
      <trkpt lat="44.86705" lon="1.98885">
        <ele>483.37</ele>
        <time>2022-10-31T12:19:24.449Z</time>
      </trkpt>
      <trkpt lat="44.86712" lon="1.98898">
        <ele>482.62</ele>
        <time>2022-10-31T12:19:33.930Z</time>
      </trkpt>
      <trkpt lat="44.86715" lon="1.98907">
        <ele>479.62</ele>
        <time>2022-10-31T12:19:43.295Z</time>
      </trkpt>
      <trkpt lat="44.86718" lon="1.98911">
        <ele>479.37</ele>
        <time>2022-10-31T12:19:52.491Z</time>
      </trkpt>
      <trkpt lat="44.86722" lon="1.98914">
        <ele>478.37</ele>
        <time>2022-10-31T12:20:02.000Z</time>
      </trkpt>
      <trkpt lat="44.86723" lon="1.98917">
        <ele>478.37</ele>
        <time>2022-10-31T12:20:12.000Z</time>
      </trkpt>
      <trkpt lat="44.86723" lon="1.9892">
        <ele>474.62</ele>
        <time>2022-10-31T12:20:21.429Z</time>
      </trkpt>
      <trkpt lat="44.86721" lon="1.98924">
        <ele>474.37</ele>
        <time>2022-10-31T12:20:30.710Z</time>
      </trkpt>
      <trkpt lat="44.86714" lon="1.98932">
        <ele>474.61</ele>
        <time>2022-10-31T12:20:40.150Z</time>
      </trkpt>
      <trkpt lat="44.86709" lon="1.98937">
        <ele>477.3</ele>
        <time>2022-10-31T12:20:49.610Z</time>
      </trkpt>
      <trkpt lat="44.86702" lon="1.98951">
        <ele>478.37</ele>
        <time>2022-10-31T12:20:59.000Z</time>
      </trkpt>
      <trkpt lat="44.86698" lon="1.98967">
        <ele>478.36</ele>
        <time>2022-10-31T12:21:08.640Z</time>
      </trkpt>
      <trkpt lat="44.86695" lon="1.98978">
        <ele>478.37</ele>
        <time>2022-10-31T12:21:18.000Z</time>
      </trkpt>
      <trkpt lat="44.8669" lon="1.98994">
        <ele>479.38</ele>
        <time>2022-10-31T12:21:27.610Z</time>
      </trkpt>
      <trkpt lat="44.86686" lon="1.99006">
        <ele>481.36</ele>
        <time>2022-10-31T12:21:37.370Z</time>
      </trkpt>
      <trkpt lat="44.86682" lon="1.99017">
        <ele>478.62</ele>
        <time>2022-10-31T12:21:47.000Z</time>
      </trkpt>
      <trkpt lat="44.86678" lon="1.99037">
        <ele>477.36</ele>
        <time>2022-10-31T12:21:56.310Z</time>
      </trkpt>
      <trkpt lat="44.8668" lon="1.99054">
        <ele>477.55</ele>
        <time>2022-10-31T12:22:05.650Z</time>
      </trkpt>
      <trkpt lat="44.86682" lon="1.99071">
        <ele>477.36</ele>
        <time>2022-10-31T12:22:14.729Z</time>
      </trkpt>
      <trkpt lat="44.86684" lon="1.99083">
        <ele>477.61</ele>
        <time>2022-10-31T12:22:25.000Z</time>
      </trkpt>
      <trkpt lat="44.86685" lon="1.99097">
        <ele>476.36</ele>
        <time>2022-10-31T12:22:34.630Z</time>
      </trkpt>
      <trkpt lat="44.86687" lon="1.9911">
        <ele>475.43</ele>
        <time>2022-10-31T12:22:43.722Z</time>
      </trkpt>
      <trkpt lat="44.8669" lon="1.99129">
        <ele>475.36</ele>
        <time>2022-10-31T12:22:53.000Z</time>
      </trkpt>
      <trkpt lat="44.86691" lon="1.9914">
        <ele>474.37</ele>
        <time>2022-10-31T12:23:02.489Z</time>
      </trkpt>
      <trkpt lat="44.86691" lon="1.9915">
        <ele>475.36</ele>
        <time>2022-10-31T12:23:13.000Z</time>
      </trkpt>
      <trkpt lat="44.86691" lon="1.99163">
        <ele>476.35</ele>
        <time>2022-10-31T12:23:22.189Z</time>
      </trkpt>
      <trkpt lat="44.86692" lon="1.99175">
        <ele>474.36</ele>
        <time>2022-10-31T12:23:31.633Z</time>
      </trkpt>
      <trkpt lat="44.86694" lon="1.99189">
        <ele>472.36</ele>
        <time>2022-10-31T12:23:41.570Z</time>
      </trkpt>
      <trkpt lat="44.86699" lon="1.99205">
        <ele>470.36</ele>
        <time>2022-10-31T12:23:51.000Z</time>
      </trkpt>
      <trkpt lat="44.86704" lon="1.99221">
        <ele>469.37</ele>
        <time>2022-10-31T12:24:01.000Z</time>
      </trkpt>
      <trkpt lat="44.8671" lon="1.99231">
        <ele>470.3</ele>
        <time>2022-10-31T12:24:10.590Z</time>
      </trkpt>
      <trkpt lat="44.86714" lon="1.99242">
        <ele>468.61</ele>
        <time>2022-10-31T12:24:20.000Z</time>
      </trkpt>
      <trkpt lat="44.86715" lon="1.99246">
        <ele>470.36</ele>
        <time>2022-10-31T12:24:29.421Z</time>
      </trkpt>
      <trkpt lat="44.86713" lon="1.99259">
        <ele>470.36</ele>
        <time>2022-10-31T12:24:38.692Z</time>
      </trkpt>
      <trkpt lat="44.8671" lon="1.99272">
        <ele>469.61</ele>
        <time>2022-10-31T12:24:48.000Z</time>
      </trkpt>
      <trkpt lat="44.86707" lon="1.99287">
        <ele>469.36</ele>
        <time>2022-10-31T12:24:57.434Z</time>
      </trkpt>
      <trkpt lat="44.86706" lon="1.99298">
        <ele>467.61</ele>
        <time>2022-10-31T12:25:07.031Z</time>
      </trkpt>
      <trkpt lat="44.86704" lon="1.99313">
        <ele>466.36</ele>
        <time>2022-10-31T12:25:16.312Z</time>
      </trkpt>
      <trkpt lat="44.86699" lon="1.99327">
        <ele>467.3</ele>
        <time>2022-10-31T12:25:25.370Z</time>
      </trkpt>
      <trkpt lat="44.86696" lon="1.99342">
        <ele>469.28</ele>
        <time>2022-10-31T12:25:34.449Z</time>
      </trkpt>
      <trkpt lat="44.86693" lon="1.99354">
        <ele>471.3</ele>
        <time>2022-10-31T12:25:44.671Z</time>
      </trkpt>
      <trkpt lat="44.86688" lon="1.9937">
        <ele>468.36</ele>
        <time>2022-10-31T12:25:54.671Z</time>
      </trkpt>
      <trkpt lat="44.86685" lon="1.99383">
        <ele>466.36</ele>
        <time>2022-10-31T12:26:03.725Z</time>
      </trkpt>
      <trkpt lat="44.86683" lon="1.99396">
        <ele>466.35</ele>
        <time>2022-10-31T12:26:14.000Z</time>
      </trkpt>
      <trkpt lat="44.86679" lon="1.99409">
        <ele>465.42</ele>
        <time>2022-10-31T12:26:23.631Z</time>
      </trkpt>
      <trkpt lat="44.86674" lon="1.99423">
        <ele>469.29</ele>
        <time>2022-10-31T12:26:33.000Z</time>
      </trkpt>
      <trkpt lat="44.86668" lon="1.99433">
        <ele>469.36</ele>
        <time>2022-10-31T12:26:42.415Z</time>
      </trkpt>
      <trkpt lat="44.86661" lon="1.99447">
        <ele>470.36</ele>
        <time>2022-10-31T12:26:52.719Z</time>
      </trkpt>
      <trkpt lat="44.86657" lon="1.99455">
        <ele>468.86</ele>
        <time>2022-10-31T12:27:03.000Z</time>
      </trkpt>
      <trkpt lat="44.86655" lon="1.99463">
        <ele>464.48</ele>
        <time>2022-10-31T12:27:13.000Z</time>
      </trkpt>
      <trkpt lat="44.86652" lon="1.99475">
        <ele>464.12</ele>
        <time>2022-10-31T12:27:22.170Z</time>
      </trkpt>
      <trkpt lat="44.86648" lon="1.99484">
        <ele>464.36</ele>
        <time>2022-10-31T12:27:31.570Z</time>
      </trkpt>
      <trkpt lat="44.86645" lon="1.99495">
        <ele>464.36</ele>
        <time>2022-10-31T12:27:41.000Z</time>
      </trkpt>
      <trkpt lat="44.8664" lon="1.99504">
        <ele>463.36</ele>
        <time>2022-10-31T12:27:51.000Z</time>
      </trkpt>
      <trkpt lat="44.86636" lon="1.99522">
        <ele>463.36</ele>
        <time>2022-10-31T12:28:00.428Z</time>
      </trkpt>
      <trkpt lat="44.86636" lon="1.99537">
        <ele>464.11</ele>
        <time>2022-10-31T12:28:10.000Z</time>
      </trkpt>
      <trkpt lat="44.8664" lon="1.99553">
        <ele>464.36</ele>
        <time>2022-10-31T12:28:19.330Z</time>
      </trkpt>
      <trkpt lat="44.86646" lon="1.99564">
        <ele>462.42</ele>
        <time>2022-10-31T12:28:28.450Z</time>
      </trkpt>
      <trkpt lat="44.86657" lon="1.99573">
        <ele>463.34</ele>
        <time>2022-10-31T12:28:37.749Z</time>
      </trkpt>
      <trkpt lat="44.8666" lon="1.99578">
        <ele>461.35</ele>
        <time>2022-10-31T12:28:46.949Z</time>
      </trkpt>
      <trkpt lat="44.86658" lon="1.99583">
        <ele>462.1</ele>
        <time>2022-10-31T12:28:56.171Z</time>
      </trkpt>
      <trkpt lat="44.86658" lon="1.99586">
        <ele>462.35</ele>
        <time>2022-10-31T12:29:05.420Z</time>
      </trkpt>
      <trkpt lat="44.8666" lon="1.9959">
        <ele>460.48</ele>
        <time>2022-10-31T12:29:15.000Z</time>
      </trkpt>
      <trkpt lat="44.86662" lon="1.99593">
        <ele>457.6</ele>
        <time>2022-10-31T12:29:24.249Z</time>
      </trkpt>
      <trkpt lat="44.86661" lon="1.99592">
        <ele>453.36</ele>
        <time>2022-10-31T12:29:33.750Z</time>
      </trkpt>
      <trkpt lat="44.86656" lon="1.99592">
        <ele>450.36</ele>
        <time>2022-10-31T12:29:43.190Z</time>
      </trkpt>
      <trkpt lat="44.86651" lon="1.99593">
        <ele>449.37</ele>
        <time>2022-10-31T12:29:52.417Z</time>
      </trkpt>
      <trkpt lat="44.86644" lon="1.99597">
        <ele>449.37</ele>
        <time>2022-10-31T12:30:02.000Z</time>
      </trkpt>
      <trkpt lat="44.86641" lon="1.99603">
        <ele>449.34</ele>
        <time>2022-10-31T12:30:12.000Z</time>
      </trkpt>
      <trkpt lat="44.86637" lon="1.99611">
        <ele>448.35</ele>
        <time>2022-10-31T12:30:21.696Z</time>
      </trkpt>
      <trkpt lat="44.86633" lon="1.99616">
        <ele>447.36</ele>
        <time>2022-10-31T12:30:31.000Z</time>
      </trkpt>
      <trkpt lat="44.86627" lon="1.99621">
        <ele>447.35</ele>
        <time>2022-10-31T12:30:40.419Z</time>
      </trkpt>
      <trkpt lat="44.86617" lon="1.99627">
        <ele>448.42</ele>
        <time>2022-10-31T12:30:49.529Z</time>
      </trkpt>
      <trkpt lat="44.86609" lon="1.9963">
        <ele>447.35</ele>
        <time>2022-10-31T12:30:58.809Z</time>
      </trkpt>
      <trkpt lat="44.86601" lon="1.99634">
        <ele>450.35</ele>
        <time>2022-10-31T12:31:08.677Z</time>
      </trkpt>
      <trkpt lat="44.8659" lon="1.99643">
        <ele>451.35</ele>
        <time>2022-10-31T12:31:17.991Z</time>
      </trkpt>
      <trkpt lat="44.86581" lon="1.99648">
        <ele>451.35</ele>
        <time>2022-10-31T12:31:27.212Z</time>
      </trkpt>
      <trkpt lat="44.86573" lon="1.99651">
        <ele>452.35</ele>
        <time>2022-10-31T12:31:36.250Z</time>
      </trkpt>
      <trkpt lat="44.86567" lon="1.99654">
        <ele>452.35</ele>
        <time>2022-10-31T12:31:45.350Z</time>
      </trkpt>
      <trkpt lat="44.86563" lon="1.99656">
        <ele>452.37</ele>
        <time>2022-10-31T12:31:54.469Z</time>
      </trkpt>
      <trkpt lat="44.86556" lon="1.99657">
        <ele>450.35</ele>
        <time>2022-10-31T12:32:03.820Z</time>
      </trkpt>
      <trkpt lat="44.8655" lon="1.99651">
        <ele>449.6</ele>
        <time>2022-10-31T12:32:13.670Z</time>
      </trkpt>
      <trkpt lat="44.86543" lon="1.99643">
        <ele>446.35</ele>
        <time>2022-10-31T12:32:23.070Z</time>
      </trkpt>
      <trkpt lat="44.86537" lon="1.99639">
        <ele>444.6</ele>
        <time>2022-10-31T12:32:32.370Z</time>
      </trkpt>
      <trkpt lat="44.8653" lon="1.99634">
        <ele>442.6</ele>
        <time>2022-10-31T12:32:41.417Z</time>
      </trkpt>
      <trkpt lat="44.86523" lon="1.99628">
        <ele>441.35</ele>
        <time>2022-10-31T12:32:50.630Z</time>
      </trkpt>
      <trkpt lat="44.86523" lon="1.9962">
        <ele>437.61</ele>
        <time>2022-10-31T12:32:59.949Z</time>
      </trkpt>
      <trkpt lat="44.86518" lon="1.99609">
        <ele>437.34</ele>
        <time>2022-10-31T12:33:09.000Z</time>
      </trkpt>
      <trkpt lat="44.86513" lon="1.99599">
        <ele>438.35</ele>
        <time>2022-10-31T12:33:18.191Z</time>
      </trkpt>
      <trkpt lat="44.86508" lon="1.99591">
        <ele>436.68</ele>
        <time>2022-10-31T12:33:28.000Z</time>
      </trkpt>
      <trkpt lat="44.86506" lon="1.99585">
        <ele>433.3</ele>
        <time>2022-10-31T12:33:37.429Z</time>
      </trkpt>
      <trkpt lat="44.86502" lon="1.99582">
        <ele>432.61</ele>
        <time>2022-10-31T12:33:47.000Z</time>
      </trkpt>
      <trkpt lat="44.86497" lon="1.99579">
        <ele>425.86</ele>
        <time>2022-10-31T12:33:57.000Z</time>
      </trkpt>
      <trkpt lat="44.86492" lon="1.99579">
        <ele>424.36</ele>
        <time>2022-10-31T12:34:06.469Z</time>
      </trkpt>
      <trkpt lat="44.86488" lon="1.99579">
        <ele>420.38</ele>
        <time>2022-10-31T12:34:15.470Z</time>
      </trkpt>
      <trkpt lat="44.86486" lon="1.9958">
        <ele>419.36</ele>
        <time>2022-10-31T12:34:25.000Z</time>
      </trkpt>
      <trkpt lat="44.86484" lon="1.9958">
        <ele>417.48</ele>
        <time>2022-10-31T12:34:39.000Z</time>
      </trkpt>
      <trkpt lat="44.86485" lon="1.9958">
        <ele>417.6</ele>
        <time>2022-10-31T12:34:48.552Z</time>
      </trkpt>
      <trkpt lat="44.86491" lon="1.9958">
        <ele>417.35</ele>
        <time>2022-10-31T12:34:57.631Z</time>
      </trkpt>
      <trkpt lat="44.86493" lon="1.99578">
        <ele>415.36</ele>
        <time>2022-10-31T12:35:07.000Z</time>
      </trkpt>
      <trkpt lat="44.86494" lon="1.99577">
        <ele>414.36</ele>
        <time>2022-10-31T12:35:17.000Z</time>
      </trkpt>
      <trkpt lat="44.86492" lon="1.99576">
        <ele>414.29</ele>
        <time>2022-10-31T12:35:26.350Z</time>
      </trkpt>
      <trkpt lat="44.86488" lon="1.9957">
        <ele>412.42</ele>
        <time>2022-10-31T12:35:35.730Z</time>
      </trkpt>
      <trkpt lat="44.86485" lon="1.99565">
        <ele>411.29</ele>
        <time>2022-10-31T12:35:44.749Z</time>
      </trkpt>
      <trkpt lat="44.8648" lon="1.99563">
        <ele>413.36</ele>
        <time>2022-10-31T12:35:54.000Z</time>
      </trkpt>
      <trkpt lat="44.86479" lon="1.99563">
        <ele>415.35</ele>
        <time>2022-10-31T12:36:06.000Z</time>
      </trkpt>
      <trkpt lat="44.8648" lon="1.99564">
        <ele>416.36</ele>
        <time>2022-10-31T12:36:15.713Z</time>
      </trkpt>
      <trkpt lat="44.86479" lon="1.99565">
        <ele>420.29</ele>
        <time>2022-10-31T12:36:26.000Z</time>
      </trkpt>
      <trkpt lat="44.86481" lon="1.99563">
        <ele>424.35</ele>
        <time>2022-10-31T12:36:36.000Z</time>
      </trkpt>
      <trkpt lat="44.8648" lon="1.99562">
        <ele>423.61</ele>
        <time>2022-10-31T12:36:46.000Z</time>
      </trkpt>
      <trkpt lat="44.86479" lon="1.99561">
        <ele>423.86</ele>
        <time>2022-10-31T12:36:55.431Z</time>
      </trkpt>
      <trkpt lat="44.86476" lon="1.99563">
        <ele>426.29</ele>
        <time>2022-10-31T12:37:05.000Z</time>
      </trkpt>
      <trkpt lat="44.86476" lon="1.99568">
        <ele>430.11</ele>
        <time>2022-10-31T12:37:14.250Z</time>
      </trkpt>
      <trkpt lat="44.86472" lon="1.99573">
        <ele>432.11</ele>
        <time>2022-10-31T12:37:23.290Z</time>
      </trkpt>
      <trkpt lat="44.86465" lon="1.99575">
        <ele>433.34</ele>
        <time>2022-10-31T12:37:32.649Z</time>
      </trkpt>
      <trkpt lat="44.8646" lon="1.99575">
        <ele>435.11</ele>
        <time>2022-10-31T12:37:42.000Z</time>
      </trkpt>
      <trkpt lat="44.86455" lon="1.99578">
        <ele>433.36</ele>
        <time>2022-10-31T12:37:51.472Z</time>
      </trkpt>
      <trkpt lat="44.86452" lon="1.99587">
        <ele>437.32</ele>
        <time>2022-10-31T12:38:01.170Z</time>
      </trkpt>
      <trkpt lat="44.8645" lon="1.99592">
        <ele>437.36</ele>
        <time>2022-10-31T12:38:10.570Z</time>
      </trkpt>
      <trkpt lat="44.86445" lon="1.99595">
        <ele>443.1</ele>
        <time>2022-10-31T12:38:20.181Z</time>
      </trkpt>
      <trkpt lat="44.86441" lon="1.99596">
        <ele>446.36</ele>
        <time>2022-10-31T12:38:29.509Z</time>
      </trkpt>
      <trkpt lat="44.86438" lon="1.99596">
        <ele>443.36</ele>
        <time>2022-10-31T12:38:39.212Z</time>
      </trkpt>
      <trkpt lat="44.86434" lon="1.99598">
        <ele>443.29</ele>
        <time>2022-10-31T12:38:49.000Z</time>
      </trkpt>
      <trkpt lat="44.86429" lon="1.99601">
        <ele>443.42</ele>
        <time>2022-10-31T12:38:59.000Z</time>
      </trkpt>
      <trkpt lat="44.86428" lon="1.99607">
        <ele>441.36</ele>
        <time>2022-10-31T12:39:09.000Z</time>
      </trkpt>
      <trkpt lat="44.86425" lon="1.99611">
        <ele>444.57</ele>
        <time>2022-10-31T12:39:18.573Z</time>
      </trkpt>
      <trkpt lat="44.8642" lon="1.99615">
        <ele>448.34</ele>
        <time>2022-10-31T12:39:27.670Z</time>
      </trkpt>
      <trkpt lat="44.86415" lon="1.99619">
        <ele>450.35</ele>
        <time>2022-10-31T12:39:37.150Z</time>
      </trkpt>
      <trkpt lat="44.86409" lon="1.99623">
        <ele>453.35</ele>
        <time>2022-10-31T12:39:46.551Z</time>
      </trkpt>
      <trkpt lat="44.86406" lon="1.99625">
        <ele>453.35</ele>
        <time>2022-10-31T12:39:56.000Z</time>
      </trkpt>
      <trkpt lat="44.86402" lon="1.99628">
        <ele>455.35</ele>
        <time>2022-10-31T12:40:05.271Z</time>
      </trkpt>
      <trkpt lat="44.86396" lon="1.99632">
        <ele>457.23</ele>
        <time>2022-10-31T12:40:14.671Z</time>
      </trkpt>
      <trkpt lat="44.86393" lon="1.99639">
        <ele>458.34</ele>
        <time>2022-10-31T12:40:24.490Z</time>
      </trkpt>
      <trkpt lat="44.86391" lon="1.99643">
        <ele>460.36</ele>
        <time>2022-10-31T12:40:34.290Z</time>
      </trkpt>
      <trkpt lat="44.86388" lon="1.99647">
        <ele>464.23</ele>
        <time>2022-10-31T12:40:43.611Z</time>
      </trkpt>
      <trkpt lat="44.86385" lon="1.99651">
        <ele>464.35</ele>
        <time>2022-10-31T12:40:52.720Z</time>
      </trkpt>
      <trkpt lat="44.86382" lon="1.99658">
        <ele>465.42</ele>
        <time>2022-10-31T12:41:02.000Z</time>
      </trkpt>
      <trkpt lat="44.86379" lon="1.99666">
        <ele>465.35</ele>
        <time>2022-10-31T12:41:11.729Z</time>
      </trkpt>
      <trkpt lat="44.86378" lon="1.99675">
        <ele>466.39</ele>
        <time>2022-10-31T12:41:21.000Z</time>
      </trkpt>
      <trkpt lat="44.8638" lon="1.99682">
        <ele>467.35</ele>
        <time>2022-10-31T12:41:30.630Z</time>
      </trkpt>
      <trkpt lat="44.86379" lon="1.99692">
        <ele>469.85</ele>
        <time>2022-10-31T12:41:40.000Z</time>
      </trkpt>
      <trkpt lat="44.86377" lon="1.99704">
        <ele>469.35</ele>
        <time>2022-10-31T12:41:50.000Z</time>
      </trkpt>
      <trkpt lat="44.86377" lon="1.99712">
        <ele>473.1</ele>
        <time>2022-10-31T12:41:59.330Z</time>
      </trkpt>
      <trkpt lat="44.86377" lon="1.99718">
        <ele>477.1</ele>
        <time>2022-10-31T12:42:08.570Z</time>
      </trkpt>
      <trkpt lat="44.86376" lon="1.99728">
        <ele>475.28</ele>
        <time>2022-10-31T12:42:18.000Z</time>
      </trkpt>
      <trkpt lat="44.86374" lon="1.99734">
        <ele>477.09</ele>
        <time>2022-10-31T12:42:28.000Z</time>
      </trkpt>
      <trkpt lat="44.86371" lon="1.99733">
        <ele>478.85</ele>
        <time>2022-10-31T12:42:37.070Z</time>
      </trkpt>
      <trkpt lat="44.86366" lon="1.99726">
        <ele>481.35</ele>
        <time>2022-10-31T12:42:46.371Z</time>
      </trkpt>
      <trkpt lat="44.86363" lon="1.99718">
        <ele>482.35</ele>
        <time>2022-10-31T12:42:56.110Z</time>
      </trkpt>
      <trkpt lat="44.86361" lon="1.99706">
        <ele>481.35</ele>
        <time>2022-10-31T12:43:05.150Z</time>
      </trkpt>
      <trkpt lat="44.8636" lon="1.997">
        <ele>480.32</ele>
        <time>2022-10-31T12:43:15.000Z</time>
      </trkpt>
      <trkpt lat="44.86358" lon="1.99693">
        <ele>479.35</ele>
        <time>2022-10-31T12:43:25.000Z</time>
      </trkpt>
      <trkpt lat="44.86357" lon="1.99687">
        <ele>481.35</ele>
        <time>2022-10-31T12:43:34.351Z</time>
      </trkpt>
      <trkpt lat="44.86356" lon="1.99685">
        <ele>482.1</ele>
        <time>2022-10-31T12:43:44.000Z</time>
      </trkpt>
      <trkpt lat="44.86353" lon="1.99684">
        <ele>482.35</ele>
        <time>2022-10-31T12:43:54.000Z</time>
      </trkpt>
      <trkpt lat="44.86351" lon="1.99684">
        <ele>483.1</ele>
        <time>2022-10-31T12:44:15.000Z</time>
      </trkpt>
      <trkpt lat="44.86349" lon="1.99682">
        <ele>483.35</ele>
        <time>2022-10-31T12:44:24.509Z</time>
      </trkpt>
      <trkpt lat="44.86346" lon="1.99678">
        <ele>482.35</ele>
        <time>2022-10-31T12:44:34.000Z</time>
      </trkpt>
      <trkpt lat="44.86342" lon="1.99678">
        <ele>481.35</ele>
        <time>2022-10-31T12:44:43.729Z</time>
      </trkpt>
      <trkpt lat="44.86336" lon="1.99685">
        <ele>482.35</ele>
        <time>2022-10-31T12:44:54.000Z</time>
      </trkpt>
      <trkpt lat="44.8633" lon="1.99692">
        <ele>480.35</ele>
        <time>2022-10-31T12:45:03.370Z</time>
      </trkpt>
      <trkpt lat="44.86324" lon="1.99698">
        <ele>483.35</ele>
        <time>2022-10-31T12:45:12.550Z</time>
      </trkpt>
      <trkpt lat="44.8632" lon="1.99704">
        <ele>488.04</ele>
        <time>2022-10-31T12:45:22.000Z</time>
      </trkpt>
      <trkpt lat="44.86314" lon="1.99714">
        <ele>491.34</ele>
        <time>2022-10-31T12:45:31.611Z</time>
      </trkpt>
      <trkpt lat="44.86309" lon="1.99721">
        <ele>494.29</ele>
        <time>2022-10-31T12:45:41.291Z</time>
      </trkpt>
      <trkpt lat="44.86306" lon="1.99729">
        <ele>495.35</ele>
        <time>2022-10-31T12:45:50.630Z</time>
      </trkpt>
      <trkpt lat="44.86302" lon="1.99737">
        <ele>497.1</ele>
        <time>2022-10-31T12:46:00.000Z</time>
      </trkpt>
      <trkpt lat="44.86298" lon="1.99746">
        <ele>495.35</ele>
        <time>2022-10-31T12:46:09.689Z</time>
      </trkpt>
      <trkpt lat="44.86296" lon="1.99748">
        <ele>496.35</ele>
        <time>2022-10-31T12:46:18.719Z</time>
      </trkpt>
      <trkpt lat="44.86291" lon="1.99752">
        <ele>496.35</ele>
        <time>2022-10-31T12:46:28.000Z</time>
      </trkpt>
      <trkpt lat="44.86285" lon="1.99756">
        <ele>497.6</ele>
        <time>2022-10-31T12:46:37.190Z</time>
      </trkpt>
      <trkpt lat="44.86279" lon="1.99759">
        <ele>498.6</ele>
        <time>2022-10-31T12:46:46.509Z</time>
      </trkpt>
      <trkpt lat="44.86273" lon="1.9976">
        <ele>498.35</ele>
        <time>2022-10-31T12:46:56.000Z</time>
      </trkpt>
      <trkpt lat="44.8627" lon="1.9976">
        <ele>500.29</ele>
        <time>2022-10-31T12:47:05.550Z</time>
      </trkpt>
      <trkpt lat="44.86264" lon="1.9976">
        <ele>507.1</ele>
        <time>2022-10-31T12:47:16.000Z</time>
      </trkpt>
      <trkpt lat="44.86255" lon="1.9976">
        <ele>507.36</ele>
        <time>2022-10-31T12:47:25.569Z</time>
      </trkpt>
      <trkpt lat="44.86247" lon="1.99758">
        <ele>508.07</ele>
        <time>2022-10-31T12:47:35.000Z</time>
      </trkpt>
      <trkpt lat="44.86236" lon="1.99753">
        <ele>504.31</ele>
        <time>2022-10-31T12:47:45.000Z</time>
      </trkpt>
      <trkpt lat="44.86229" lon="1.99751">
        <ele>503.66</ele>
        <time>2022-10-31T12:47:54.190Z</time>
      </trkpt>
      <trkpt lat="44.86223" lon="1.99753">
        <ele>504.1</ele>
        <time>2022-10-31T12:48:03.470Z</time>
      </trkpt>
      <trkpt lat="44.86217" lon="1.99756">
        <ele>504.17</ele>
        <time>2022-10-31T12:48:13.000Z</time>
      </trkpt>
      <trkpt lat="44.8621" lon="1.99759">
        <ele>507.35</ele>
        <time>2022-10-31T12:48:22.049Z</time>
      </trkpt>
      <trkpt lat="44.86206" lon="1.99765">
        <ele>511.07</ele>
        <time>2022-10-31T12:48:32.000Z</time>
      </trkpt>
      <trkpt lat="44.862" lon="1.99773">
        <ele>517.35</ele>
        <time>2022-10-31T12:48:41.424Z</time>
      </trkpt>
      <trkpt lat="44.86194" lon="1.99781">
        <ele>517.37</ele>
        <time>2022-10-31T12:48:50.591Z</time>
      </trkpt>
      <trkpt lat="44.86191" lon="1.9979">
        <ele>520.35</ele>
        <time>2022-10-31T12:49:00.189Z</time>
      </trkpt>
      <trkpt lat="44.86186" lon="1.99797">
        <ele>524.09</ele>
        <time>2022-10-31T12:49:10.000Z</time>
      </trkpt>
      <trkpt lat="44.8618" lon="1.99806">
        <ele>529.09</ele>
        <time>2022-10-31T12:49:19.369Z</time>
      </trkpt>
      <trkpt lat="44.86172" lon="1.99814">
        <ele>531.16</ele>
        <time>2022-10-31T12:49:29.000Z</time>
      </trkpt>
      <trkpt lat="44.86166" lon="1.99821">
        <ele>531.35</ele>
        <time>2022-10-31T12:49:38.210Z</time>
      </trkpt>
      <trkpt lat="44.86158" lon="1.99827">
        <ele>534.04</ele>
        <time>2022-10-31T12:49:47.370Z</time>
      </trkpt>
      <trkpt lat="44.86152" lon="1.99837">
        <ele>535.29</ele>
        <time>2022-10-31T12:49:57.000Z</time>
      </trkpt>
      <trkpt lat="44.86148" lon="1.99844">
        <ele>537.09</ele>
        <time>2022-10-31T12:50:07.000Z</time>
      </trkpt>
      <trkpt lat="44.86143" lon="1.99853">
        <ele>538.35</ele>
        <time>2022-10-31T12:50:16.211Z</time>
      </trkpt>
      <trkpt lat="44.86138" lon="1.9986">
        <ele>536.27</ele>
        <time>2022-10-31T12:50:25.530Z</time>
      </trkpt>
      <trkpt lat="44.86132" lon="1.99865">
        <ele>536.35</ele>
        <time>2022-10-31T12:50:34.630Z</time>
      </trkpt>
      <trkpt lat="44.86123" lon="1.9987">
        <ele>537.1</ele>
        <time>2022-10-31T12:50:44.000Z</time>
      </trkpt>
      <trkpt lat="44.86114" lon="1.99877">
        <ele>537.35</ele>
        <time>2022-10-31T12:50:53.571Z</time>
      </trkpt>
      <trkpt lat="44.86105" lon="1.99883">
        <ele>538.54</ele>
        <time>2022-10-31T12:51:03.000Z</time>
      </trkpt>
      <trkpt lat="44.86098" lon="1.99888">
        <ele>539.1</ele>
        <time>2022-10-31T12:51:12.229Z</time>
      </trkpt>
      <trkpt lat="44.86089" lon="1.99897">
        <ele>541.33</ele>
        <time>2022-10-31T12:51:21.429Z</time>
      </trkpt>
      <trkpt lat="44.86083" lon="1.99905">
        <ele>542.6</ele>
        <time>2022-10-31T12:51:32.000Z</time>
      </trkpt>
      <trkpt lat="44.86074" lon="1.99912">
        <ele>542.35</ele>
        <time>2022-10-31T12:51:41.469Z</time>
      </trkpt>
      <trkpt lat="44.86068" lon="1.99919">
        <ele>542.37</ele>
        <time>2022-10-31T12:51:51.000Z</time>
      </trkpt>
      <trkpt lat="44.86062" lon="1.99925">
        <ele>541.1</ele>
        <time>2022-10-31T12:52:00.150Z</time>
      </trkpt>
      <trkpt lat="44.86054" lon="1.99931">
        <ele>541.35</ele>
        <time>2022-10-31T12:52:09.427Z</time>
      </trkpt>
      <trkpt lat="44.86047" lon="1.99938">
        <ele>540.35</ele>
        <time>2022-10-31T12:52:19.000Z</time>
      </trkpt>
      <trkpt lat="44.86035" lon="1.99943">
        <ele>539.35</ele>
        <time>2022-10-31T12:52:28.294Z</time>
      </trkpt>
      <trkpt lat="44.86025" lon="1.99948">
        <ele>538.35</ele>
        <time>2022-10-31T12:52:38.000Z</time>
      </trkpt>
      <trkpt lat="44.86022" lon="1.9995">
        <ele>536.35</ele>
        <time>2022-10-31T12:52:48.000Z</time>
      </trkpt>
      <trkpt lat="44.86021" lon="1.99952">
        <ele>536.35</ele>
        <time>2022-10-31T12:52:58.000Z</time>
      </trkpt>
      <trkpt lat="44.86021" lon="1.9996">
        <ele>536.34</ele>
        <time>2022-10-31T12:53:08.000Z</time>
      </trkpt>
      <trkpt lat="44.8602" lon="1.9996">
        <ele>535.35</ele>
        <time>2022-10-31T12:53:35.000Z</time>
      </trkpt>
      <trkpt lat="44.86019" lon="1.9996">
        <ele>535.35</ele>
        <time>2022-10-31T12:53:45.000Z</time>
      </trkpt>
      <trkpt lat="44.86017" lon="1.99962">
        <ele>535.35</ele>
        <time>2022-10-31T12:53:55.000Z</time>
      </trkpt>
      <trkpt lat="44.86016" lon="1.99962">
        <ele>535.35</ele>
        <time>2022-10-31T12:54:56.000Z</time>
      </trkpt>
      <trkpt lat="44.86016" lon="1.99963">
        <ele>533.6</ele>
        <time>2022-10-31T12:55:42.000Z</time>
      </trkpt>
      <trkpt lat="44.86017" lon="1.99965">
        <ele>533.33</ele>
        <time>2022-10-31T12:55:52.000Z</time>
      </trkpt>
      <trkpt lat="44.86018" lon="1.99965">
        <ele>533.6</ele>
        <time>2022-10-31T12:59:34.000Z</time>
      </trkpt>
      <trkpt lat="44.86019" lon="1.99965">
        <ele>531.6</ele>
        <time>2022-10-31T12:59:47.000Z</time>
      </trkpt>
      <trkpt lat="44.86019" lon="1.99967">
        <ele>529.36</ele>
        <time>2022-10-31T13:02:08.000Z</time>
      </trkpt>
      <trkpt lat="44.86019" lon="1.99965">
        <ele>530.1</ele>
        <time>2022-10-31T13:04:56.000Z</time>
      </trkpt>
      <trkpt lat="44.86019" lon="1.99963">
        <ele>530.35</ele>
        <time>2022-10-31T13:05:06.000Z</time>
      </trkpt>
      <trkpt lat="44.86018" lon="1.99964">
        <ele>529.35</ele>
        <time>2022-10-31T13:05:16.000Z</time>
      </trkpt>
      <trkpt lat="44.86018" lon="1.99966">
        <ele>528.41</ele>
        <time>2022-10-31T13:07:29.000Z</time>
      </trkpt>
      <trkpt lat="44.86019" lon="1.99968">
        <ele>528.35</ele>
        <time>2022-10-31T13:07:39.000Z</time>
      </trkpt>
      <trkpt lat="44.8602" lon="1.99967">
        <ele>530.35</ele>
        <time>2022-10-31T13:07:49.000Z</time>
      </trkpt>
      <trkpt lat="44.86018" lon="1.99967">
        <ele>528.62</ele>
        <time>2022-10-31T13:08:36.000Z</time>
      </trkpt>
      <trkpt lat="44.86018" lon="1.99966">
        <ele>529.29</ele>
        <time>2022-10-31T13:09:12.000Z</time>
      </trkpt>
      <trkpt lat="44.86017" lon="1.99966">
        <ele>530.35</ele>
        <time>2022-10-31T13:11:07.000Z</time>
      </trkpt>
      <trkpt lat="44.86016" lon="1.99964">
        <ele>531.35</ele>
        <time>2022-10-31T13:11:16.310Z</time>
      </trkpt>
      <trkpt lat="44.86016" lon="1.99966">
        <ele>530.35</ele>
        <time>2022-10-31T13:12:05.529Z</time>
      </trkpt>
      <trkpt lat="44.86013" lon="1.9997">
        <ele>533.29</ele>
        <time>2022-10-31T13:12:15.229Z</time>
      </trkpt>
      <trkpt lat="44.86005" lon="1.99977">
        <ele>534.35</ele>
        <time>2022-10-31T13:12:24.650Z</time>
      </trkpt>
      <trkpt lat="44.85999" lon="1.99988">
        <ele>537.29</ele>
        <time>2022-10-31T13:12:33.971Z</time>
      </trkpt>
      <trkpt lat="44.85993" lon="2">
        <ele>537.29</ele>
        <time>2022-10-31T13:12:43.550Z</time>
      </trkpt>
      <trkpt lat="44.85986" lon="2.00009">
        <ele>536.35</ele>
        <time>2022-10-31T13:12:53.000Z</time>
      </trkpt>
      <trkpt lat="44.85979" lon="2.00018">
        <ele>537.35</ele>
        <time>2022-10-31T13:13:02.150Z</time>
      </trkpt>
      <trkpt lat="44.85969" lon="2.00026">
        <ele>536.59</ele>
        <time>2022-10-31T13:13:11.529Z</time>
      </trkpt>
      <trkpt lat="44.85962" lon="2.00031">
        <ele>538.35</ele>
        <time>2022-10-31T13:13:21.000Z</time>
      </trkpt>
      <trkpt lat="44.85954" lon="2.00032">
        <ele>538.35</ele>
        <time>2022-10-31T13:13:31.000Z</time>
      </trkpt>
      <trkpt lat="44.85948" lon="2.00033">
        <ele>537.41</ele>
        <time>2022-10-31T13:13:40.270Z</time>
      </trkpt>
      <trkpt lat="44.8594" lon="2.00027">
        <ele>537.35</ele>
        <time>2022-10-31T13:13:49.509Z</time>
      </trkpt>
      <trkpt lat="44.85929" lon="2.00019">
        <ele>535.35</ele>
        <time>2022-10-31T13:13:59.550Z</time>
      </trkpt>
      <trkpt lat="44.85921" lon="2.00012">
        <ele>535.35</ele>
        <time>2022-10-31T13:14:09.550Z</time>
      </trkpt>
      <trkpt lat="44.85909" lon="2.00012">
        <ele>537.11</ele>
        <time>2022-10-31T13:14:19.130Z</time>
      </trkpt>
      <trkpt lat="44.85897" lon="2.00017">
        <ele>536.4</ele>
        <time>2022-10-31T13:14:28.290Z</time>
      </trkpt>
      <trkpt lat="44.85887" lon="2.00027">
        <ele>538.29</ele>
        <time>2022-10-31T13:14:38.000Z</time>
      </trkpt>
      <trkpt lat="44.85879" lon="2.00039">
        <ele>540.34</ele>
        <time>2022-10-31T13:14:47.309Z</time>
      </trkpt>
      <trkpt lat="44.85873" lon="2.00049">
        <ele>541.34</ele>
        <time>2022-10-31T13:14:56.330Z</time>
      </trkpt>
      <trkpt lat="44.85869" lon="2.00061">
        <ele>539.35</ele>
        <time>2022-10-31T13:15:06.000Z</time>
      </trkpt>
      <trkpt lat="44.85868" lon="2.00069">
        <ele>541.33</ele>
        <time>2022-10-31T13:15:15.171Z</time>
      </trkpt>
      <trkpt lat="44.85862" lon="2.0008">
        <ele>542.3</ele>
        <time>2022-10-31T13:15:24.730Z</time>
      </trkpt>
      <trkpt lat="44.85854" lon="2.00087">
        <ele>541.41</ele>
        <time>2022-10-31T13:15:34.000Z</time>
      </trkpt>
      <trkpt lat="44.85844" lon="2.00091">
        <ele>541.36</ele>
        <time>2022-10-31T13:15:43.009Z</time>
      </trkpt>
      <trkpt lat="44.85838" lon="2.00093">
        <ele>541.11</ele>
        <time>2022-10-31T13:15:52.170Z</time>
      </trkpt>
      <trkpt lat="44.85827" lon="2.00101">
        <ele>540.35</ele>
        <time>2022-10-31T13:16:01.570Z</time>
      </trkpt>
      <trkpt lat="44.85818" lon="2.00104">
        <ele>540.61</ele>
        <time>2022-10-31T13:16:10.660Z</time>
      </trkpt>
      <trkpt lat="44.85804" lon="2.00108">
        <ele>539.41</ele>
        <time>2022-10-31T13:16:20.470Z</time>
      </trkpt>
      <trkpt lat="44.85792" lon="2.00113">
        <ele>541.29</ele>
        <time>2022-10-31T13:16:29.629Z</time>
      </trkpt>
      <trkpt lat="44.85783" lon="2.0012">
        <ele>543.35</ele>
        <time>2022-10-31T13:16:38.749Z</time>
      </trkpt>
      <trkpt lat="44.85774" lon="2.00122">
        <ele>544.35</ele>
        <time>2022-10-31T13:16:48.149Z</time>
      </trkpt>
      <trkpt lat="44.85765" lon="2.0013">
        <ele>543.28</ele>
        <time>2022-10-31T13:16:58.000Z</time>
      </trkpt>
      <trkpt lat="44.85758" lon="2.00137">
        <ele>545.33</ele>
        <time>2022-10-31T13:17:07.211Z</time>
      </trkpt>
      <trkpt lat="44.85747" lon="2.00146">
        <ele>546.35</ele>
        <time>2022-10-31T13:17:16.631Z</time>
      </trkpt>
      <trkpt lat="44.85737" lon="2.00152">
        <ele>548.34</ele>
        <time>2022-10-31T13:17:27.000Z</time>
      </trkpt>
      <trkpt lat="44.85735" lon="2.00154">
        <ele>549.35</ele>
        <time>2022-10-31T13:17:37.000Z</time>
      </trkpt>
      <trkpt lat="44.85726" lon="2.00164">
        <ele>549.35</ele>
        <time>2022-10-31T13:17:46.211Z</time>
      </trkpt>
      <trkpt lat="44.85717" lon="2.00171">
        <ele>550.28</ele>
        <time>2022-10-31T13:17:56.000Z</time>
      </trkpt>
      <trkpt lat="44.85708" lon="2.00177">
        <ele>551.28</ele>
        <time>2022-10-31T13:18:05.569Z</time>
      </trkpt>
      <trkpt lat="44.85702" lon="2.00182">
        <ele>552.28</ele>
        <time>2022-10-31T13:18:14.729Z</time>
      </trkpt>
      <trkpt lat="44.85696" lon="2.00191">
        <ele>552.35</ele>
        <time>2022-10-31T13:18:24.000Z</time>
      </trkpt>
      <trkpt lat="44.85687" lon="2.00195">
        <ele>553.35</ele>
        <time>2022-10-31T13:18:33.449Z</time>
      </trkpt>
      <trkpt lat="44.85679" lon="2.00201">
        <ele>552.59</ele>
        <time>2022-10-31T13:18:43.000Z</time>
      </trkpt>
      <trkpt lat="44.85668" lon="2.00211">
        <ele>551.35</ele>
        <time>2022-10-31T13:18:52.633Z</time>
      </trkpt>
      <trkpt lat="44.85662" lon="2.00221">
        <ele>552.1</ele>
        <time>2022-10-31T13:19:02.000Z</time>
      </trkpt>
      <trkpt lat="44.85657" lon="2.00227">
        <ele>554.33</ele>
        <time>2022-10-31T13:19:11.370Z</time>
      </trkpt>
      <trkpt lat="44.85653" lon="2.00236">
        <ele>554.36</ele>
        <time>2022-10-31T13:19:20.417Z</time>
      </trkpt>
      <trkpt lat="44.85647" lon="2.00244">
        <ele>555.35</ele>
        <time>2022-10-31T13:19:30.000Z</time>
      </trkpt>
      <trkpt lat="44.85641" lon="2.00248">
        <ele>557.33</ele>
        <time>2022-10-31T13:19:39.370Z</time>
      </trkpt>
      <trkpt lat="44.85634" lon="2.00251">
        <ele>558.35</ele>
        <time>2022-10-31T13:19:48.551Z</time>
      </trkpt>
      <trkpt lat="44.85624" lon="2.00254">
        <ele>559.28</ele>
        <time>2022-10-31T13:19:58.000Z</time>
      </trkpt>
      <trkpt lat="44.85613" lon="2.00253">
        <ele>556.35</ele>
        <time>2022-10-31T13:20:07.551Z</time>
      </trkpt>
      <trkpt lat="44.856" lon="2.00256">
        <ele>554.35</ele>
        <time>2022-10-31T13:20:16.670Z</time>
      </trkpt>
      <trkpt lat="44.85588" lon="2.00257">
        <ele>551.35</ele>
        <time>2022-10-31T13:20:27.000Z</time>
      </trkpt>
      <trkpt lat="44.85576" lon="2.00253">
        <ele>550.35</ele>
        <time>2022-10-31T13:20:36.171Z</time>
      </trkpt>
      <trkpt lat="44.85565" lon="2.0025">
        <ele>548.35</ele>
        <time>2022-10-31T13:20:45.729Z</time>
      </trkpt>
      <trkpt lat="44.85553" lon="2.00248">
        <ele>548.35</ele>
        <time>2022-10-31T13:20:55.651Z</time>
      </trkpt>
      <trkpt lat="44.85542" lon="2.00247">
        <ele>546.54</ele>
        <time>2022-10-31T13:21:05.000Z</time>
      </trkpt>
      <trkpt lat="44.85529" lon="2.00246">
        <ele>545.36</ele>
        <time>2022-10-31T13:21:14.449Z</time>
      </trkpt>
      <trkpt lat="44.85518" lon="2.00248">
        <ele>547.35</ele>
        <time>2022-10-31T13:21:23.749Z</time>
      </trkpt>
      <trkpt lat="44.85515" lon="2.00251">
        <ele>547.35</ele>
        <time>2022-10-31T13:21:33.000Z</time>
      </trkpt>
      <trkpt lat="44.85514" lon="2.00249">
        <ele>547.33</ele>
        <time>2022-10-31T13:22:07.691Z</time>
      </trkpt>
      <trkpt lat="44.85509" lon="2.0024">
        <ele>547.35</ele>
        <time>2022-10-31T13:22:17.000Z</time>
      </trkpt>
      <trkpt lat="44.85505" lon="2.00225">
        <ele>546.35</ele>
        <time>2022-10-31T13:22:26.251Z</time>
      </trkpt>
      <trkpt lat="44.85499" lon="2.0021">
        <ele>545.35</ele>
        <time>2022-10-31T13:22:35.849Z</time>
      </trkpt>
      <trkpt lat="44.85494" lon="2.00199">
        <ele>546.35</ele>
        <time>2022-10-31T13:22:45.312Z</time>
      </trkpt>
      <trkpt lat="44.85489" lon="2.00184">
        <ele>546.35</ele>
        <time>2022-10-31T13:22:54.789Z</time>
      </trkpt>
      <trkpt lat="44.85483" lon="2.00167">
        <ele>544.36</ele>
        <time>2022-10-31T13:23:04.450Z</time>
      </trkpt>
      <trkpt lat="44.85477" lon="2.00149">
        <ele>543.35</ele>
        <time>2022-10-31T13:23:13.610Z</time>
      </trkpt>
      <trkpt lat="44.85472" lon="2.00132">
        <ele>543.35</ele>
        <time>2022-10-31T13:23:23.109Z</time>
      </trkpt>
      <trkpt lat="44.85465" lon="2.00117">
        <ele>544.29</ele>
        <time>2022-10-31T13:23:32.274Z</time>
      </trkpt>
      <trkpt lat="44.85459" lon="2.001">
        <ele>544.35</ele>
        <time>2022-10-31T13:23:41.631Z</time>
      </trkpt>
      <trkpt lat="44.85454" lon="2.00085">
        <ele>543.6</ele>
        <time>2022-10-31T13:23:51.270Z</time>
      </trkpt>
      <trkpt lat="44.85449" lon="2.0007">
        <ele>545.29</ele>
        <time>2022-10-31T13:24:00.693Z</time>
      </trkpt>
      <trkpt lat="44.85445" lon="2.00054">
        <ele>544.4</ele>
        <time>2022-10-31T13:24:10.649Z</time>
      </trkpt>
      <trkpt lat="44.85443" lon="2.00038">
        <ele>544.29</ele>
        <time>2022-10-31T13:24:19.670Z</time>
      </trkpt>
      <trkpt lat="44.85442" lon="2.00023">
        <ele>543.37</ele>
        <time>2022-10-31T13:24:29.290Z</time>
      </trkpt>
      <trkpt lat="44.85444" lon="2.00009">
        <ele>543.29</ele>
        <time>2022-10-31T13:24:38.330Z</time>
      </trkpt>
      <trkpt lat="44.85445" lon="1.99995">
        <ele>542.35</ele>
        <time>2022-10-31T13:24:47.570Z</time>
      </trkpt>
      <trkpt lat="44.85447" lon="1.99979">
        <ele>542.35</ele>
        <time>2022-10-31T13:24:57.000Z</time>
      </trkpt>
      <trkpt lat="44.8545" lon="1.99962">
        <ele>542.35</ele>
        <time>2022-10-31T13:25:06.110Z</time>
      </trkpt>
      <trkpt lat="44.85454" lon="1.99946">
        <ele>541.35</ele>
        <time>2022-10-31T13:25:15.370Z</time>
      </trkpt>
      <trkpt lat="44.8546" lon="1.99932">
        <ele>539.6</ele>
        <time>2022-10-31T13:25:24.469Z</time>
      </trkpt>
      <trkpt lat="44.85465" lon="1.99921">
        <ele>538.35</ele>
        <time>2022-10-31T13:25:33.950Z</time>
      </trkpt>
      <trkpt lat="44.85471" lon="1.99912">
        <ele>538.35</ele>
        <time>2022-10-31T13:25:43.631Z</time>
      </trkpt>
      <trkpt lat="44.85476" lon="1.99903">
        <ele>537.35</ele>
        <time>2022-10-31T13:25:53.590Z</time>
      </trkpt>
      <trkpt lat="44.85484" lon="1.99889">
        <ele>538.54</ele>
        <time>2022-10-31T13:26:03.509Z</time>
      </trkpt>
      <trkpt lat="44.85493" lon="1.99874">
        <ele>538.35</ele>
        <time>2022-10-31T13:26:13.469Z</time>
      </trkpt>
      <trkpt lat="44.85497" lon="1.99865">
        <ele>537.36</ele>
        <time>2022-10-31T13:26:23.000Z</time>
      </trkpt>
      <trkpt lat="44.85504" lon="1.99853">
        <ele>536.35</ele>
        <time>2022-10-31T13:26:32.090Z</time>
      </trkpt>
      <trkpt lat="44.85511" lon="1.99838">
        <ele>536.37</ele>
        <time>2022-10-31T13:26:41.491Z</time>
      </trkpt>
      <trkpt lat="44.85521" lon="1.99825">
        <ele>537.35</ele>
        <time>2022-10-31T13:26:51.000Z</time>
      </trkpt>
      <trkpt lat="44.85528" lon="1.99809">
        <ele>537.37</ele>
        <time>2022-10-31T13:27:01.000Z</time>
      </trkpt>
      <trkpt lat="44.85533" lon="1.99791">
        <ele>536.6</ele>
        <time>2022-10-31T13:27:11.000Z</time>
      </trkpt>
      <trkpt lat="44.8554" lon="1.99775">
        <ele>536.35</ele>
        <time>2022-10-31T13:27:20.234Z</time>
      </trkpt>
      <trkpt lat="44.85541" lon="1.99772">
        <ele>536.35</ele>
        <time>2022-10-31T13:27:29.270Z</time>
      </trkpt>
      <trkpt lat="44.85547" lon="1.99758">
        <ele>535.36</ele>
        <time>2022-10-31T13:27:38.651Z</time>
      </trkpt>
      <trkpt lat="44.85551" lon="1.99745">
        <ele>534.35</ele>
        <time>2022-10-31T13:27:48.070Z</time>
      </trkpt>
      <trkpt lat="44.85556" lon="1.99731">
        <ele>534.36</ele>
        <time>2022-10-31T13:27:57.431Z</time>
      </trkpt>
      <trkpt lat="44.8556" lon="1.99718">
        <ele>533.36</ele>
        <time>2022-10-31T13:28:07.489Z</time>
      </trkpt>
      <trkpt lat="44.85562" lon="1.99704">
        <ele>534.36</ele>
        <time>2022-10-31T13:28:17.000Z</time>
      </trkpt>
      <trkpt lat="44.85567" lon="1.99687">
        <ele>534.37</ele>
        <time>2022-10-31T13:28:26.751Z</time>
      </trkpt>
      <trkpt lat="44.85569" lon="1.99676">
        <ele>534.36</ele>
        <time>2022-10-31T13:28:36.000Z</time>
      </trkpt>
      <trkpt lat="44.85571" lon="1.9966">
        <ele>534.36</ele>
        <time>2022-10-31T13:28:45.289Z</time>
      </trkpt>
      <trkpt lat="44.85572" lon="1.99648">
        <ele>534.36</ele>
        <time>2022-10-31T13:28:54.693Z</time>
      </trkpt>
      <trkpt lat="44.85574" lon="1.99633">
        <ele>538.11</ele>
        <time>2022-10-31T13:29:04.310Z</time>
      </trkpt>
      <trkpt lat="44.85576" lon="1.99618">
        <ele>538.36</ele>
        <time>2022-10-31T13:29:13.509Z</time>
      </trkpt>
      <trkpt lat="44.85576" lon="1.99603">
        <ele>539.36</ele>
        <time>2022-10-31T13:29:23.000Z</time>
      </trkpt>
      <trkpt lat="44.85573" lon="1.99588">
        <ele>538.42</ele>
        <time>2022-10-31T13:29:32.729Z</time>
      </trkpt>
      <trkpt lat="44.85571" lon="1.99574">
        <ele>541.3</ele>
        <time>2022-10-31T13:29:42.170Z</time>
      </trkpt>
      <trkpt lat="44.85568" lon="1.9956">
        <ele>542.36</ele>
        <time>2022-10-31T13:29:51.711Z</time>
      </trkpt>
      <trkpt lat="44.85567" lon="1.9955">
        <ele>542.36</ele>
        <time>2022-10-31T13:30:01.291Z</time>
      </trkpt>
      <trkpt lat="44.85562" lon="1.99533">
        <ele>545.3</ele>
        <time>2022-10-31T13:30:10.551Z</time>
      </trkpt>
      <trkpt lat="44.85558" lon="1.99517">
        <ele>545.36</ele>
        <time>2022-10-31T13:30:19.719Z</time>
      </trkpt>
      <trkpt lat="44.85557" lon="1.99502">
        <ele>547.34</ele>
        <time>2022-10-31T13:30:29.220Z</time>
      </trkpt>
      <trkpt lat="44.85557" lon="1.99493">
        <ele>545.37</ele>
        <time>2022-10-31T13:30:39.000Z</time>
      </trkpt>
      <trkpt lat="44.85557" lon="1.99486">
        <ele>542.36</ele>
        <time>2022-10-31T13:30:49.000Z</time>
      </trkpt>
      <trkpt lat="44.85557" lon="1.99483">
        <ele>541.38</ele>
        <time>2022-10-31T13:30:59.000Z</time>
      </trkpt>
      <trkpt lat="44.85557" lon="1.99478">
        <ele>541.36</ele>
        <time>2022-10-31T13:31:08.209Z</time>
      </trkpt>
      <trkpt lat="44.8556" lon="1.99464">
        <ele>540.42</ele>
        <time>2022-10-31T13:31:17.630Z</time>
      </trkpt>
      <trkpt lat="44.85564" lon="1.99449">
        <ele>540.36</ele>
        <time>2022-10-31T13:31:27.070Z</time>
      </trkpt>
      <trkpt lat="44.85573" lon="1.99439">
        <ele>542.36</ele>
        <time>2022-10-31T13:31:36.449Z</time>
      </trkpt>
      <trkpt lat="44.85582" lon="1.99433">
        <ele>544.36</ele>
        <time>2022-10-31T13:31:45.491Z</time>
      </trkpt>
      <trkpt lat="44.85586" lon="1.99431">
        <ele>546.3</ele>
        <time>2022-10-31T13:31:54.651Z</time>
      </trkpt>
      <trkpt lat="44.85593" lon="1.99423">
        <ele>546.17</ele>
        <time>2022-10-31T13:32:04.750Z</time>
      </trkpt>
      <trkpt lat="44.85596" lon="1.99418">
        <ele>547.36</ele>
        <time>2022-10-31T13:32:14.111Z</time>
      </trkpt>
      <trkpt lat="44.856" lon="1.99406">
        <ele>549.3</ele>
        <time>2022-10-31T13:32:23.230Z</time>
      </trkpt>
      <trkpt lat="44.85601" lon="1.99397">
        <ele>551.35</ele>
        <time>2022-10-31T13:32:32.529Z</time>
      </trkpt>
      <trkpt lat="44.85601" lon="1.99379">
        <ele>553.17</ele>
        <time>2022-10-31T13:32:42.000Z</time>
      </trkpt>
      <trkpt lat="44.85601" lon="1.99364">
        <ele>553.36</ele>
        <time>2022-10-31T13:32:51.729Z</time>
      </trkpt>
      <trkpt lat="44.856" lon="1.99352">
        <ele>553.36</ele>
        <time>2022-10-31T13:33:01.000Z</time>
      </trkpt>
      <trkpt lat="44.85597" lon="1.99341">
        <ele>554.11</ele>
        <time>2022-10-31T13:33:10.031Z</time>
      </trkpt>
      <trkpt lat="44.85593" lon="1.99325">
        <ele>553.36</ele>
        <time>2022-10-31T13:33:19.250Z</time>
      </trkpt>
      <trkpt lat="44.85592" lon="1.9932">
        <ele>552.3</ele>
        <time>2022-10-31T13:33:29.000Z</time>
      </trkpt>
      <trkpt lat="44.85593" lon="1.99318">
        <ele>551.42</ele>
        <time>2022-10-31T13:33:39.000Z</time>
      </trkpt>
      <trkpt lat="44.85592" lon="1.99316">
        <ele>551.36</ele>
        <time>2022-10-31T13:33:49.000Z</time>
      </trkpt>
      <trkpt lat="44.85592" lon="1.99314">
        <ele>551.36</ele>
        <time>2022-10-31T13:34:04.550Z</time>
      </trkpt>
      <trkpt lat="44.85584" lon="1.99305">
        <ele>552.36</ele>
        <time>2022-10-31T13:34:14.529Z</time>
      </trkpt>
      <trkpt lat="44.85576" lon="1.99296">
        <ele>552.36</ele>
        <time>2022-10-31T13:34:24.000Z</time>
      </trkpt>
      <trkpt lat="44.85572" lon="1.99291">
        <ele>552.36</ele>
        <time>2022-10-31T13:34:34.000Z</time>
      </trkpt>
      <trkpt lat="44.85567" lon="1.99284">
        <ele>550.37</ele>
        <time>2022-10-31T13:34:43.034Z</time>
      </trkpt>
      <trkpt lat="44.8556" lon="1.99278">
        <ele>549.36</ele>
        <time>2022-10-31T13:34:52.430Z</time>
      </trkpt>
      <trkpt lat="44.85554" lon="1.99269">
        <ele>548.36</ele>
        <time>2022-10-31T13:35:01.571Z</time>
      </trkpt>
      <trkpt lat="44.85547" lon="1.99261">
        <ele>549.3</ele>
        <time>2022-10-31T13:35:11.000Z</time>
      </trkpt>
      <trkpt lat="44.8554" lon="1.99254">
        <ele>547.63</ele>
        <time>2022-10-31T13:35:20.251Z</time>
      </trkpt>
      <trkpt lat="44.85533" lon="1.99249">
        <ele>546.61</ele>
        <time>2022-10-31T13:35:29.289Z</time>
      </trkpt>
      <trkpt lat="44.85528" lon="1.99245">
        <ele>546.3</ele>
        <time>2022-10-31T13:35:38.631Z</time>
      </trkpt>
      <trkpt lat="44.85519" lon="1.9924">
        <ele>545.38</ele>
        <time>2022-10-31T13:35:47.699Z</time>
      </trkpt>
      <trkpt lat="44.85513" lon="1.99236">
        <ele>543.36</ele>
        <time>2022-10-31T13:35:57.000Z</time>
      </trkpt>
      <trkpt lat="44.85509" lon="1.99232">
        <ele>544.35</ele>
        <time>2022-10-31T13:36:06.309Z</time>
      </trkpt>
      <trkpt lat="44.85505" lon="1.99229">
        <ele>544.36</ele>
        <time>2022-10-31T13:36:16.000Z</time>
      </trkpt>
      <trkpt lat="44.85504" lon="1.99229">
        <ele>543.37</ele>
        <time>2022-10-31T13:36:25.111Z</time>
      </trkpt>
      <trkpt lat="44.85497" lon="1.99227">
        <ele>541.43</ele>
        <time>2022-10-31T13:36:34.452Z</time>
      </trkpt>
      <trkpt lat="44.85487" lon="1.99226">
        <ele>543.36</ele>
        <time>2022-10-31T13:36:44.000Z</time>
      </trkpt>
      <trkpt lat="44.85484" lon="1.99225">
        <ele>542.43</ele>
        <time>2022-10-31T13:36:53.429Z</time>
      </trkpt>
      <trkpt lat="44.85478" lon="1.99223">
        <ele>543.61</ele>
        <time>2022-10-31T13:37:03.000Z</time>
      </trkpt>
      <trkpt lat="44.8547" lon="1.99218">
        <ele>543.35</ele>
        <time>2022-10-31T13:37:12.450Z</time>
      </trkpt>
      <trkpt lat="44.85461" lon="1.99214">
        <ele>543.36</ele>
        <time>2022-10-31T13:37:21.471Z</time>
      </trkpt>
      <trkpt lat="44.85457" lon="1.99212">
        <ele>544.36</ele>
        <time>2022-10-31T13:37:30.489Z</time>
      </trkpt>
      <trkpt lat="44.8545" lon="1.99209">
        <ele>544.36</ele>
        <time>2022-10-31T13:37:40.000Z</time>
      </trkpt>
      <trkpt lat="44.85441" lon="1.99209">
        <ele>541.38</ele>
        <time>2022-10-31T13:37:49.170Z</time>
      </trkpt>
      <trkpt lat="44.8543" lon="1.99207">
        <ele>540.43</ele>
        <time>2022-10-31T13:37:58.229Z</time>
      </trkpt>
      <trkpt lat="44.85421" lon="1.99194">
        <ele>538.37</ele>
        <time>2022-10-31T13:38:07.370Z</time>
      </trkpt>
      <trkpt lat="44.8542" lon="1.9918">
        <ele>535.44</ele>
        <time>2022-10-31T13:38:16.421Z</time>
      </trkpt>
      <trkpt lat="44.8542" lon="1.99166">
        <ele>532.38</ele>
        <time>2022-10-31T13:38:25.680Z</time>
      </trkpt>
      <trkpt lat="44.85423" lon="1.99154">
        <ele>532.38</ele>
        <time>2022-10-31T13:38:35.130Z</time>
      </trkpt>
      <trkpt lat="44.85427" lon="1.99141">
        <ele>530.37</ele>
        <time>2022-10-31T13:38:44.569Z</time>
      </trkpt>
      <trkpt lat="44.85432" lon="1.99124">
        <ele>528.37</ele>
        <time>2022-10-31T13:38:54.130Z</time>
      </trkpt>
      <trkpt lat="44.85433" lon="1.99112">
        <ele>528.13</ele>
        <time>2022-10-31T13:39:03.290Z</time>
      </trkpt>
      <trkpt lat="44.85434" lon="1.99095">
        <ele>527.37</ele>
        <time>2022-10-31T13:39:12.730Z</time>
      </trkpt>
      <trkpt lat="44.85433" lon="1.99077">
        <ele>527.35</ele>
        <time>2022-10-31T13:39:22.739Z</time>
      </trkpt>
      <trkpt lat="44.85431" lon="1.99063">
        <ele>528.37</ele>
        <time>2022-10-31T13:39:32.509Z</time>
      </trkpt>
      <trkpt lat="44.85428" lon="1.99049">
        <ele>528.37</ele>
        <time>2022-10-31T13:39:41.709Z</time>
      </trkpt>
      <trkpt lat="44.85425" lon="1.9904">
        <ele>527.37</ele>
        <time>2022-10-31T13:39:51.000Z</time>
      </trkpt>
      <trkpt lat="44.85417" lon="1.99027">
        <ele>526.35</ele>
        <time>2022-10-31T13:40:00.491Z</time>
      </trkpt>
      <trkpt lat="44.85411" lon="1.99017">
        <ele>527.31</ele>
        <time>2022-10-31T13:40:09.591Z</time>
      </trkpt>
      <trkpt lat="44.85407" lon="1.99004">
        <ele>527.13</ele>
        <time>2022-10-31T13:40:18.740Z</time>
      </trkpt>
      <trkpt lat="44.85402" lon="1.98993">
        <ele>524.62</ele>
        <time>2022-10-31T13:40:28.000Z</time>
      </trkpt>
      <trkpt lat="44.85399" lon="1.98981">
        <ele>527.36</ele>
        <time>2022-10-31T13:40:37.550Z</time>
      </trkpt>
      <trkpt lat="44.85395" lon="1.98966">
        <ele>528.12</ele>
        <time>2022-10-31T13:40:46.939Z</time>
      </trkpt>
      <trkpt lat="44.85394" lon="1.98953">
        <ele>531.36</ele>
        <time>2022-10-31T13:40:56.000Z</time>
      </trkpt>
      <trkpt lat="44.8539" lon="1.98935">
        <ele>527.37</ele>
        <time>2022-10-31T13:41:06.000Z</time>
      </trkpt>
      <trkpt lat="44.85385" lon="1.98922">
        <ele>526.39</ele>
        <time>2022-10-31T13:41:15.650Z</time>
      </trkpt>
      <trkpt lat="44.85382" lon="1.98918">
        <ele>525.43</ele>
        <time>2022-10-31T13:41:25.000Z</time>
      </trkpt>
      <trkpt lat="44.85376" lon="1.98911">
        <ele>525.37</ele>
        <time>2022-10-31T13:41:34.310Z</time>
      </trkpt>
      <trkpt lat="44.85369" lon="1.98908">
        <ele>525.37</ele>
        <time>2022-10-31T13:41:43.389Z</time>
      </trkpt>
      <trkpt lat="44.85363" lon="1.98909">
        <ele>524.31</ele>
        <time>2022-10-31T13:41:52.549Z</time>
      </trkpt>
      <trkpt lat="44.85357" lon="1.98909">
        <ele>525.37</ele>
        <time>2022-10-31T13:42:02.729Z</time>
      </trkpt>
      <trkpt lat="44.85347" lon="1.9891">
        <ele>525.37</ele>
        <time>2022-10-31T13:42:12.000Z</time>
      </trkpt>
      <trkpt lat="44.85338" lon="1.98914">
        <ele>524.37</ele>
        <time>2022-10-31T13:42:21.070Z</time>
      </trkpt>
      <trkpt lat="44.85328" lon="1.98919">
        <ele>523.37</ele>
        <time>2022-10-31T13:42:30.309Z</time>
      </trkpt>
      <trkpt lat="44.85323" lon="1.98922">
        <ele>523.62</ele>
        <time>2022-10-31T13:42:39.549Z</time>
      </trkpt>
      <trkpt lat="44.85316" lon="1.98927">
        <ele>522.37</ele>
        <time>2022-10-31T13:42:49.469Z</time>
      </trkpt>
      <trkpt lat="44.85304" lon="1.98929">
        <ele>521.37</ele>
        <time>2022-10-31T13:42:59.411Z</time>
      </trkpt>
      <trkpt lat="44.85292" lon="1.98924">
        <ele>519.37</ele>
        <time>2022-10-31T13:43:08.671Z</time>
      </trkpt>
      <trkpt lat="44.85285" lon="1.98913">
        <ele>518.31</ele>
        <time>2022-10-31T13:43:17.739Z</time>
      </trkpt>
      <trkpt lat="44.85284" lon="1.98905">
        <ele>514.37</ele>
        <time>2022-10-31T13:43:27.310Z</time>
      </trkpt>
      <trkpt lat="44.85281" lon="1.98892">
        <ele>507.45</ele>
        <time>2022-10-31T13:43:37.000Z</time>
      </trkpt>
      <trkpt lat="44.8528" lon="1.98892">
        <ele>508.37</ele>
        <time>2022-10-31T13:43:51.000Z</time>
      </trkpt>
      <trkpt lat="44.85276" lon="1.989">
        <ele>508.37</ele>
        <time>2022-10-31T13:44:00.470Z</time>
      </trkpt>
      <trkpt lat="44.85272" lon="1.98913">
        <ele>506.68</ele>
        <time>2022-10-31T13:44:10.000Z</time>
      </trkpt>
      <trkpt lat="44.85268" lon="1.98916">
        <ele>506.37</ele>
        <time>2022-10-31T13:44:20.000Z</time>
      </trkpt>
      <trkpt lat="44.85268" lon="1.98921">
        <ele>504.42</ele>
        <time>2022-10-31T13:44:29.311Z</time>
      </trkpt>
      <trkpt lat="44.85264" lon="1.98933">
        <ele>503.62</ele>
        <time>2022-10-31T13:44:39.000Z</time>
      </trkpt>
      <trkpt lat="44.85259" lon="1.98943">
        <ele>502.37</ele>
        <time>2022-10-31T13:44:48.189Z</time>
      </trkpt>
      <trkpt lat="44.85255" lon="1.98954">
        <ele>501.37</ele>
        <time>2022-10-31T13:44:57.590Z</time>
      </trkpt>
      <trkpt lat="44.85251" lon="1.98969">
        <ele>501.37</ele>
        <time>2022-10-31T13:45:06.710Z</time>
      </trkpt>
      <trkpt lat="44.85242" lon="1.98978">
        <ele>502.37</ele>
        <time>2022-10-31T13:45:16.169Z</time>
      </trkpt>
      <trkpt lat="44.85236" lon="1.98983">
        <ele>502.37</ele>
        <time>2022-10-31T13:45:26.000Z</time>
      </trkpt>
      <trkpt lat="44.85235" lon="1.98983">
        <ele>501.62</ele>
        <time>2022-10-31T13:45:50.000Z</time>
      </trkpt>
      <trkpt lat="44.85226" lon="1.9898">
        <ele>503.12</ele>
        <time>2022-10-31T13:45:59.459Z</time>
      </trkpt>
      <trkpt lat="44.85218" lon="1.98971">
        <ele>503.45</ele>
        <time>2022-10-31T13:46:08.531Z</time>
      </trkpt>
      <trkpt lat="44.85212" lon="1.98968">
        <ele>504.18</ele>
        <time>2022-10-31T13:46:18.050Z</time>
      </trkpt>
      <trkpt lat="44.85206" lon="1.98957">
        <ele>505.42</ele>
        <time>2022-10-31T13:46:27.549Z</time>
      </trkpt>
      <trkpt lat="44.85201" lon="1.98945">
        <ele>506.37</ele>
        <time>2022-10-31T13:46:37.000Z</time>
      </trkpt>
      <trkpt lat="44.85198" lon="1.98936">
        <ele>507.12</ele>
        <time>2022-10-31T13:46:47.000Z</time>
      </trkpt>
      <trkpt lat="44.85197" lon="1.98934">
        <ele>507.37</ele>
        <time>2022-10-31T13:46:57.000Z</time>
      </trkpt>
      <trkpt lat="44.85197" lon="1.98934">
        <ele>508.37</ele>
        <time>2022-10-31T13:47:21.690Z</time>
      </trkpt>
      <trkpt lat="44.85195" lon="1.98937">
        <ele>510.37</ele>
        <time>2022-10-31T13:47:30.729Z</time>
      </trkpt>
      <trkpt lat="44.8519" lon="1.98946">
        <ele>511.37</ele>
        <time>2022-10-31T13:47:40.000Z</time>
      </trkpt>
      <trkpt lat="44.85187" lon="1.98954">
        <ele>515.12</ele>
        <time>2022-10-31T13:47:50.000Z</time>
      </trkpt>
      <trkpt lat="44.85183" lon="1.98963">
        <ele>517.37</ele>
        <time>2022-10-31T13:48:00.000Z</time>
      </trkpt>
      <trkpt lat="44.85182" lon="1.98972">
        <ele>516.62</ele>
        <time>2022-10-31T13:48:09.489Z</time>
      </trkpt>
      <trkpt lat="44.85182" lon="1.98993">
        <ele>512.39</ele>
        <time>2022-10-31T13:48:18.849Z</time>
      </trkpt>
      <trkpt lat="44.8518" lon="1.99011">
        <ele>511.38</ele>
        <time>2022-10-31T13:48:28.170Z</time>
      </trkpt>
      <trkpt lat="44.85175" lon="1.99024">
        <ele>512.37</ele>
        <time>2022-10-31T13:48:37.591Z</time>
      </trkpt>
      <trkpt lat="44.85169" lon="1.99029">
        <ele>512.37</ele>
        <time>2022-10-31T13:48:47.196Z</time>
      </trkpt>
      <trkpt lat="44.8516" lon="1.99038">
        <ele>513.37</ele>
        <time>2022-10-31T13:48:56.693Z</time>
      </trkpt>
      <trkpt lat="44.85152" lon="1.99044">
        <ele>515.12</ele>
        <time>2022-10-31T13:49:07.000Z</time>
      </trkpt>
      <trkpt lat="44.85146" lon="1.99046">
        <ele>517.12</ele>
        <time>2022-10-31T13:49:16.189Z</time>
      </trkpt>
      <trkpt lat="44.85138" lon="1.99047">
        <ele>516.43</ele>
        <time>2022-10-31T13:49:25.410Z</time>
      </trkpt>
      <trkpt lat="44.85134" lon="1.99046">
        <ele>514.62</ele>
        <time>2022-10-31T13:49:34.458Z</time>
      </trkpt>
      <trkpt lat="44.8512" lon="1.99046">
        <ele>513.37</ele>
        <time>2022-10-31T13:49:44.531Z</time>
      </trkpt>
      <trkpt lat="44.85109" lon="1.99046">
        <ele>512.36</ele>
        <time>2022-10-31T13:49:53.591Z</time>
      </trkpt>
      <trkpt lat="44.85101" lon="1.99046">
        <ele>511.37</ele>
        <time>2022-10-31T13:50:02.630Z</time>
      </trkpt>
      <trkpt lat="44.8509" lon="1.99045">
        <ele>510.37</ele>
        <time>2022-10-31T13:50:11.721Z</time>
      </trkpt>
      <trkpt lat="44.85077" lon="1.99042">
        <ele>509.37</ele>
        <time>2022-10-31T13:50:21.092Z</time>
      </trkpt>
      <trkpt lat="44.85066" lon="1.99038">
        <ele>509.12</ele>
        <time>2022-10-31T13:50:30.519Z</time>
      </trkpt>
      <trkpt lat="44.85059" lon="1.99031">
        <ele>506.38</ele>
        <time>2022-10-31T13:50:40.448Z</time>
      </trkpt>
      <trkpt lat="44.85051" lon="1.99017">
        <ele>501.62</ele>
        <time>2022-10-31T13:50:50.010Z</time>
      </trkpt>
      <trkpt lat="44.85051" lon="1.99004">
        <ele>497.68</ele>
        <time>2022-10-31T13:50:59.458Z</time>
      </trkpt>
      <trkpt lat="44.8505" lon="1.98987">
        <ele>496.62</ele>
        <time>2022-10-31T13:51:09.570Z</time>
      </trkpt>
      <trkpt lat="44.85049" lon="1.98975">
        <ele>495.37</ele>
        <time>2022-10-31T13:51:18.719Z</time>
      </trkpt>
      <trkpt lat="44.85048" lon="1.98957">
        <ele>494.37</ele>
        <time>2022-10-31T13:51:27.739Z</time>
      </trkpt>
      <trkpt lat="44.85047" lon="1.98943">
        <ele>494.37</ele>
        <time>2022-10-31T13:51:36.930Z</time>
      </trkpt>
      <trkpt lat="44.85047" lon="1.9893">
        <ele>493.39</ele>
        <time>2022-10-31T13:51:46.171Z</time>
      </trkpt>
      <trkpt lat="44.85047" lon="1.98916">
        <ele>491.37</ele>
        <time>2022-10-31T13:51:55.210Z</time>
      </trkpt>
      <trkpt lat="44.85049" lon="1.98903">
        <ele>490.37</ele>
        <time>2022-10-31T13:52:04.390Z</time>
      </trkpt>
      <trkpt lat="44.85047" lon="1.9889">
        <ele>492.37</ele>
        <time>2022-10-31T13:52:13.729Z</time>
      </trkpt>
      <trkpt lat="44.85045" lon="1.98877">
        <ele>489.43</ele>
        <time>2022-10-31T13:52:22.930Z</time>
      </trkpt>
      <trkpt lat="44.8504" lon="1.98866">
        <ele>489.62</ele>
        <time>2022-10-31T13:52:32.531Z</time>
      </trkpt>
      <trkpt lat="44.85036" lon="1.98853">
        <ele>489.37</ele>
        <time>2022-10-31T13:52:42.570Z</time>
      </trkpt>
      <trkpt lat="44.85029" lon="1.98841">
        <ele>488.31</ele>
        <time>2022-10-31T13:52:51.870Z</time>
      </trkpt>
      <trkpt lat="44.85021" lon="1.98832">
        <ele>487.38</ele>
        <time>2022-10-31T13:53:01.000Z</time>
      </trkpt>
      <trkpt lat="44.85018" lon="1.98822">
        <ele>486.33</ele>
        <time>2022-10-31T13:53:10.333Z</time>
      </trkpt>
      <trkpt lat="44.85017" lon="1.98812">
        <ele>485.12</ele>
        <time>2022-10-31T13:53:20.000Z</time>
      </trkpt>
      <trkpt lat="44.85017" lon="1.98796">
        <ele>482.62</ele>
        <time>2022-10-31T13:53:29.531Z</time>
      </trkpt>
      <trkpt lat="44.85018" lon="1.98787">
        <ele>482.37</ele>
        <time>2022-10-31T13:53:39.000Z</time>
      </trkpt>
      <trkpt lat="44.8502" lon="1.98779">
        <ele>481.44</ele>
        <time>2022-10-31T13:53:48.510Z</time>
      </trkpt>
      <trkpt lat="44.85028" lon="1.9877">
        <ele>482.37</ele>
        <time>2022-10-31T13:53:58.590Z</time>
      </trkpt>
      <trkpt lat="44.85037" lon="1.98762">
        <ele>481.62</ele>
        <time>2022-10-31T13:54:08.052Z</time>
      </trkpt>
      <trkpt lat="44.85047" lon="1.98756">
        <ele>480.39</ele>
        <time>2022-10-31T13:54:17.570Z</time>
      </trkpt>
      <trkpt lat="44.85058" lon="1.9875">
        <ele>479.37</ele>
        <time>2022-10-31T13:54:26.591Z</time>
      </trkpt>
      <trkpt lat="44.85065" lon="1.98748">
        <ele>478.43</ele>
        <time>2022-10-31T13:54:35.629Z</time>
      </trkpt>
      <trkpt lat="44.85075" lon="1.98741">
        <ele>479.31</ele>
        <time>2022-10-31T13:54:45.330Z</time>
      </trkpt>
      <trkpt lat="44.85081" lon="1.98737">
        <ele>480.34</ele>
        <time>2022-10-31T13:54:54.459Z</time>
      </trkpt>
      <trkpt lat="44.85093" lon="1.98731">
        <ele>479.38</ele>
        <time>2022-10-31T13:55:03.691Z</time>
      </trkpt>
      <trkpt lat="44.85103" lon="1.98726">
        <ele>479.14</ele>
        <time>2022-10-31T13:55:13.000Z</time>
      </trkpt>
      <trkpt lat="44.85114" lon="1.98724">
        <ele>478.39</ele>
        <time>2022-10-31T13:55:22.549Z</time>
      </trkpt>
      <trkpt lat="44.85125" lon="1.98725">
        <ele>479.37</ele>
        <time>2022-10-31T13:55:32.467Z</time>
      </trkpt>
      <trkpt lat="44.85132" lon="1.98724">
        <ele>480.37</ele>
        <time>2022-10-31T13:55:41.729Z</time>
      </trkpt>
      <trkpt lat="44.85133" lon="1.98725">
        <ele>477.63</ele>
        <time>2022-10-31T13:55:51.000Z</time>
      </trkpt>
      <trkpt lat="44.85137" lon="1.98725">
        <ele>476.37</ele>
        <time>2022-10-31T13:56:00.150Z</time>
      </trkpt>
      <trkpt lat="44.85137" lon="1.98724">
        <ele>471.37</ele>
        <time>2022-10-31T13:56:13.000Z</time>
      </trkpt>
      <trkpt lat="44.85134" lon="1.98722">
        <ele>470.37</ele>
        <time>2022-10-31T13:56:23.000Z</time>
      </trkpt>
      <trkpt lat="44.85132" lon="1.98722">
        <ele>468.37</ele>
        <time>2022-10-31T13:56:33.000Z</time>
      </trkpt>
      <trkpt lat="44.85131" lon="1.98723">
        <ele>468.32</ele>
        <time>2022-10-31T13:56:59.000Z</time>
      </trkpt>
      <trkpt lat="44.85129" lon="1.98724">
        <ele>469.37</ele>
        <time>2022-10-31T13:57:09.000Z</time>
      </trkpt>
      <trkpt lat="44.85129" lon="1.98727">
        <ele>468.37</ele>
        <time>2022-10-31T13:57:19.000Z</time>
      </trkpt>
      <trkpt lat="44.8513" lon="1.98727">
        <ele>469.31</ele>
        <time>2022-10-31T13:57:32.000Z</time>
      </trkpt>
      <trkpt lat="44.85129" lon="1.98727">
        <ele>466.5</ele>
        <time>2022-10-31T13:57:44.411Z</time>
      </trkpt>
      <trkpt lat="44.85122" lon="1.98718">
        <ele>465.44</ele>
        <time>2022-10-31T13:57:53.459Z</time>
      </trkpt>
      <trkpt lat="44.85116" lon="1.98715">
        <ele>465.37</ele>
        <time>2022-10-31T13:58:02.739Z</time>
      </trkpt>
      <trkpt lat="44.8511" lon="1.98712">
        <ele>465.31</ele>
        <time>2022-10-31T13:58:12.111Z</time>
      </trkpt>
      <trkpt lat="44.85106" lon="1.98712">
        <ele>465.39</ele>
        <time>2022-10-31T13:58:21.270Z</time>
      </trkpt>
      <trkpt lat="44.851" lon="1.98712">
        <ele>465.37</ele>
        <time>2022-10-31T13:58:30.395Z</time>
      </trkpt>
      <trkpt lat="44.85094" lon="1.98709">
        <ele>466.37</ele>
        <time>2022-10-31T13:58:39.459Z</time>
      </trkpt>
      <trkpt lat="44.85083" lon="1.98707">
        <ele>465.39</ele>
        <time>2022-10-31T13:58:49.000Z</time>
      </trkpt>
      <trkpt lat="44.85073" lon="1.98702">
        <ele>465.37</ele>
        <time>2022-10-31T13:58:58.569Z</time>
      </trkpt>
      <trkpt lat="44.85065" lon="1.98697">
        <ele>467.37</ele>
        <time>2022-10-31T13:59:07.630Z</time>
      </trkpt>
      <trkpt lat="44.8505" lon="1.9869">
        <ele>465.38</ele>
        <time>2022-10-31T13:59:17.210Z</time>
      </trkpt>
      <trkpt lat="44.85042" lon="1.98685">
        <ele>464.38</ele>
        <time>2022-10-31T13:59:26.630Z</time>
      </trkpt>
      <trkpt lat="44.85029" lon="1.98679">
        <ele>462.38</ele>
        <time>2022-10-31T13:59:36.031Z</time>
      </trkpt>
      <trkpt lat="44.85018" lon="1.98678">
        <ele>459.44</ele>
        <time>2022-10-31T13:59:45.270Z</time>
      </trkpt>
      <trkpt lat="44.85011" lon="1.98674">
        <ele>459.44</ele>
        <time>2022-10-31T13:59:54.471Z</time>
      </trkpt>
      <trkpt lat="44.85005" lon="1.98672">
        <ele>458.33</ele>
        <time>2022-10-31T14:00:04.000Z</time>
      </trkpt>
      <trkpt lat="44.84992" lon="1.98677">
        <ele>456.38</ele>
        <time>2022-10-31T14:00:13.412Z</time>
      </trkpt>
      <trkpt lat="44.84985" lon="1.98685">
        <ele>454.44</ele>
        <time>2022-10-31T14:00:23.000Z</time>
      </trkpt>
      <trkpt lat="44.84978" lon="1.98697">
        <ele>454.38</ele>
        <time>2022-10-31T14:00:32.251Z</time>
      </trkpt>
      <trkpt lat="44.84971" lon="1.98703">
        <ele>451.44</ele>
        <time>2022-10-31T14:00:42.000Z</time>
      </trkpt>
      <trkpt lat="44.84961" lon="1.98714">
        <ele>451.37</ele>
        <time>2022-10-31T14:00:51.169Z</time>
      </trkpt>
      <trkpt lat="44.84952" lon="1.98721">
        <ele>451.37</ele>
        <time>2022-10-31T14:01:00.630Z</time>
      </trkpt>
      <trkpt lat="44.84945" lon="1.98729">
        <ele>451.18</ele>
        <time>2022-10-31T14:01:10.000Z</time>
      </trkpt>
      <trkpt lat="44.84934" lon="1.98739">
        <ele>449.44</ele>
        <time>2022-10-31T14:01:19.391Z</time>
      </trkpt>
      <trkpt lat="44.84927" lon="1.98748">
        <ele>448.38</ele>
        <time>2022-10-31T14:01:28.590Z</time>
      </trkpt>
      <trkpt lat="44.84922" lon="1.98758">
        <ele>447.37</ele>
        <time>2022-10-31T14:01:37.710Z</time>
      </trkpt>
      <trkpt lat="44.84917" lon="1.9877">
        <ele>445.57</ele>
        <time>2022-10-31T14:01:47.000Z</time>
      </trkpt>
      <trkpt lat="44.84912" lon="1.98781">
        <ele>443.39</ele>
        <time>2022-10-31T14:01:56.411Z</time>
      </trkpt>
      <trkpt lat="44.84909" lon="1.98789">
        <ele>443.37</ele>
        <time>2022-10-31T14:02:06.469Z</time>
      </trkpt>
      <trkpt lat="44.84903" lon="1.98799">
        <ele>441.38</ele>
        <time>2022-10-31T14:02:15.670Z</time>
      </trkpt>
      <trkpt lat="44.84895" lon="1.98813">
        <ele>437.45</ele>
        <time>2022-10-31T14:02:26.000Z</time>
      </trkpt>
      <trkpt lat="44.84894" lon="1.98818">
        <ele>435.38</ele>
        <time>2022-10-31T14:02:36.000Z</time>
      </trkpt>
      <trkpt lat="44.84893" lon="1.98819">
        <ele>435.37</ele>
        <time>2022-10-31T14:02:46.000Z</time>
      </trkpt>
      <trkpt lat="44.84893" lon="1.98825">
        <ele>436.36</ele>
        <time>2022-10-31T14:02:55.549Z</time>
      </trkpt>
      <trkpt lat="44.8489" lon="1.98833">
        <ele>437.36</ele>
        <time>2022-10-31T14:03:05.070Z</time>
      </trkpt>
      <trkpt lat="44.84887" lon="1.98842">
        <ele>442.37</ele>
        <time>2022-10-31T14:03:14.589Z</time>
      </trkpt>
      <trkpt lat="44.84885" lon="1.98852">
        <ele>445.12</ele>
        <time>2022-10-31T14:03:24.000Z</time>
      </trkpt>
      <trkpt lat="44.8488" lon="1.98865">
        <ele>445.37</ele>
        <time>2022-10-31T14:03:33.456Z</time>
      </trkpt>
      <trkpt lat="44.84871" lon="1.98871">
        <ele>446.37</ele>
        <time>2022-10-31T14:03:42.519Z</time>
      </trkpt>
      <trkpt lat="44.84864" lon="1.98881">
        <ele>445.38</ele>
        <time>2022-10-31T14:03:52.190Z</time>
      </trkpt>
      <trkpt lat="44.84858" lon="1.98889">
        <ele>443.39</ele>
        <time>2022-10-31T14:04:01.491Z</time>
      </trkpt>
      <trkpt lat="44.84852" lon="1.98894">
        <ele>442.39</ele>
        <time>2022-10-31T14:04:10.709Z</time>
      </trkpt>
      <trkpt lat="44.84844" lon="1.98898">
        <ele>440.37</ele>
        <time>2022-10-31T14:04:20.000Z</time>
      </trkpt>
      <trkpt lat="44.84838" lon="1.98899">
        <ele>438.39</ele>
        <time>2022-10-31T14:04:29.629Z</time>
      </trkpt>
      <trkpt lat="44.84833" lon="1.98897">
        <ele>437.38</ele>
        <time>2022-10-31T14:04:39.031Z</time>
      </trkpt>
      <trkpt lat="44.84826" lon="1.98893">
        <ele>436.37</ele>
        <time>2022-10-31T14:04:48.350Z</time>
      </trkpt>
      <trkpt lat="44.8482" lon="1.98891">
        <ele>436.37</ele>
        <time>2022-10-31T14:04:58.000Z</time>
      </trkpt>
      <trkpt lat="44.84812" lon="1.98888">
        <ele>432.62</ele>
        <time>2022-10-31T14:05:07.190Z</time>
      </trkpt>
      <trkpt lat="44.84806" lon="1.98885">
        <ele>432.37</ele>
        <time>2022-10-31T14:05:17.000Z</time>
      </trkpt>
      <trkpt lat="44.84796" lon="1.98877">
        <ele>430.39</ele>
        <time>2022-10-31T14:05:26.290Z</time>
      </trkpt>
      <trkpt lat="44.84788" lon="1.98874">
        <ele>430.37</ele>
        <time>2022-10-31T14:05:35.411Z</time>
      </trkpt>
      <trkpt lat="44.84782" lon="1.98873">
        <ele>428.37</ele>
        <time>2022-10-31T14:05:44.590Z</time>
      </trkpt>
      <trkpt lat="44.84774" lon="1.98872">
        <ele>425.44</ele>
        <time>2022-10-31T14:05:53.670Z</time>
      </trkpt>
      <trkpt lat="44.84769" lon="1.98871">
        <ele>424.62</ele>
        <time>2022-10-31T14:06:03.190Z</time>
      </trkpt>
      <trkpt lat="44.84763" lon="1.9887">
        <ele>420.44</ele>
        <time>2022-10-31T14:06:12.290Z</time>
      </trkpt>
      <trkpt lat="44.84762" lon="1.98861">
        <ele>420.43</ele>
        <time>2022-10-31T14:06:22.000Z</time>
      </trkpt>
      <trkpt lat="44.84764" lon="1.9885">
        <ele>419.37</ele>
        <time>2022-10-31T14:06:31.609Z</time>
      </trkpt>
      <trkpt lat="44.84767" lon="1.98846">
        <ele>418.44</ele>
        <time>2022-10-31T14:06:40.629Z</time>
      </trkpt>
      <trkpt lat="44.84772" lon="1.98838">
        <ele>417.37</ele>
        <time>2022-10-31T14:06:50.000Z</time>
      </trkpt>
      <trkpt lat="44.8478" lon="1.98833">
        <ele>415.62</ele>
        <time>2022-10-31T14:06:59.171Z</time>
      </trkpt>
      <trkpt lat="44.84786" lon="1.98827">
        <ele>414.38</ele>
        <time>2022-10-31T14:07:09.000Z</time>
      </trkpt>
      <trkpt lat="44.84792" lon="1.98821">
        <ele>413.37</ele>
        <time>2022-10-31T14:07:18.549Z</time>
      </trkpt>
      <trkpt lat="44.84793" lon="1.98821">
        <ele>412.62</ele>
        <time>2022-10-31T14:07:29.000Z</time>
      </trkpt>
      <trkpt lat="44.84792" lon="1.98819">
        <ele>411.44</ele>
        <time>2022-10-31T14:07:41.950Z</time>
      </trkpt>
      <trkpt lat="44.8479" lon="1.98815">
        <ele>411.37</ele>
        <time>2022-10-31T14:07:51.349Z</time>
      </trkpt>
      <trkpt lat="44.84784" lon="1.98813">
        <ele>408.37</ele>
        <time>2022-10-31T14:08:01.000Z</time>
      </trkpt>
      <trkpt lat="44.84776" lon="1.98814">
        <ele>405.44</ele>
        <time>2022-10-31T14:08:10.467Z</time>
      </trkpt>
      <trkpt lat="44.84767" lon="1.98814">
        <ele>404.38</ele>
        <time>2022-10-31T14:08:19.709Z</time>
      </trkpt>
      <trkpt lat="44.84761" lon="1.98814">
        <ele>404.12</ele>
        <time>2022-10-31T14:08:29.370Z</time>
      </trkpt>
      <trkpt lat="44.84753" lon="1.98818">
        <ele>402.37</ele>
        <time>2022-10-31T14:08:38.651Z</time>
      </trkpt>
      <trkpt lat="44.84742" lon="1.98822">
        <ele>399.39</ele>
        <time>2022-10-31T14:08:48.351Z</time>
      </trkpt>
      <trkpt lat="44.84735" lon="1.98825">
        <ele>399.37</ele>
        <time>2022-10-31T14:08:58.000Z</time>
      </trkpt>
      <trkpt lat="44.84726" lon="1.98831">
        <ele>397.44</ele>
        <time>2022-10-31T14:09:07.270Z</time>
      </trkpt>
      <trkpt lat="44.84722" lon="1.98836">
        <ele>398.31</ele>
        <time>2022-10-31T14:09:16.536Z</time>
      </trkpt>
      <trkpt lat="44.84718" lon="1.9884">
        <ele>395.37</ele>
        <time>2022-10-31T14:09:25.552Z</time>
      </trkpt>
      <trkpt lat="44.8471" lon="1.98846">
        <ele>394.37</ele>
        <time>2022-10-31T14:09:35.000Z</time>
      </trkpt>
      <trkpt lat="44.84703" lon="1.98847">
        <ele>393.37</ele>
        <time>2022-10-31T14:09:44.310Z</time>
      </trkpt>
      <trkpt lat="44.84694" lon="1.98849">
        <ele>392.37</ele>
        <time>2022-10-31T14:09:54.000Z</time>
      </trkpt>
      <trkpt lat="44.8469" lon="1.98849">
        <ele>389.44</ele>
        <time>2022-10-31T14:10:03.410Z</time>
      </trkpt>
      <trkpt lat="44.84684" lon="1.98853">
        <ele>388.44</ele>
        <time>2022-10-31T14:10:13.470Z</time>
      </trkpt>
      <trkpt lat="44.84676" lon="1.98849">
        <ele>386.12</ele>
        <time>2022-10-31T14:10:23.000Z</time>
      </trkpt>
      <trkpt lat="44.84671" lon="1.98842">
        <ele>387.37</ele>
        <time>2022-10-31T14:10:32.331Z</time>
      </trkpt>
      <trkpt lat="44.84671" lon="1.98837">
        <ele>387.37</ele>
        <time>2022-10-31T14:10:41.549Z</time>
      </trkpt>
      <trkpt lat="44.84673" lon="1.98828">
        <ele>385.38</ele>
        <time>2022-10-31T14:10:51.000Z</time>
      </trkpt>
      <trkpt lat="44.84678" lon="1.98818">
        <ele>383.37</ele>
        <time>2022-10-31T14:11:00.460Z</time>
      </trkpt>
      <trkpt lat="44.8468" lon="1.98812">
        <ele>383.44</ele>
        <time>2022-10-31T14:11:10.000Z</time>
      </trkpt>
      <trkpt lat="44.84684" lon="1.98804">
        <ele>380.38</ele>
        <time>2022-10-31T14:11:19.650Z</time>
      </trkpt>
      <trkpt lat="44.84688" lon="1.98797">
        <ele>380.62</ele>
        <time>2022-10-31T14:11:29.000Z</time>
      </trkpt>
      <trkpt lat="44.84695" lon="1.98787">
        <ele>379.62</ele>
        <time>2022-10-31T14:11:38.391Z</time>
      </trkpt>
      <trkpt lat="44.84698" lon="1.9878">
        <ele>379.37</ele>
        <time>2022-10-31T14:11:47.650Z</time>
      </trkpt>
      <trkpt lat="44.847" lon="1.98773">
        <ele>379.37</ele>
        <time>2022-10-31T14:11:56.690Z</time>
      </trkpt>
      <trkpt lat="44.84704" lon="1.98767">
        <ele>377.62</ele>
        <time>2022-10-31T14:12:06.410Z</time>
      </trkpt>
      <trkpt lat="44.84707" lon="1.98761">
        <ele>373.45</ele>
        <time>2022-10-31T14:12:15.461Z</time>
      </trkpt>
      <trkpt lat="44.84711" lon="1.98754">
        <ele>372.37</ele>
        <time>2022-10-31T14:12:24.610Z</time>
      </trkpt>
      <trkpt lat="44.84712" lon="1.98748">
        <ele>372.12</ele>
        <time>2022-10-31T14:12:34.000Z</time>
      </trkpt>
      <trkpt lat="44.84714" lon="1.98743">
        <ele>368.39</ele>
        <time>2022-10-31T14:12:43.331Z</time>
      </trkpt>
      <trkpt lat="44.84717" lon="1.98738">
        <ele>369.38</ele>
        <time>2022-10-31T14:12:52.370Z</time>
      </trkpt>
      <trkpt lat="44.8472" lon="1.98728">
        <ele>365.38</ele>
        <time>2022-10-31T14:13:01.610Z</time>
      </trkpt>
      <trkpt lat="44.84724" lon="1.98719">
        <ele>364.44</ele>
        <time>2022-10-31T14:13:11.000Z</time>
      </trkpt>
      <trkpt lat="44.84728" lon="1.98714">
        <ele>364.37</ele>
        <time>2022-10-31T14:13:20.411Z</time>
      </trkpt>
      <trkpt lat="44.8473" lon="1.98708">
        <ele>364.38</ele>
        <time>2022-10-31T14:13:29.459Z</time>
      </trkpt>
      <trkpt lat="44.84731" lon="1.98699">
        <ele>361.63</ele>
        <time>2022-10-31T14:13:39.000Z</time>
      </trkpt>
      <trkpt lat="44.84733" lon="1.9869">
        <ele>358.38</ele>
        <time>2022-10-31T14:13:49.000Z</time>
      </trkpt>
      <trkpt lat="44.84736" lon="1.98682">
        <ele>357.38</ele>
        <time>2022-10-31T14:13:58.256Z</time>
      </trkpt>
      <trkpt lat="44.84738" lon="1.98672">
        <ele>354.38</ele>
        <time>2022-10-31T14:14:07.610Z</time>
      </trkpt>
      <trkpt lat="44.84739" lon="1.98664">
        <ele>358.37</ele>
        <time>2022-10-31T14:14:17.000Z</time>
      </trkpt>
      <trkpt lat="44.84741" lon="1.98657">
        <ele>357.39</ele>
        <time>2022-10-31T14:14:26.370Z</time>
      </trkpt>
      <trkpt lat="44.84748" lon="1.98644">
        <ele>356.38</ele>
        <time>2022-10-31T14:14:36.000Z</time>
      </trkpt>
      <trkpt lat="44.84751" lon="1.98639">
        <ele>357.39</ele>
        <time>2022-10-31T14:14:45.410Z</time>
      </trkpt>
      <trkpt lat="44.84754" lon="1.98638">
        <ele>352.4</ele>
        <time>2022-10-31T14:14:54.469Z</time>
      </trkpt>
      <trkpt lat="44.84757" lon="1.98641">
        <ele>346.63</ele>
        <time>2022-10-31T14:15:04.000Z</time>
      </trkpt>
      <trkpt lat="44.84755" lon="1.98647">
        <ele>341.41</ele>
        <time>2022-10-31T14:15:13.190Z</time>
      </trkpt>
      <trkpt lat="44.84751" lon="1.9865">
        <ele>341.38</ele>
        <time>2022-10-31T14:15:22.411Z</time>
      </trkpt>
      <trkpt lat="44.84744" lon="1.98653">
        <ele>340.38</ele>
        <time>2022-10-31T14:15:33.000Z</time>
      </trkpt>
      <trkpt lat="44.84738" lon="1.98659">
        <ele>337.64</ele>
        <time>2022-10-31T14:15:42.101Z</time>
      </trkpt>
      <trkpt lat="44.84727" lon="1.98658">
        <ele>330.45</ele>
        <time>2022-10-31T14:15:51.461Z</time>
      </trkpt>
      <trkpt lat="44.8472" lon="1.98655">
        <ele>331.38</ele>
        <time>2022-10-31T14:16:00.490Z</time>
      </trkpt>
      <trkpt lat="44.84717" lon="1.98643">
        <ele>329.63</ele>
        <time>2022-10-31T14:16:10.080Z</time>
      </trkpt>
      <trkpt lat="44.84718" lon="1.98637">
        <ele>330.38</ele>
        <time>2022-10-31T14:16:19.391Z</time>
      </trkpt>
      <trkpt lat="44.84717" lon="1.98631">
        <ele>330.88</ele>
        <time>2022-10-31T14:16:30.000Z</time>
      </trkpt>
      <trkpt lat="44.84717" lon="1.98626">
        <ele>331.38</ele>
        <time>2022-10-31T14:16:39.465Z</time>
      </trkpt>
      <trkpt lat="44.84718" lon="1.98623">
        <ele>334.38</ele>
        <time>2022-10-31T14:16:49.000Z</time>
      </trkpt>
      <trkpt lat="44.84717" lon="1.98622">
        <ele>334.38</ele>
        <time>2022-10-31T14:17:00.000Z</time>
      </trkpt>
      <trkpt lat="44.84717" lon="1.98619">
        <ele>336.37</ele>
        <time>2022-10-31T14:17:10.000Z</time>
      </trkpt>
      <trkpt lat="44.84717" lon="1.98617">
        <ele>336.38</ele>
        <time>2022-10-31T14:17:20.000Z</time>
      </trkpt>
      <trkpt lat="44.84717" lon="1.98613">
        <ele>334.39</ele>
        <time>2022-10-31T14:17:30.000Z</time>
      </trkpt>
      <trkpt lat="44.84716" lon="1.98612">
        <ele>332.44</ele>
        <time>2022-10-31T14:17:44.000Z</time>
      </trkpt>
      <trkpt lat="44.84714" lon="1.98608">
        <ele>332.38</ele>
        <time>2022-10-31T14:17:54.000Z</time>
      </trkpt>
      <trkpt lat="44.84715" lon="1.98607">
        <ele>330.41</ele>
        <time>2022-10-31T14:19:01.000Z</time>
      </trkpt>
      <trkpt lat="44.84714" lon="1.98607">
        <ele>331.36</ele>
        <time>2022-10-31T14:19:22.000Z</time>
      </trkpt>
      <trkpt lat="44.84713" lon="1.98604">
        <ele>332.13</ele>
        <time>2022-10-31T14:20:18.000Z</time>
      </trkpt>
      <trkpt lat="44.84713" lon="1.98606">
        <ele>332.38</ele>
        <time>2022-10-31T14:20:28.000Z</time>
      </trkpt>
      <trkpt lat="44.84714" lon="1.98606">
        <ele>332.14</ele>
        <time>2022-10-31T14:20:39.489Z</time>
      </trkpt>
      <trkpt lat="44.84716" lon="1.98606">
        <ele>329.63</ele>
        <time>2022-10-31T14:20:49.000Z</time>
      </trkpt>
      <trkpt lat="44.84718" lon="1.98601">
        <ele>330.37</ele>
        <time>2022-10-31T14:20:58.513Z</time>
      </trkpt>
      <trkpt lat="44.84717" lon="1.98598">
        <ele>331.38</ele>
        <time>2022-10-31T14:21:08.231Z</time>
      </trkpt>
      <trkpt lat="44.84716" lon="1.98592">
        <ele>339.28</ele>
        <time>2022-10-31T14:21:17.531Z</time>
      </trkpt>
      <trkpt lat="44.84717" lon="1.98589">
        <ele>341.88</ele>
        <time>2022-10-31T14:21:27.000Z</time>
      </trkpt>
      <trkpt lat="44.84718" lon="1.98585">
        <ele>343.38</ele>
        <time>2022-10-31T14:21:36.251Z</time>
      </trkpt>
      <trkpt lat="44.84721" lon="1.98579">
        <ele>340.47</ele>
        <time>2022-10-31T14:21:45.709Z</time>
      </trkpt>
      <trkpt lat="44.84726" lon="1.98572">
        <ele>340.38</ele>
        <time>2022-10-31T14:21:55.392Z</time>
      </trkpt>
      <trkpt lat="44.84728" lon="1.98563">
        <ele>340.38</ele>
        <time>2022-10-31T14:22:04.670Z</time>
      </trkpt>
      <trkpt lat="44.84735" lon="1.98559">
        <ele>340.37</ele>
        <time>2022-10-31T14:22:14.131Z</time>
      </trkpt>
      <trkpt lat="44.84739" lon="1.98555">
        <ele>339.38</ele>
        <time>2022-10-31T14:22:23.391Z</time>
      </trkpt>
      <trkpt lat="44.84747" lon="1.98549">
        <ele>339.38</ele>
        <time>2022-10-31T14:22:33.000Z</time>
      </trkpt>
      <trkpt lat="44.84754" lon="1.98541">
        <ele>341.13</ele>
        <time>2022-10-31T14:22:43.000Z</time>
      </trkpt>
      <trkpt lat="44.84758" lon="1.98533">
        <ele>341.38</ele>
        <time>2022-10-31T14:22:52.350Z</time>
      </trkpt>
      <trkpt lat="44.84761" lon="1.98529">
        <ele>341.44</ele>
        <time>2022-10-31T14:23:02.000Z</time>
      </trkpt>
      <trkpt lat="44.84763" lon="1.98526">
        <ele>340.38</ele>
        <time>2022-10-31T14:23:11.653Z</time>
      </trkpt>
      <trkpt lat="44.84763" lon="1.98518">
        <ele>343.31</ele>
        <time>2022-10-31T14:23:22.000Z</time>
      </trkpt>
      <trkpt lat="44.8476" lon="1.98515">
        <ele>348</ele>
        <time>2022-10-31T14:23:32.000Z</time>
      </trkpt>
      <trkpt lat="44.84756" lon="1.98515">
        <ele>350.38</ele>
        <time>2022-10-31T14:23:42.000Z</time>
      </trkpt>
      <trkpt lat="44.8475" lon="1.98517">
        <ele>355.37</ele>
        <time>2022-10-31T14:23:51.350Z</time>
      </trkpt>
      <trkpt lat="44.84747" lon="1.98519">
        <ele>353.38</ele>
        <time>2022-10-31T14:24:00.569Z</time>
      </trkpt>
      <trkpt lat="44.84746" lon="1.98516">
        <ele>353.38</ele>
        <time>2022-10-31T14:24:09.669Z</time>
      </trkpt>
      <trkpt lat="44.84749" lon="1.98509">
        <ele>352.88</ele>
        <time>2022-10-31T14:24:20.000Z</time>
      </trkpt>
      <trkpt lat="44.84752" lon="1.98505">
        <ele>355.38</ele>
        <time>2022-10-31T14:24:29.729Z</time>
      </trkpt>
      <trkpt lat="44.84755" lon="1.985">
        <ele>358.13</ele>
        <time>2022-10-31T14:24:39.000Z</time>
      </trkpt>
      <trkpt lat="44.8476" lon="1.98495">
        <ele>359.13</ele>
        <time>2022-10-31T14:24:48.391Z</time>
      </trkpt>
      <trkpt lat="44.84764" lon="1.98488">
        <ele>361.13</ele>
        <time>2022-10-31T14:24:58.010Z</time>
      </trkpt>
      <trkpt lat="44.84766" lon="1.98485">
        <ele>361.38</ele>
        <time>2022-10-31T14:25:08.000Z</time>
      </trkpt>
      <trkpt lat="44.84766" lon="1.98482">
        <ele>361.45</ele>
        <time>2022-10-31T14:25:18.000Z</time>
      </trkpt>
      <trkpt lat="44.84769" lon="1.98477">
        <ele>360.38</ele>
        <time>2022-10-31T14:25:28.000Z</time>
      </trkpt>
      <trkpt lat="44.84773" lon="1.98474">
        <ele>359.38</ele>
        <time>2022-10-31T14:25:37.070Z</time>
      </trkpt>
      <trkpt lat="44.84778" lon="1.98474">
        <ele>356.38</ele>
        <time>2022-10-31T14:25:46.195Z</time>
      </trkpt>
      <trkpt lat="44.84783" lon="1.98477">
        <ele>354.38</ele>
        <time>2022-10-31T14:25:55.270Z</time>
      </trkpt>
      <trkpt lat="44.84791" lon="1.98481">
        <ele>350.38</ele>
        <time>2022-10-31T14:26:04.411Z</time>
      </trkpt>
      <trkpt lat="44.84797" lon="1.9848">
        <ele>348.38</ele>
        <time>2022-10-31T14:26:14.000Z</time>
      </trkpt>
      <trkpt lat="44.84797" lon="1.98479">
        <ele>349.38</ele>
        <time>2022-10-31T14:26:23.719Z</time>
      </trkpt>
      <trkpt lat="44.84798" lon="1.98478">
        <ele>352.38</ele>
        <time>2022-10-31T14:26:54.190Z</time>
      </trkpt>
      <trkpt lat="44.84799" lon="1.98477">
        <ele>355.36</ele>
        <time>2022-10-31T14:27:03.569Z</time>
      </trkpt>
      <trkpt lat="44.84801" lon="1.98484">
        <ele>355.38</ele>
        <time>2022-10-31T14:27:12.589Z</time>
      </trkpt>
      <trkpt lat="44.84801" lon="1.98486">
        <ele>356.38</ele>
        <time>2022-10-31T14:27:22.000Z</time>
      </trkpt>
      <trkpt lat="44.84799" lon="1.98486">
        <ele>357.38</ele>
        <time>2022-10-31T14:27:31.210Z</time>
      </trkpt>
      <trkpt lat="44.84791" lon="1.98487">
        <ele>359.38</ele>
        <time>2022-10-31T14:27:40.630Z</time>
      </trkpt>
      <trkpt lat="44.84786" lon="1.98484">
        <ele>362.13</ele>
        <time>2022-10-31T14:27:50.159Z</time>
      </trkpt>
      <trkpt lat="44.84782" lon="1.98478">
        <ele>359.65</ele>
        <time>2022-10-31T14:28:00.000Z</time>
      </trkpt>
      <trkpt lat="44.84782" lon="1.98476">
        <ele>360.38</ele>
        <time>2022-10-31T14:28:10.000Z</time>
      </trkpt>
      <trkpt lat="44.84781" lon="1.98475">
        <ele>362.38</ele>
        <time>2022-10-31T14:28:35.000Z</time>
      </trkpt>
      <trkpt lat="44.8478" lon="1.98474">
        <ele>360.88</ele>
        <time>2022-10-31T14:28:55.000Z</time>
      </trkpt>
      <trkpt lat="44.84779" lon="1.9847">
        <ele>358.38</ele>
        <time>2022-10-31T14:29:05.000Z</time>
      </trkpt>
      <trkpt lat="44.84778" lon="1.98471">
        <ele>358.57</ele>
        <time>2022-10-31T14:29:55.000Z</time>
      </trkpt>
      <trkpt lat="44.8478" lon="1.98474">
        <ele>355.38</ele>
        <time>2022-10-31T14:30:05.000Z</time>
      </trkpt>
      <trkpt lat="44.84779" lon="1.98475">
        <ele>356.38</ele>
        <time>2022-10-31T14:32:54.000Z</time>
      </trkpt>
      <trkpt lat="44.84779" lon="1.98476">
        <ele>356.38</ele>
        <time>2022-10-31T14:33:09.000Z</time>
      </trkpt>
      <trkpt lat="44.84776" lon="1.98477">
        <ele>357.38</ele>
        <time>2022-10-31T14:33:19.000Z</time>
      </trkpt>
      <trkpt lat="44.84775" lon="1.98476">
        <ele>357.38</ele>
        <time>2022-10-31T14:33:29.730Z</time>
      </trkpt>
      <trkpt lat="44.84773" lon="1.98476">
        <ele>357.38</ele>
        <time>2022-10-31T14:33:39.000Z</time>
      </trkpt>
      <trkpt lat="44.84771" lon="1.98477">
        <ele>356.38</ele>
        <time>2022-10-31T14:33:48.468Z</time>
      </trkpt>
      <trkpt lat="44.84767" lon="1.98478">
        <ele>357.38</ele>
        <time>2022-10-31T14:33:57.719Z</time>
      </trkpt>
      <trkpt lat="44.84765" lon="1.98481">
        <ele>356.4</ele>
        <time>2022-10-31T14:34:07.259Z</time>
      </trkpt>
      <trkpt lat="44.84762" lon="1.98483">
        <ele>358.38</ele>
        <time>2022-10-31T14:34:16.750Z</time>
      </trkpt>
      <trkpt lat="44.84759" lon="1.98487">
        <ele>357.38</ele>
        <time>2022-10-31T14:34:26.000Z</time>
      </trkpt>
      <trkpt lat="44.84758" lon="1.98493">
        <ele>356.44</ele>
        <time>2022-10-31T14:34:35.549Z</time>
      </trkpt>
      <trkpt lat="44.84762" lon="1.985">
        <ele>359.12</ele>
        <time>2022-10-31T14:34:45.170Z</time>
      </trkpt>
      <trkpt lat="44.84763" lon="1.98497">
        <ele>359.38</ele>
        <time>2022-10-31T14:34:54.361Z</time>
      </trkpt>
      <trkpt lat="44.84767" lon="1.98494">
        <ele>353.44</ele>
        <time>2022-10-31T14:35:04.000Z</time>
      </trkpt>
      <trkpt lat="44.8477" lon="1.98496">
        <ele>351.38</ele>
        <time>2022-10-31T14:35:13.350Z</time>
      </trkpt>
      <trkpt lat="44.8477" lon="1.98498">
        <ele>350.38</ele>
        <time>2022-10-31T14:35:23.000Z</time>
      </trkpt>
      <trkpt lat="44.84767" lon="1.98506">
        <ele>348.44</ele>
        <time>2022-10-31T14:35:32.509Z</time>
      </trkpt>
      <trkpt lat="44.84764" lon="1.98514">
        <ele>347.38</ele>
        <time>2022-10-31T14:35:42.000Z</time>
      </trkpt>
      <trkpt lat="44.84761" lon="1.98523">
        <ele>346.44</ele>
        <time>2022-10-31T14:35:51.671Z</time>
      </trkpt>
      <trkpt lat="44.84757" lon="1.98529">
        <ele>343.26</ele>
        <time>2022-10-31T14:36:01.000Z</time>
      </trkpt>
      <trkpt lat="44.84756" lon="1.98538">
        <ele>341.38</ele>
        <time>2022-10-31T14:36:10.509Z</time>
      </trkpt>
      <trkpt lat="44.84752" lon="1.98544">
        <ele>340.38</ele>
        <time>2022-10-31T14:36:20.000Z</time>
      </trkpt>
      <trkpt lat="44.84746" lon="1.98549">
        <ele>343.64</ele>
        <time>2022-10-31T14:36:29.351Z</time>
      </trkpt>
      <trkpt lat="44.84739" lon="1.98549">
        <ele>341.38</ele>
        <time>2022-10-31T14:36:38.709Z</time>
      </trkpt>
      <trkpt lat="44.84734" lon="1.98558">
        <ele>338.62</ele>
        <time>2022-10-31T14:36:48.211Z</time>
      </trkpt>
      <trkpt lat="44.84728" lon="1.98564">
        <ele>338.38</ele>
        <time>2022-10-31T14:36:57.212Z</time>
      </trkpt>
      <trkpt lat="44.84722" lon="1.98566">
        <ele>338.38</ele>
        <time>2022-10-31T14:37:06.631Z</time>
      </trkpt>
      <trkpt lat="44.84714" lon="1.9857">
        <ele>340.13</ele>
        <time>2022-10-31T14:37:16.000Z</time>
      </trkpt>
      <trkpt lat="44.84708" lon="1.98575">
        <ele>340.38</ele>
        <time>2022-10-31T14:37:25.170Z</time>
      </trkpt>
      <trkpt lat="44.84706" lon="1.98578">
        <ele>341.08</ele>
        <time>2022-10-31T14:37:34.410Z</time>
      </trkpt>
      <trkpt lat="44.84708" lon="1.9859">
        <ele>341.63</ele>
        <time>2022-10-31T14:37:45.000Z</time>
      </trkpt>
      <trkpt lat="44.84713" lon="1.98595">
        <ele>342.38</ele>
        <time>2022-10-31T14:37:54.650Z</time>
      </trkpt>
      <trkpt lat="44.84716" lon="1.98599">
        <ele>343.44</ele>
        <time>2022-10-31T14:38:03.729Z</time>
      </trkpt>
      <trkpt lat="44.84718" lon="1.98609">
        <ele>341.44</ele>
        <time>2022-10-31T14:38:13.030Z</time>
      </trkpt>
      <trkpt lat="44.84721" lon="1.9861">
        <ele>340.63</ele>
        <time>2022-10-31T14:38:22.351Z</time>
      </trkpt>
      <trkpt lat="44.84734" lon="1.98607">
        <ele>342.38</ele>
        <time>2022-10-31T14:38:32.410Z</time>
      </trkpt>
      <trkpt lat="44.84741" lon="1.98602">
        <ele>343.38</ele>
        <time>2022-10-31T14:38:41.590Z</time>
      </trkpt>
      <trkpt lat="44.8475" lon="1.98594">
        <ele>347.37</ele>
        <time>2022-10-31T14:38:51.000Z</time>
      </trkpt>
      <trkpt lat="44.84758" lon="1.98589">
        <ele>349.38</ele>
        <time>2022-10-31T14:39:01.000Z</time>
      </trkpt>
      <trkpt lat="44.84769" lon="1.98583">
        <ele>348.38</ele>
        <time>2022-10-31T14:39:10.190Z</time>
      </trkpt>
      <trkpt lat="44.8478" lon="1.98577">
        <ele>351.37</ele>
        <time>2022-10-31T14:39:19.508Z</time>
      </trkpt>
      <trkpt lat="44.84788" lon="1.98575">
        <ele>350.63</ele>
        <time>2022-10-31T14:39:29.000Z</time>
      </trkpt>
      <trkpt lat="44.84799" lon="1.98571">
        <ele>351.32</ele>
        <time>2022-10-31T14:39:38.508Z</time>
      </trkpt>
      <trkpt lat="44.84805" lon="1.98567">
        <ele>350.26</ele>
        <time>2022-10-31T14:39:48.000Z</time>
      </trkpt>
      <trkpt lat="44.84814" lon="1.98566">
        <ele>344.38</ele>
        <time>2022-10-31T14:39:57.500Z</time>
      </trkpt>
      <trkpt lat="44.84822" lon="1.98563">
        <ele>342.39</ele>
        <time>2022-10-31T14:40:07.000Z</time>
      </trkpt>
      <trkpt lat="44.84826" lon="1.98563">
        <ele>340.44</ele>
        <time>2022-10-31T14:40:16.211Z</time>
      </trkpt>
      <trkpt lat="44.8483" lon="1.9856">
        <ele>340.32</ele>
        <time>2022-10-31T14:40:26.000Z</time>
      </trkpt>
      <trkpt lat="44.84833" lon="1.98558">
        <ele>339.39</ele>
        <time>2022-10-31T14:40:35.410Z</time>
      </trkpt>
      <trkpt lat="44.84837" lon="1.98553">
        <ele>338.38</ele>
        <time>2022-10-31T14:40:44.450Z</time>
      </trkpt>
      <trkpt lat="44.84844" lon="1.98546">
        <ele>338.32</ele>
        <time>2022-10-31T14:40:54.000Z</time>
      </trkpt>
      <trkpt lat="44.84851" lon="1.98533">
        <ele>338.38</ele>
        <time>2022-10-31T14:41:03.529Z</time>
      </trkpt>
      <trkpt lat="44.84856" lon="1.98524">
        <ele>340.62</ele>
        <time>2022-10-31T14:41:12.690Z</time>
      </trkpt>
      <trkpt lat="44.84861" lon="1.98511">
        <ele>338.38</ele>
        <time>2022-10-31T14:41:22.000Z</time>
      </trkpt>
      <trkpt lat="44.84862" lon="1.98501">
        <ele>334.46</ele>
        <time>2022-10-31T14:41:31.351Z</time>
      </trkpt>
      <trkpt lat="44.84862" lon="1.98496">
        <ele>332.64</ele>
        <time>2022-10-31T14:41:41.000Z</time>
      </trkpt>
      <trkpt lat="44.84862" lon="1.98492">
        <ele>332.38</ele>
        <time>2022-10-31T14:41:50.291Z</time>
      </trkpt>
      <trkpt lat="44.84863" lon="1.98483">
        <ele>338.36</ele>
        <time>2022-10-31T14:41:59.350Z</time>
      </trkpt>
      <trkpt lat="44.84863" lon="1.98474">
        <ele>339.13</ele>
        <time>2022-10-31T14:42:09.000Z</time>
      </trkpt>
      <trkpt lat="44.84861" lon="1.98461">
        <ele>337.44</ele>
        <time>2022-10-31T14:42:18.370Z</time>
      </trkpt>
      <trkpt lat="44.84859" lon="1.98447">
        <ele>335.38</ele>
        <time>2022-10-31T14:42:27.590Z</time>
      </trkpt>
      <trkpt lat="44.84859" lon="1.98437">
        <ele>333.4</ele>
        <time>2022-10-31T14:42:36.890Z</time>
      </trkpt>
      <trkpt lat="44.84857" lon="1.98429">
        <ele>329.63</ele>
        <time>2022-10-31T14:42:46.000Z</time>
      </trkpt>
      <trkpt lat="44.84852" lon="1.98417">
        <ele>329.19</ele>
        <time>2022-10-31T14:42:55.451Z</time>
      </trkpt>
      <trkpt lat="44.84852" lon="1.98408">
        <ele>329.38</ele>
        <time>2022-10-31T14:43:04.507Z</time>
      </trkpt>
      <trkpt lat="44.84854" lon="1.98395">
        <ele>328.38</ele>
        <time>2022-10-31T14:43:14.000Z</time>
      </trkpt>
      <trkpt lat="44.84852" lon="1.98384">
        <ele>326.4</ele>
        <time>2022-10-31T14:43:23.431Z</time>
      </trkpt>
      <trkpt lat="44.84853" lon="1.98373">
        <ele>329.13</ele>
        <time>2022-10-31T14:43:32.700Z</time>
      </trkpt>
      <trkpt lat="44.84853" lon="1.9836">
        <ele>327.4</ele>
        <time>2022-10-31T14:43:42.030Z</time>
      </trkpt>
      <trkpt lat="44.84854" lon="1.98356">
        <ele>326.38</ele>
        <time>2022-10-31T14:43:51.551Z</time>
      </trkpt>
      <trkpt lat="44.84861" lon="1.98342">
        <ele>323.39</ele>
        <time>2022-10-31T14:44:01.611Z</time>
      </trkpt>
      <trkpt lat="44.84864" lon="1.98332">
        <ele>324.13</ele>
        <time>2022-10-31T14:44:11.250Z</time>
      </trkpt>
      <trkpt lat="44.84868" lon="1.98323">
        <ele>321.38</ele>
        <time>2022-10-31T14:44:20.507Z</time>
      </trkpt>
      <trkpt lat="44.84874" lon="1.98313">
        <ele>321.13</ele>
        <time>2022-10-31T14:44:29.971Z</time>
      </trkpt>
      <trkpt lat="44.84877" lon="1.98305">
        <ele>317.63</ele>
        <time>2022-10-31T14:44:39.050Z</time>
      </trkpt>
      <trkpt lat="44.8488" lon="1.98296">
        <ele>315.38</ele>
        <time>2022-10-31T14:44:48.430Z</time>
      </trkpt>
      <trkpt lat="44.84881" lon="1.98291">
        <ele>314.38</ele>
        <time>2022-10-31T14:44:58.350Z</time>
      </trkpt>
      <trkpt lat="44.84887" lon="1.98282">
        <ele>313.38</ele>
        <time>2022-10-31T14:45:07.451Z</time>
      </trkpt>
      <trkpt lat="44.84891" lon="1.98271">
        <ele>311.59</ele>
        <time>2022-10-31T14:45:16.711Z</time>
      </trkpt>
      <trkpt lat="44.84896" lon="1.98262">
        <ele>312.38</ele>
        <time>2022-10-31T14:45:26.290Z</time>
      </trkpt>
      <trkpt lat="44.84907" lon="1.98256">
        <ele>314.4</ele>
        <time>2022-10-31T14:45:36.000Z</time>
      </trkpt>
      <trkpt lat="44.84915" lon="1.98253">
        <ele>316.38</ele>
        <time>2022-10-31T14:45:45.510Z</time>
      </trkpt>
      <trkpt lat="44.84921" lon="1.98249">
        <ele>316.38</ele>
        <time>2022-10-31T14:45:54.609Z</time>
      </trkpt>
      <trkpt lat="44.84924" lon="1.98242">
        <ele>316.38</ele>
        <time>2022-10-31T14:46:04.210Z</time>
      </trkpt>
      <trkpt lat="44.84927" lon="1.98235">
        <ele>318.36</ele>
        <time>2022-10-31T14:46:13.351Z</time>
      </trkpt>
      <trkpt lat="44.84931" lon="1.98226">
        <ele>317.39</ele>
        <time>2022-10-31T14:46:23.000Z</time>
      </trkpt>
      <trkpt lat="44.84936" lon="1.98217">
        <ele>315.39</ele>
        <time>2022-10-31T14:46:32.310Z</time>
      </trkpt>
      <trkpt lat="44.84945" lon="1.98211">
        <ele>316.38</ele>
        <time>2022-10-31T14:46:41.699Z</time>
      </trkpt>
      <trkpt lat="44.84956" lon="1.982">
        <ele>314.63</ele>
        <time>2022-10-31T14:46:51.709Z</time>
      </trkpt>
      <trkpt lat="44.84962" lon="1.98193">
        <ele>311.38</ele>
        <time>2022-10-31T14:47:01.230Z</time>
      </trkpt>
      <trkpt lat="44.84966" lon="1.9819">
        <ele>309.26</ele>
        <time>2022-10-31T14:47:10.671Z</time>
      </trkpt>
      <trkpt lat="44.84974" lon="1.98187">
        <ele>307.39</ele>
        <time>2022-10-31T14:47:20.609Z</time>
      </trkpt>
      <trkpt lat="44.84982" lon="1.9818">
        <ele>308.37</ele>
        <time>2022-10-31T14:47:30.090Z</time>
      </trkpt>
      <trkpt lat="44.84989" lon="1.98178">
        <ele>310.13</ele>
        <time>2022-10-31T14:47:39.451Z</time>
      </trkpt>
      <trkpt lat="44.84997" lon="1.9817">
        <ele>314.38</ele>
        <time>2022-10-31T14:47:48.511Z</time>
      </trkpt>
      <trkpt lat="44.85004" lon="1.98161">
        <ele>315.43</ele>
        <time>2022-10-31T14:47:57.551Z</time>
      </trkpt>
      <trkpt lat="44.85013" lon="1.98149">
        <ele>316.38</ele>
        <time>2022-10-31T14:48:06.589Z</time>
      </trkpt>
      <trkpt lat="44.85026" lon="1.9814">
        <ele>319.38</ele>
        <time>2022-10-31T14:48:15.671Z</time>
      </trkpt>
      <trkpt lat="44.85037" lon="1.98133">
        <ele>318.38</ele>
        <time>2022-10-31T14:48:25.154Z</time>
      </trkpt>
      <trkpt lat="44.85044" lon="1.9812">
        <ele>315.39</ele>
        <time>2022-10-31T14:48:34.350Z</time>
      </trkpt>
      <trkpt lat="44.85049" lon="1.9811">
        <ele>314.39</ele>
        <time>2022-10-31T14:48:43.510Z</time>
      </trkpt>
      <trkpt lat="44.85057" lon="1.98097">
        <ele>312.4</ele>
        <time>2022-10-31T14:48:52.729Z</time>
      </trkpt>
      <trkpt lat="44.85066" lon="1.98082">
        <ele>310.39</ele>
        <time>2022-10-31T14:49:02.530Z</time>
      </trkpt>
      <trkpt lat="44.85072" lon="1.98066">
        <ele>306.45</ele>
        <time>2022-10-31T14:49:12.371Z</time>
      </trkpt>
      <trkpt lat="44.85066" lon="1.98052">
        <ele>300.66</ele>
        <time>2022-10-31T14:49:21.830Z</time>
      </trkpt>
      <trkpt lat="44.85062" lon="1.98043">
        <ele>297.39</ele>
        <time>2022-10-31T14:49:31.000Z</time>
      </trkpt>
      <trkpt lat="44.85053" lon="1.98037">
        <ele>296.39</ele>
        <time>2022-10-31T14:49:41.000Z</time>
      </trkpt>
      <trkpt lat="44.85044" lon="1.9803">
        <ele>294.39</ele>
        <time>2022-10-31T14:49:50.391Z</time>
      </trkpt>
      <trkpt lat="44.85038" lon="1.98026">
        <ele>293.64</ele>
        <time>2022-10-31T14:50:00.000Z</time>
      </trkpt>
      <trkpt lat="44.85027" lon="1.98018">
        <ele>296.39</ele>
        <time>2022-10-31T14:50:09.505Z</time>
      </trkpt>
      <trkpt lat="44.85021" lon="1.98013">
        <ele>295.39</ele>
        <time>2022-10-31T14:50:18.609Z</time>
      </trkpt>
      <trkpt lat="44.85013" lon="1.98003">
        <ele>298.32</ele>
        <time>2022-10-31T14:50:28.065Z</time>
      </trkpt>
      <trkpt lat="44.85008" lon="1.97993">
        <ele>300.39</ele>
        <time>2022-10-31T14:50:37.450Z</time>
      </trkpt>
      <trkpt lat="44.85003" lon="1.97985">
        <ele>299.39</ele>
        <time>2022-10-31T14:50:47.430Z</time>
      </trkpt>
      <trkpt lat="44.84997" lon="1.97969">
        <ele>297.38</ele>
        <time>2022-10-31T14:50:56.719Z</time>
      </trkpt>
      <trkpt lat="44.84996" lon="1.97957">
        <ele>295.39</ele>
        <time>2022-10-31T14:51:06.091Z</time>
      </trkpt>
      <trkpt lat="44.8499" lon="1.97948">
        <ele>294.39</ele>
        <time>2022-10-31T14:51:15.270Z</time>
      </trkpt>
      <trkpt lat="44.84983" lon="1.97941">
        <ele>292.7</ele>
        <time>2022-10-31T14:51:25.000Z</time>
      </trkpt>
      <trkpt lat="44.84981" lon="1.97935">
        <ele>290.42</ele>
        <time>2022-10-31T14:51:35.000Z</time>
      </trkpt>
      <trkpt lat="44.84975" lon="1.97928">
        <ele>292.33</ele>
        <time>2022-10-31T14:51:44.190Z</time>
      </trkpt>
      <trkpt lat="44.84968" lon="1.97922">
        <ele>292.39</ele>
        <time>2022-10-31T14:51:53.691Z</time>
      </trkpt>
      <trkpt lat="44.84961" lon="1.97917">
        <ele>291.39</ele>
        <time>2022-10-31T14:52:03.590Z</time>
      </trkpt>
      <trkpt lat="44.84957" lon="1.97914">
        <ele>291.39</ele>
        <time>2022-10-31T14:52:13.000Z</time>
      </trkpt>
      <trkpt lat="44.84954" lon="1.97912">
        <ele>286.39</ele>
        <time>2022-10-31T14:52:22.372Z</time>
      </trkpt>
      <trkpt lat="44.8495" lon="1.97905">
        <ele>285.45</ele>
        <time>2022-10-31T14:52:31.689Z</time>
      </trkpt>
      <trkpt lat="44.84952" lon="1.9789">
        <ele>287.37</ele>
        <time>2022-10-31T14:52:41.110Z</time>
      </trkpt>
      <trkpt lat="44.84959" lon="1.97875">
        <ele>287.39</ele>
        <time>2022-10-31T14:52:50.507Z</time>
      </trkpt>
      <trkpt lat="44.84961" lon="1.97862">
        <ele>290.33</ele>
        <time>2022-10-31T14:52:59.529Z</time>
      </trkpt>
      <trkpt lat="44.84962" lon="1.97845">
        <ele>291.39</ele>
        <time>2022-10-31T14:53:09.610Z</time>
      </trkpt>
      <trkpt lat="44.84957" lon="1.97831">
        <ele>288.41</ele>
        <time>2022-10-31T14:53:19.190Z</time>
      </trkpt>
      <trkpt lat="44.84951" lon="1.9782">
        <ele>286.41</ele>
        <time>2022-10-31T14:53:28.729Z</time>
      </trkpt>
      <trkpt lat="44.84944" lon="1.97809">
        <ele>283.39</ele>
        <time>2022-10-31T14:53:38.000Z</time>
      </trkpt>
      <trkpt lat="44.84937" lon="1.97793">
        <ele>283.33</ele>
        <time>2022-10-31T14:53:47.251Z</time>
      </trkpt>
      <trkpt lat="44.84931" lon="1.97782">
        <ele>281.46</ele>
        <time>2022-10-31T14:53:56.431Z</time>
      </trkpt>
      <trkpt lat="44.84929" lon="1.97775">
        <ele>275.56</ele>
        <time>2022-10-31T14:54:06.000Z</time>
      </trkpt>
      <trkpt lat="44.84927" lon="1.97768">
        <ele>275.39</ele>
        <time>2022-10-31T14:54:15.210Z</time>
      </trkpt>
      <trkpt lat="44.84918" lon="1.97759">
        <ele>273.39</ele>
        <time>2022-10-31T14:54:24.508Z</time>
      </trkpt>
      <trkpt lat="44.84907" lon="1.97746">
        <ele>270.4</ele>
        <time>2022-10-31T14:54:34.589Z</time>
      </trkpt>
      <trkpt lat="44.84901" lon="1.97734">
        <ele>269.14</ele>
        <time>2022-10-31T14:54:44.411Z</time>
      </trkpt>
      <trkpt lat="44.84897" lon="1.97722">
        <ele>267.4</ele>
        <time>2022-10-31T14:54:54.000Z</time>
      </trkpt>
      <trkpt lat="44.84891" lon="1.97711">
        <ele>266.39</ele>
        <time>2022-10-31T14:55:03.271Z</time>
      </trkpt>
      <trkpt lat="44.84885" lon="1.97696">
        <ele>265.46</ele>
        <time>2022-10-31T14:55:12.549Z</time>
      </trkpt>
      <trkpt lat="44.84879" lon="1.97686">
        <ele>262.39</ele>
        <time>2022-10-31T14:55:22.000Z</time>
      </trkpt>
      <trkpt lat="44.84878" lon="1.97672">
        <ele>259.46</ele>
        <time>2022-10-31T14:55:31.451Z</time>
      </trkpt>
      <trkpt lat="44.84881" lon="1.97658">
        <ele>259.39</ele>
        <time>2022-10-31T14:55:41.000Z</time>
      </trkpt>
      <trkpt lat="44.84881" lon="1.9765">
        <ele>262.38</ele>
        <time>2022-10-31T14:55:50.529Z</time>
      </trkpt>
      <trkpt lat="44.84884" lon="1.97637">
        <ele>266.33</ele>
        <time>2022-10-31T14:56:00.000Z</time>
      </trkpt>
      <trkpt lat="44.84885" lon="1.97619">
        <ele>266.66</ele>
        <time>2022-10-31T14:56:09.190Z</time>
      </trkpt>
      <trkpt lat="44.84889" lon="1.976">
        <ele>266.46</ele>
        <time>2022-10-31T14:56:18.499Z</time>
      </trkpt>
      <trkpt lat="44.84889" lon="1.9759">
        <ele>264.41</ele>
        <time>2022-10-31T14:56:28.000Z</time>
      </trkpt>
      <trkpt lat="44.84887" lon="1.97575">
        <ele>262.41</ele>
        <time>2022-10-31T14:56:37.411Z</time>
      </trkpt>
      <trkpt lat="44.84888" lon="1.97557">
        <ele>259.65</ele>
        <time>2022-10-31T14:56:47.431Z</time>
      </trkpt>
      <trkpt lat="44.84885" lon="1.97542">
        <ele>257.41</ele>
        <time>2022-10-31T14:56:56.730Z</time>
      </trkpt>
      <trkpt lat="44.84879" lon="1.97534">
        <ele>254.46</ele>
        <time>2022-10-31T14:57:06.000Z</time>
      </trkpt>
      <trkpt lat="44.84875" lon="1.97518">
        <ele>253.4</ele>
        <time>2022-10-31T14:57:16.000Z</time>
      </trkpt>
      <trkpt lat="44.8487" lon="1.97509">
        <ele>253.4</ele>
        <time>2022-10-31T14:57:25.391Z</time>
      </trkpt>
      <trkpt lat="44.84867" lon="1.97505">
        <ele>254.4</ele>
        <time>2022-10-31T14:57:35.609Z</time>
      </trkpt>
      <trkpt lat="44.84866" lon="1.9749">
        <ele>254.34</ele>
        <time>2022-10-31T14:57:45.500Z</time>
      </trkpt>
      <trkpt lat="44.8487" lon="1.97476">
        <ele>254.39</ele>
        <time>2022-10-31T14:57:54.532Z</time>
      </trkpt>
      <trkpt lat="44.84878" lon="1.9746">
        <ele>251.48</ele>
        <time>2022-10-31T14:58:04.070Z</time>
      </trkpt>
      <trkpt lat="44.84883" lon="1.97447">
        <ele>250.4</ele>
        <time>2022-10-31T14:58:13.590Z</time>
      </trkpt>
      <trkpt lat="44.84889" lon="1.97432">
        <ele>250.4</ele>
        <time>2022-10-31T14:58:23.000Z</time>
      </trkpt>
      <trkpt lat="44.84892" lon="1.97417">
        <ele>252.4</ele>
        <time>2022-10-31T14:58:32.450Z</time>
      </trkpt>
      <trkpt lat="44.84894" lon="1.97403">
        <ele>251.65</ele>
        <time>2022-10-31T14:58:42.000Z</time>
      </trkpt>
      <trkpt lat="44.84897" lon="1.97388">
        <ele>249.4</ele>
        <time>2022-10-31T14:58:52.000Z</time>
      </trkpt>
      <trkpt lat="44.84903" lon="1.97375">
        <ele>246.65</ele>
        <time>2022-10-31T14:59:01.149Z</time>
      </trkpt>
      <trkpt lat="44.84908" lon="1.97361">
        <ele>245.4</ele>
        <time>2022-10-31T14:59:10.532Z</time>
      </trkpt>
      <trkpt lat="44.84914" lon="1.97349">
        <ele>244.4</ele>
        <time>2022-10-31T14:59:19.609Z</time>
      </trkpt>
      <trkpt lat="44.84919" lon="1.97341">
        <ele>243.4</ele>
        <time>2022-10-31T14:59:28.650Z</time>
      </trkpt>
      <trkpt lat="44.84928" lon="1.97327">
        <ele>242.4</ele>
        <time>2022-10-31T14:59:39.000Z</time>
      </trkpt>
      <trkpt lat="44.84936" lon="1.97312">
        <ele>238.67</ele>
        <time>2022-10-31T14:59:48.669Z</time>
      </trkpt>
      <trkpt lat="44.84941" lon="1.97305">
        <ele>237.4</ele>
        <time>2022-10-31T14:59:58.000Z</time>
      </trkpt>
      <trkpt lat="44.84941" lon="1.97302">
        <ele>237.4</ele>
        <time>2022-10-31T15:00:07.411Z</time>
      </trkpt>
      <trkpt lat="44.84949" lon="1.97286">
        <ele>235.4</ele>
        <time>2022-10-31T15:00:17.000Z</time>
      </trkpt>
      <trkpt lat="44.84955" lon="1.97272">
        <ele>238.4</ele>
        <time>2022-10-31T15:00:26.670Z</time>
      </trkpt>
      <trkpt lat="44.84964" lon="1.97263">
        <ele>240.4</ele>
        <time>2022-10-31T15:00:36.510Z</time>
      </trkpt>
      <trkpt lat="44.84972" lon="1.97254">
        <ele>243.4</ele>
        <time>2022-10-31T15:00:46.000Z</time>
      </trkpt>
      <trkpt lat="44.84981" lon="1.97249">
        <ele>245.39</ele>
        <time>2022-10-31T15:00:55.710Z</time>
      </trkpt>
      <trkpt lat="44.8499" lon="1.9724">
        <ele>246.4</ele>
        <time>2022-10-31T15:01:05.120Z</time>
      </trkpt>
      <trkpt lat="44.85001" lon="1.97232">
        <ele>244.4</ele>
        <time>2022-10-31T15:01:14.250Z</time>
      </trkpt>
      <trkpt lat="44.8501" lon="1.97223">
        <ele>242.46</ele>
        <time>2022-10-31T15:01:23.430Z</time>
      </trkpt>
      <trkpt lat="44.85019" lon="1.97213">
        <ele>240.41</ele>
        <time>2022-10-31T15:01:33.000Z</time>
      </trkpt>
      <trkpt lat="44.85028" lon="1.97207">
        <ele>238.4</ele>
        <time>2022-10-31T15:01:42.211Z</time>
      </trkpt>
      <trkpt lat="44.85036" lon="1.97204">
        <ele>236.4</ele>
        <time>2022-10-31T15:01:51.330Z</time>
      </trkpt>
      <trkpt lat="44.85048" lon="1.97194">
        <ele>235.46</ele>
        <time>2022-10-31T15:02:00.450Z</time>
      </trkpt>
      <trkpt lat="44.85055" lon="1.97188">
        <ele>236.39</ele>
        <time>2022-10-31T15:02:10.000Z</time>
      </trkpt>
      <trkpt lat="44.85058" lon="1.97187">
        <ele>237.4</ele>
        <time>2022-10-31T15:02:19.579Z</time>
      </trkpt>
      <trkpt lat="44.8506" lon="1.97184">
        <ele>236.4</ele>
        <time>2022-10-31T15:02:29.000Z</time>
      </trkpt>
      <trkpt lat="44.85065" lon="1.9718">
        <ele>236.46</ele>
        <time>2022-10-31T15:02:38.031Z</time>
      </trkpt>
      <trkpt lat="44.85075" lon="1.97173">
        <ele>236.4</ele>
        <time>2022-10-31T15:02:47.230Z</time>
      </trkpt>
      <trkpt lat="44.85083" lon="1.97164">
        <ele>237.21</ele>
        <time>2022-10-31T15:02:57.000Z</time>
      </trkpt>
      <trkpt lat="44.85087" lon="1.9716">
        <ele>234.42</ele>
        <time>2022-10-31T15:03:06.189Z</time>
      </trkpt>
      <trkpt lat="44.85095" lon="1.97149">
        <ele>234.4</ele>
        <time>2022-10-31T15:03:16.000Z</time>
      </trkpt>
      <trkpt lat="44.85102" lon="1.97136">
        <ele>234.4</ele>
        <time>2022-10-31T15:03:25.255Z</time>
      </trkpt>
      <trkpt lat="44.85106" lon="1.97124">
        <ele>235.4</ele>
        <time>2022-10-31T15:03:34.690Z</time>
      </trkpt>
      <trkpt lat="44.85112" lon="1.97111">
        <ele>237.15</ele>
        <time>2022-10-31T15:03:44.050Z</time>
      </trkpt>
      <trkpt lat="44.85116" lon="1.97098">
        <ele>237.4</ele>
        <time>2022-10-31T15:03:53.412Z</time>
      </trkpt>
      <trkpt lat="44.85117" lon="1.97091">
        <ele>238.4</ele>
        <time>2022-10-31T15:04:03.000Z</time>
      </trkpt>
      <trkpt lat="44.8512" lon="1.97087">
        <ele>235.67</ele>
        <time>2022-10-31T15:04:13.000Z</time>
      </trkpt>
      <trkpt lat="44.85121" lon="1.97085">
        <ele>235.4</ele>
        <time>2022-10-31T15:04:23.000Z</time>
      </trkpt>
      <trkpt lat="44.8512" lon="1.97083">
        <ele>234.47</ele>
        <time>2022-10-31T15:04:33.131Z</time>
      </trkpt>
      <trkpt lat="44.85118" lon="1.97083">
        <ele>234.4</ele>
        <time>2022-10-31T15:04:43.000Z</time>
      </trkpt>
      <trkpt lat="44.85119" lon="1.97083">
        <ele>233.4</ele>
        <time>2022-10-31T15:05:15.000Z</time>
      </trkpt>
      <trkpt lat="44.85125" lon="1.97075">
        <ele>234.34</ele>
        <time>2022-10-31T15:05:24.410Z</time>
      </trkpt>
      <trkpt lat="44.85127" lon="1.97062">
        <ele>236.4</ele>
        <time>2022-10-31T15:05:34.000Z</time>
      </trkpt>
      <trkpt lat="44.85135" lon="1.97049">
        <ele>236.47</ele>
        <time>2022-10-31T15:05:43.630Z</time>
      </trkpt>
      <trkpt lat="44.85144" lon="1.9704">
        <ele>235.41</ele>
        <time>2022-10-31T15:05:52.670Z</time>
      </trkpt>
      <trkpt lat="44.85155" lon="1.97039">
        <ele>235.41</ele>
        <time>2022-10-31T15:06:02.190Z</time>
      </trkpt>
      <trkpt lat="44.85165" lon="1.97038">
        <ele>236.4</ele>
        <time>2022-10-31T15:06:11.570Z</time>
      </trkpt>
      <trkpt lat="44.85174" lon="1.97039">
        <ele>237.4</ele>
        <time>2022-10-31T15:06:20.730Z</time>
      </trkpt>
      <trkpt lat="44.85184" lon="1.97043">
        <ele>238.4</ele>
        <time>2022-10-31T15:06:29.749Z</time>
      </trkpt>
      <trkpt lat="44.85195" lon="1.9705">
        <ele>236.65</ele>
        <time>2022-10-31T15:06:39.721Z</time>
      </trkpt>
      <trkpt lat="44.85206" lon="1.97044">
        <ele>234.4</ele>
        <time>2022-10-31T15:06:48.740Z</time>
      </trkpt>
      <trkpt lat="44.85212" lon="1.97039">
        <ele>236.39</ele>
        <time>2022-10-31T15:06:58.000Z</time>
      </trkpt>
      <trkpt lat="44.85224" lon="1.97028">
        <ele>237.4</ele>
        <time>2022-10-31T15:07:07.369Z</time>
      </trkpt>
      <trkpt lat="44.8523" lon="1.97019">
        <ele>232.67</ele>
        <time>2022-10-31T15:07:16.390Z</time>
      </trkpt>
      <trkpt lat="44.85237" lon="1.97012">
        <ele>233.34</ele>
        <time>2022-10-31T15:07:25.431Z</time>
      </trkpt>
      <trkpt lat="44.8525" lon="1.96994">
        <ele>233.4</ele>
        <time>2022-10-31T15:07:35.547Z</time>
      </trkpt>
      <trkpt lat="44.85261" lon="1.96979">
        <ele>234.15</ele>
        <time>2022-10-31T15:07:44.630Z</time>
      </trkpt>
      <trkpt lat="44.85268" lon="1.96971">
        <ele>234.41</ele>
        <time>2022-10-31T15:07:54.000Z</time>
      </trkpt>
      <trkpt lat="44.8528" lon="1.96958">
        <ele>234.39</ele>
        <time>2022-10-31T15:08:03.411Z</time>
      </trkpt>
      <trkpt lat="44.8529" lon="1.96945">
        <ele>235.41</ele>
        <time>2022-10-31T15:08:12.533Z</time>
      </trkpt>
      <trkpt lat="44.85301" lon="1.96933">
        <ele>234.41</ele>
        <time>2022-10-31T15:08:21.611Z</time>
      </trkpt>
      <trkpt lat="44.85309" lon="1.96922">
        <ele>234.64</ele>
        <time>2022-10-31T15:08:30.630Z</time>
      </trkpt>
      <trkpt lat="44.85314" lon="1.96915">
        <ele>234.4</ele>
        <time>2022-10-31T15:08:39.702Z</time>
      </trkpt>
      <trkpt lat="44.85322" lon="1.96906">
        <ele>236.41</ele>
        <time>2022-10-31T15:08:49.210Z</time>
      </trkpt>
      <trkpt lat="44.85329" lon="1.96896">
        <ele>235.41</ele>
        <time>2022-10-31T15:08:58.589Z</time>
      </trkpt>
      <trkpt lat="44.85338" lon="1.96887">
        <ele>238.39</ele>
        <time>2022-10-31T15:09:08.211Z</time>
      </trkpt>
      <trkpt lat="44.85351" lon="1.96877">
        <ele>237.34</ele>
        <time>2022-10-31T15:09:17.390Z</time>
      </trkpt>
      <trkpt lat="44.85363" lon="1.96863">
        <ele>235.66</ele>
        <time>2022-10-31T15:09:27.231Z</time>
      </trkpt>
      <trkpt lat="44.85371" lon="1.96855">
        <ele>233.66</ele>
        <time>2022-10-31T15:09:36.549Z</time>
      </trkpt>
      <trkpt lat="44.85377" lon="1.96846">
        <ele>232.41</ele>
        <time>2022-10-31T15:09:45.779Z</time>
      </trkpt>
      <trkpt lat="44.85383" lon="1.96837">
        <ele>233.17</ele>
        <time>2022-10-31T15:09:55.171Z</time>
      </trkpt>
      <trkpt lat="44.85388" lon="1.96827">
        <ele>234.41</ele>
        <time>2022-10-31T15:10:04.410Z</time>
      </trkpt>
      <trkpt lat="44.85393" lon="1.96817">
        <ele>236.39</ele>
        <time>2022-10-31T15:10:14.000Z</time>
      </trkpt>
      <trkpt lat="44.85403" lon="1.96797">
        <ele>238.41</ele>
        <time>2022-10-31T15:10:23.589Z</time>
      </trkpt>
      <trkpt lat="44.85408" lon="1.96784">
        <ele>241.35</ele>
        <time>2022-10-31T15:10:32.811Z</time>
      </trkpt>
      <trkpt lat="44.85413" lon="1.96769">
        <ele>241.66</ele>
        <time>2022-10-31T15:10:42.000Z</time>
      </trkpt>
      <trkpt lat="44.85421" lon="1.96752">
        <ele>243.15</ele>
        <time>2022-10-31T15:10:51.109Z</time>
      </trkpt>
      <trkpt lat="44.85427" lon="1.96738">
        <ele>241.47</ele>
        <time>2022-10-31T15:11:01.000Z</time>
      </trkpt>
      <trkpt lat="44.85433" lon="1.96721">
        <ele>238.41</ele>
        <time>2022-10-31T15:11:11.000Z</time>
      </trkpt>
      <trkpt lat="44.85438" lon="1.96705">
        <ele>238.41</ele>
        <time>2022-10-31T15:11:20.570Z</time>
      </trkpt>
      <trkpt lat="44.85441" lon="1.9669">
        <ele>238.41</ele>
        <time>2022-10-31T15:11:29.754Z</time>
      </trkpt>
      <trkpt lat="44.85444" lon="1.96675">
        <ele>239.41</ele>
        <time>2022-10-31T15:11:39.070Z</time>
      </trkpt>
      <trkpt lat="44.85447" lon="1.96659">
        <ele>234.68</ele>
        <time>2022-10-31T15:11:49.000Z</time>
      </trkpt>
      <trkpt lat="44.85448" lon="1.9664">
        <ele>233.41</ele>
        <time>2022-10-31T15:11:58.691Z</time>
      </trkpt>
      <trkpt lat="44.8545" lon="1.96623">
        <ele>234.16</ele>
        <time>2022-10-31T15:12:08.491Z</time>
      </trkpt>
      <trkpt lat="44.85449" lon="1.96607">
        <ele>235.41</ele>
        <time>2022-10-31T15:12:17.650Z</time>
      </trkpt>
      <trkpt lat="44.85448" lon="1.96591">
        <ele>235.4</ele>
        <time>2022-10-31T15:12:27.073Z</time>
      </trkpt>
      <trkpt lat="44.85447" lon="1.96575">
        <ele>237.41</ele>
        <time>2022-10-31T15:12:36.290Z</time>
      </trkpt>
      <trkpt lat="44.85446" lon="1.96562">
        <ele>233.04</ele>
        <time>2022-10-31T15:12:46.000Z</time>
      </trkpt>
      <trkpt lat="44.85438" lon="1.96551">
        <ele>234.4</ele>
        <time>2022-10-31T15:12:55.540Z</time>
      </trkpt>
      <trkpt lat="44.85438" lon="1.96533">
        <ele>235.41</ele>
        <time>2022-10-31T15:13:05.491Z</time>
      </trkpt>
      <trkpt lat="44.85437" lon="1.96516">
        <ele>234.23</ele>
        <time>2022-10-31T15:13:15.000Z</time>
      </trkpt>
      <trkpt lat="44.85435" lon="1.965">
        <ele>235.41</ele>
        <time>2022-10-31T15:13:24.269Z</time>
      </trkpt>
      <trkpt lat="44.85435" lon="1.96483">
        <ele>235.35</ele>
        <time>2022-10-31T15:13:34.000Z</time>
      </trkpt>
      <trkpt lat="44.85432" lon="1.96466">
        <ele>233.42</ele>
        <time>2022-10-31T15:13:43.550Z</time>
      </trkpt>
      <trkpt lat="44.85425" lon="1.96449">
        <ele>228.73</ele>
        <time>2022-10-31T15:13:52.971Z</time>
      </trkpt>
      <trkpt lat="44.85424" lon="1.96434">
        <ele>227.42</ele>
        <time>2022-10-31T15:14:02.000Z</time>
      </trkpt>
      <trkpt lat="44.85425" lon="1.9642">
        <ele>223.67</ele>
        <time>2022-10-31T15:14:11.211Z</time>
      </trkpt>
      <trkpt lat="44.85425" lon="1.96409">
        <ele>224.41</ele>
        <time>2022-10-31T15:14:20.589Z</time>
      </trkpt>
      <trkpt lat="44.85425" lon="1.96397">
        <ele>225.41</ele>
        <time>2022-10-31T15:14:30.000Z</time>
      </trkpt>
      <trkpt lat="44.85424" lon="1.96395">
        <ele>225.42</ele>
        <time>2022-10-31T15:14:40.000Z</time>
      </trkpt>
      <trkpt lat="44.85423" lon="1.96396">
        <ele>225.41</ele>
        <time>2022-10-31T15:14:52.000Z</time>
      </trkpt>
      <trkpt lat="44.85422" lon="1.96396">
        <ele>224.66</ele>
        <time>2022-10-31T15:15:16.000Z</time>
      </trkpt>
      <trkpt lat="44.85421" lon="1.96394">
        <ele>224.41</ele>
        <time>2022-10-31T15:15:26.000Z</time>
      </trkpt>
      <trkpt lat="44.85422" lon="1.96394">
        <ele>223.6</ele>
        <time>2022-10-31T15:15:50.000Z</time>
      </trkpt>
      <trkpt lat="44.85423" lon="1.96392">
        <ele>222.41</ele>
        <time>2022-10-31T15:16:00.000Z</time>
      </trkpt>
      <trkpt lat="44.85423" lon="1.9639">
        <ele>223.16</ele>
        <time>2022-10-31T15:16:17.000Z</time>
      </trkpt>
      <trkpt lat="44.85423" lon="1.96382">
        <ele>221.41</ele>
        <time>2022-10-31T15:16:27.000Z</time>
      </trkpt>
      <trkpt lat="44.85424" lon="1.96382">
        <ele>221.35</ele>
        <time>2022-10-31T15:16:56.000Z</time>
      </trkpt>
      <trkpt lat="44.85426" lon="1.96382">
        <ele>221.41</ele>
        <time>2022-10-31T15:17:28.000Z</time>
      </trkpt>
      <trkpt lat="44.85422" lon="1.96361">
        <ele>221.42</ele>
        <time>2022-10-31T15:17:38.000Z</time>
      </trkpt>
      <trkpt lat="44.85406" lon="1.96319">
        <ele>222.17</ele>
        <time>2022-10-31T15:17:48.000Z</time>
      </trkpt>
    </trkseg>
  </trk>
</gpx>